Time,TemperatureF,DewpointF,PressureIn,WindDirection,WindDirectionDegrees,WindSpeedMPH,WindSpeedGustMPH,Humidity,HourlyPrecipIn,Conditions,Clouds,dailyrainin,SoftwareType,DateUTC
2013-09-07 00:00:00,47.3,35.4,29.09,NNE,22,0.0,0.0,63,0.00,,---,0.00,VWS V14.01,2013-09-07 04:00:00,
2013-09-07 00:01:00,47.1,35.2,29.09,NNE,22,0.0,0.0,63,0.00,,---,0.00,VWS V14.01,2013-09-07 04:01:00,
2013-09-07 00:02:00,47.1,35.2,29.09,NNE,22,0.0,0.0,63,0.00,,---,0.00,VWS V14.01,2013-09-07 04:02:00,
2013-09-07 00:03:00,47.1,34.8,29.09,NNE,22,0.0,0.0,62,0.00,,---,0.00,VWS V14.01,2013-09-07 04:03:00,
2013-09-07 00:04:00,47.1,34.8,29.09,NNE,22,0.0,0.0,62,0.00,,---,0.00,VWS V14.01,2013-09-07 04:04:00,
2013-09-07 00:05:00,47.1,34.8,29.09,NNE,22,0.0,0.0,62,0.00,,---,0.00,VWS V14.01,2013-09-07 04:05:00,
2013-09-07 00:06:00,47.1,34.8,29.09,NNE,22,0.0,0.0,62,0.00,,---,0.00,VWS V14.01,2013-09-07 04:06:00,
2013-09-07 00:07:00,47.1,34.8,29.09,NNE,22,0.0,0.0,62,0.00,,---,0.00,VWS V14.01,2013-09-07 04:07:00,
2013-09-07 00:08:00,47.1,34.8,29.09,NNE,22,0.0,0.0,62,0.00,,---,0.00,VWS V14.01,2013-09-07 04:08:00,
2013-09-07 00:09:00,47.1,34.8,29.09,NNE,22,0.0,0.0,62,0.00,,---,0.00,VWS V14.01,2013-09-07 04:09:00,
2013-09-07 00:10:00,46.9,34.6,29.09,NNE,22,0.0,0.0,62,0.00,,---,0.00,VWS V14.01,2013-09-07 04:10:00,
2013-09-07 00:11:00,46.9,34.6,29.09,NNE,22,0.0,0.0,62,0.00,,---,0.00,VWS V14.01,2013-09-07 04:11:00,
2013-09-07 00:12:00,46.9,34.6,29.09,NNE,22,0.0,0.0,62,0.00,,---,0.00,VWS V14.01,2013-09-07 04:12:00,
2013-09-07 00:13:00,46.9,34.6,29.09,NNE,22,0.0,0.0,62,0.00,,---,0.00,VWS V14.01,2013-09-07 04:13:00,
2013-09-07 00:14:00,46.9,34.6,29.09,NNE,22,0.0,0.0,62,0.00,,---,0.00,VWS V14.01,2013-09-07 04:14:00,
2013-09-07 00:15:00,46.9,34.6,29.09,NNE,22,0.0,0.0,62,0.00,,---,0.00,VWS V14.01,2013-09-07 04:15:00,
2013-09-07 00:16:00,46.9,34.6,29.09,NNE,22,0.0,0.0,62,0.00,,---,0.00,VWS V14.01,2013-09-07 04:16:00,
2013-09-07 00:17:00,46.9,34.6,29.09,NNE,22,0.0,0.0,62,0.00,,---,0.00,VWS V14.01,2013-09-07 04:17:00,
2013-09-07 00:18:00,46.9,34.6,29.09,NNE,22,0.0,0.0,62,0.00,,---,0.00,VWS V14.01,2013-09-07 04:18:00,
2013-09-07 00:19:00,46.9,34.6,29.09,NNE,22,0.0,0.0,62,0.00,,---,0.00,VWS V14.01,2013-09-07 04:19:00,
2013-09-07 00:20:00,46.9,34.6,29.09,NNE,22,0.0,0.0,62,0.00,,---,0.00,VWS V14.01,2013-09-07 04:20:00,
2013-09-07 00:21:00,46.9,34.6,29.09,NNE,22,0.0,0.0,62,0.00,,---,0.00,VWS V14.01,2013-09-07 04:21:00,
2013-09-07 00:22:00,47.1,35.2,29.09,NNE,22,0.0,0.0,63,0.00,,---,0.00,VWS V14.01,2013-09-07 04:22:00,
2013-09-07 00:23:00,47.1,35.2,29.09,NNE,22,0.0,0.0,63,0.00,,---,0.00,VWS V14.01,2013-09-07 04:23:00,
2013-09-07 00:24:00,47.1,35.2,29.09,NNE,22,0.0,0.0,63,0.00,,---,0.00,VWS V14.01,2013-09-07 04:24:00,
2013-09-07 00:25:00,47.1,35.2,29.09,NNE,22,0.0,0.0,63,0.00,,---,0.00,VWS V14.01,2013-09-07 04:25:00,
2013-09-07 00:26:00,47.1,35.2,29.09,NNE,22,0.0,0.0,63,0.00,,---,0.00,VWS V14.01,2013-09-07 04:26:00,
2013-09-07 00:27:00,47.1,35.2,29.09,NNE,22,0.0,0.0,63,0.00,,---,0.00,VWS V14.01,2013-09-07 04:27:00,
2013-09-07 00:28:00,47.1,35.2,29.11,NNE,22,0.0,0.0,63,0.00,,---,0.00,VWS V14.01,2013-09-07 04:28:00,
2013-09-07 00:29:00,47.1,35.2,29.11,NNE,22,0.0,0.0,63,0.00,,---,0.00,VWS V14.01,2013-09-07 04:29:00,
2013-09-07 00:30:00,47.3,35.8,29.11,NNE,22,0.0,0.0,64,0.00,,---,0.00,VWS V14.01,2013-09-07 04:30:00,
2013-09-07 00:31:00,47.3,35.8,29.12,NNE,22,0.0,0.0,64,0.00,,---,0.00,VWS V14.01,2013-09-07 04:31:00,
2013-09-07 00:32:00,47.3,35.8,29.11,NNE,22,0.0,0.0,64,0.00,,---,0.00,VWS V14.01,2013-09-07 04:32:00,
2013-09-07 00:33:00,47.5,35.9,29.11,NNE,22,0.0,0.0,64,0.00,,---,0.00,VWS V14.01,2013-09-07 04:33:00,
2013-09-07 00:34:00,47.5,35.9,29.11,NNE,22,0.0,0.0,64,0.00,,---,0.00,VWS V14.01,2013-09-07 04:34:00,
2013-09-07 00:35:00,47.5,35.9,29.11,NNE,22,0.0,0.0,64,0.00,,---,0.00,VWS V14.01,2013-09-07 04:35:00,
2013-09-07 00:36:00,47.5,35.9,29.12,NNE,22,0.0,0.0,64,0.00,,---,0.00,VWS V14.01,2013-09-07 04:36:00,
2013-09-07 00:37:00,47.5,35.9,29.11,NNE,22,0.0,0.0,64,0.00,,---,0.00,VWS V14.01,2013-09-07 04:37:00,
2013-09-07 00:38:00,47.5,35.9,29.11,NNE,22,0.0,0.0,64,0.00,,---,0.00,VWS V14.01,2013-09-07 04:38:00,
2013-09-07 00:39:00,47.5,35.9,29.11,NNE,22,0.0,0.0,64,0.00,,---,0.00,VWS V14.01,2013-09-07 04:39:00,
2013-09-07 00:40:00,47.5,36.7,29.11,NNE,22,0.0,0.0,66,0.00,,---,0.00,VWS V14.01,2013-09-07 04:40:00,
2013-09-07 00:41:00,47.5,36.7,29.12,NNE,22,0.0,0.0,66,0.00,,---,0.00,VWS V14.01,2013-09-07 04:41:00,
2013-09-07 00:42:00,47.7,36.5,29.11,NNE,22,0.0,0.0,65,0.00,,---,0.00,VWS V14.01,2013-09-07 04:42:00,
2013-09-07 00:43:00,47.7,36.5,29.09,NNE,22,0.0,0.0,65,0.00,,---,0.00,VWS V14.01,2013-09-07 04:43:00,
2013-09-07 00:44:00,47.7,36.5,29.09,NNE,22,0.0,0.0,65,0.00,,---,0.00,VWS V14.01,2013-09-07 04:44:00,
2013-09-07 00:45:00,47.7,36.5,29.09,NNE,22,0.0,0.0,65,0.00,,---,0.00,VWS V14.01,2013-09-07 04:45:00,
2013-09-07 00:46:00,47.7,36.5,29.09,NNE,22,0.0,0.0,65,0.00,,---,0.00,VWS V14.01,2013-09-07 04:46:00,
2013-09-07 00:47:00,47.7,36.5,29.09,NNE,22,0.0,0.0,65,0.00,,---,0.00,VWS V14.01,2013-09-07 04:47:00,
2013-09-07 00:48:00,47.7,36.5,29.09,NNE,22,0.0,0.0,65,0.00,,---,0.00,VWS V14.01,2013-09-07 04:48:00,
2013-09-07 00:49:00,47.7,36.5,29.09,NNE,22,0.0,0.0,65,0.00,,---,0.00,VWS V14.01,2013-09-07 04:49:00,
2013-09-07 00:50:00,47.7,36.5,29.09,NNE,22,0.0,0.0,65,0.00,,---,0.00,VWS V14.01,2013-09-07 04:50:00,
2013-09-07 00:51:00,47.8,37.0,29.09,NNE,22,0.0,0.0,66,0.00,,---,0.00,VWS V14.01,2013-09-07 04:51:00,
2013-09-07 00:52:00,47.8,37.0,29.09,NNE,22,0.0,0.0,66,0.00,,---,0.00,VWS V14.01,2013-09-07 04:52:00,
2013-09-07 00:53:00,47.8,37.0,29.09,NNE,22,0.0,0.0,66,0.00,,---,0.00,VWS V14.01,2013-09-07 04:53:00,
2013-09-07 00:54:00,47.8,36.7,29.09,NNE,22,0.0,0.0,65,0.00,,---,0.00,VWS V14.01,2013-09-07 04:54:00,
2013-09-07 00:55:00,47.8,36.7,29.09,NNE,22,0.0,0.0,65,0.00,,---,0.00,VWS V14.01,2013-09-07 04:55:00,
2013-09-07 00:56:00,47.8,37.0,29.09,NNE,22,0.0,0.0,66,0.00,,---,0.00,VWS V14.01,2013-09-07 04:56:00,
2013-09-07 00:57:00,47.8,37.0,29.09,NNE,22,0.0,0.0,66,0.00,,---,0.00,VWS V14.01,2013-09-07 04:57:00,
2013-09-07 00:58:00,47.8,36.7,29.09,NNE,22,0.0,0.0,65,0.00,,---,0.00,VWS V14.01,2013-09-07 04:58:00,
2013-09-07 00:59:00,47.8,36.7,29.09,NNE,22,0.0,0.0,65,0.00,,---,0.00,VWS V14.01,2013-09-07 04:59:00,
2013-09-07 01:00:00,47.8,36.7,29.09,NNE,22,0.0,0.0,65,0.00,,---,0.00,VWS V14.01,2013-09-07 05:00:00,
2013-09-07 01:01:00,47.8,36.7,29.09,NNE,22,0.0,0.0,65,0.00,,---,0.00,VWS V14.01,2013-09-07 05:01:00,
2013-09-07 01:02:00,47.8,36.7,29.09,NNE,22,0.0,0.0,65,0.00,,---,0.00,VWS V14.01,2013-09-07 05:02:00,
2013-09-07 01:03:00,47.8,36.7,29.09,NNE,22,0.0,0.0,65,0.00,,---,0.00,VWS V14.01,2013-09-07 05:03:00,
2013-09-07 01:04:00,47.8,36.7,29.09,NNE,22,0.0,0.0,65,0.00,,---,0.00,VWS V14.01,2013-09-07 05:04:00,
2013-09-07 01:05:00,47.8,37.0,29.09,NNE,22,0.0,0.0,66,0.00,,---,0.00,VWS V14.01,2013-09-07 05:05:00,
2013-09-07 01:06:00,47.8,37.0,29.09,NNE,22,0.0,0.0,66,0.00,,---,0.00,VWS V14.01,2013-09-07 05:06:00,
2013-09-07 01:07:00,47.8,37.0,29.09,NNE,22,0.0,0.0,66,0.00,,---,0.00,VWS V14.01,2013-09-07 05:07:00,
2013-09-07 01:08:00,47.8,37.0,29.09,NNE,22,0.0,0.0,66,0.00,,---,0.00,VWS V14.01,2013-09-07 05:08:00,
2013-09-07 01:09:00,47.8,37.0,29.09,NNE,22,0.0,0.0,66,0.00,,---,0.00,VWS V14.01,2013-09-07 05:09:00,
2013-09-07 01:10:00,48.0,37.2,29.09,NNE,22,0.0,0.0,66,0.00,,---,0.00,VWS V14.01,2013-09-07 05:10:00,
2013-09-07 01:11:00,48.0,37.2,29.09,NNE,22,0.0,0.0,66,0.00,,---,0.00,VWS V14.01,2013-09-07 05:11:00,
2013-09-07 01:12:00,48.0,37.6,29.09,NNE,22,0.0,0.0,67,0.00,,---,0.00,VWS V14.01,2013-09-07 05:12:00,
2013-09-07 01:13:00,48.0,37.6,29.09,NNE,22,0.0,0.0,67,0.00,,---,0.00,VWS V14.01,2013-09-07 05:13:00,
2013-09-07 01:14:00,48.2,38.2,29.09,NNE,22,0.0,0.0,68,0.00,,---,0.00,VWS V14.01,2013-09-07 05:14:00,
2013-09-07 01:15:00,48.2,38.2,29.09,NNE,22,0.0,0.0,68,0.00,,---,0.00,VWS V14.01,2013-09-07 05:15:00,
2013-09-07 01:16:00,48.2,38.2,29.09,NNE,22,0.0,0.0,68,0.00,,---,0.00,VWS V14.01,2013-09-07 05:16:00,
2013-09-07 01:17:00,48.2,38.2,29.09,NNE,22,0.0,0.0,68,0.00,,---,0.00,VWS V14.01,2013-09-07 05:17:00,
2013-09-07 01:18:00,48.2,38.2,29.09,NNE,22,0.0,0.0,68,0.00,,---,0.00,VWS V14.01,2013-09-07 05:18:00,
2013-09-07 01:19:00,48.2,37.8,29.09,NNE,22,0.0,0.0,67,0.00,,---,0.00,VWS V14.01,2013-09-07 05:19:00,
2013-09-07 01:20:00,48.2,37.8,29.09,NNE,22,0.0,0.0,67,0.00,,---,0.00,VWS V14.01,2013-09-07 05:20:00,
2013-09-07 01:21:00,48.2,37.8,29.09,NE,45,0.0,0.0,67,0.00,,---,0.00,VWS V14.01,2013-09-07 05:21:00,
2013-09-07 01:22:00,48.2,37.8,29.09,NE,45,0.0,0.0,67,0.00,,---,0.00,VWS V14.01,2013-09-07 05:22:00,
2013-09-07 01:23:00,48.4,37.9,29.09,NE,45,0.0,0.0,67,0.00,,---,0.00,VWS V14.01,2013-09-07 05:23:00,
2013-09-07 01:24:00,48.4,37.9,29.09,NE,45,0.0,0.0,67,0.00,,---,0.00,VWS V14.01,2013-09-07 05:24:00,
2013-09-07 01:25:00,48.4,37.9,29.09,NE,45,0.0,0.0,67,0.00,,---,0.00,VWS V14.01,2013-09-07 05:25:00,
2013-09-07 01:26:00,48.4,37.9,29.09,NE,45,0.0,0.0,67,0.00,,---,0.00,VWS V14.01,2013-09-07 05:26:00,
2013-09-07 01:27:00,48.4,37.9,29.09,NE,45,0.0,0.0,67,0.00,,---,0.00,VWS V14.01,2013-09-07 05:27:00,
2013-09-07 01:28:00,48.4,37.9,29.09,NE,45,0.0,0.0,67,0.00,,---,0.00,VWS V14.01,2013-09-07 05:28:00,
2013-09-07 01:29:00,48.4,37.9,29.09,NE,45,0.0,0.0,67,0.00,,---,0.00,VWS V14.01,2013-09-07 05:29:00,
2013-09-07 01:30:00,48.4,37.9,29.09,NE,45,0.0,0.0,67,0.00,,---,0.00,VWS V14.01,2013-09-07 05:30:00,
2013-09-07 01:31:00,48.4,37.9,29.09,NE,45,0.0,0.0,67,0.00,,---,0.00,VWS V14.01,2013-09-07 05:31:00,
2013-09-07 01:32:00,48.4,37.9,29.09,NE,45,0.0,0.0,67,0.00,,---,0.00,VWS V14.01,2013-09-07 05:32:00,
2013-09-07 01:33:00,48.4,37.9,29.09,NNE,22,0.0,0.0,67,0.00,,---,0.00,VWS V14.01,2013-09-07 05:33:00,
2013-09-07 01:34:00,48.4,37.9,29.09,NNE,22,0.0,0.0,67,0.00,,---,0.00,VWS V14.01,2013-09-07 05:34:00,
2013-09-07 01:35:00,48.4,37.9,29.09,NNE,22,0.0,0.0,67,0.00,,---,0.00,VWS V14.01,2013-09-07 05:35:00,
2013-09-07 01:36:00,48.4,37.9,29.09,NNE,22,0.0,0.0,67,0.00,,---,0.00,VWS V14.01,2013-09-07 05:36:00,
2013-09-07 01:37:00,48.4,37.9,29.09,NNE,22,0.0,0.0,67,0.00,,---,0.00,VWS V14.01,2013-09-07 05:37:00,
2013-09-07 01:38:00,48.4,37.9,29.09,NNE,22,0.0,0.0,67,0.00,,---,0.00,VWS V14.01,2013-09-07 05:38:00,
2013-09-07 01:39:00,48.4,37.9,29.09,NNE,22,0.0,0.0,67,0.00,,---,0.00,VWS V14.01,2013-09-07 05:39:00,
2013-09-07 01:40:00,48.4,37.9,29.09,NNE,22,0.0,0.0,67,0.00,,---,0.00,VWS V14.01,2013-09-07 05:40:00,
2013-09-07 01:41:00,48.4,37.9,29.09,NNE,22,0.0,0.0,67,0.00,,---,0.00,VWS V14.01,2013-09-07 05:41:00,
2013-09-07 01:42:00,48.4,37.9,29.09,NNE,22,0.0,0.0,67,0.00,,---,0.00,VWS V14.01,2013-09-07 05:42:00,
2013-09-07 01:43:00,48.4,37.9,29.09,NNE,22,0.0,0.0,67,0.00,,---,0.00,VWS V14.01,2013-09-07 05:43:00,
2013-09-07 01:44:00,48.4,37.9,29.09,NNE,22,0.0,0.0,67,0.00,,---,0.00,VWS V14.01,2013-09-07 05:44:00,
2013-09-07 01:45:00,48.4,37.9,29.09,NNE,22,0.0,0.0,67,0.00,,---,0.00,VWS V14.01,2013-09-07 05:45:00,
2013-09-07 01:46:00,48.4,37.9,29.09,NNE,22,0.0,0.0,67,0.00,,---,0.00,VWS V14.01,2013-09-07 05:46:00,
2013-09-07 01:47:00,48.4,37.9,29.09,NNE,22,0.0,0.0,67,0.00,,---,0.00,VWS V14.01,2013-09-07 05:47:00,
2013-09-07 01:48:00,48.4,37.9,29.09,NNE,22,0.0,0.0,67,0.00,,---,0.00,VWS V14.01,2013-09-07 05:48:00,
2013-09-07 01:49:00,48.4,37.9,29.09,NNE,22,0.0,0.0,67,0.00,,---,0.00,VWS V14.01,2013-09-07 05:49:00,
2013-09-07 01:50:00,48.4,37.9,29.09,NNE,22,0.0,0.0,67,0.00,,---,0.00,VWS V14.01,2013-09-07 05:50:00,
2013-09-07 01:51:00,48.4,37.9,29.09,NNE,22,0.0,0.0,67,0.00,,---,0.00,VWS V14.01,2013-09-07 05:51:00,
2013-09-07 01:52:00,48.4,37.9,29.09,NNE,22,0.0,0.0,67,0.00,,---,0.00,VWS V14.01,2013-09-07 05:52:00,
2013-09-07 01:53:00,48.4,37.9,29.09,NNE,22,0.0,0.0,67,0.00,,---,0.00,VWS V14.01,2013-09-07 05:53:00,
2013-09-07 01:54:00,48.4,37.9,29.09,NNE,22,0.0,0.0,67,0.00,,---,0.00,VWS V14.01,2013-09-07 05:54:00,
2013-09-07 01:55:00,48.4,37.9,29.09,NNE,22,0.0,0.0,67,0.00,,---,0.00,VWS V14.01,2013-09-07 05:55:00,
2013-09-07 01:56:00,48.4,37.9,29.09,NNE,22,0.0,0.0,67,0.00,,---,0.00,VWS V14.01,2013-09-07 05:56:00,
2013-09-07 01:57:00,48.4,37.9,29.09,NNE,22,0.0,0.0,67,0.00,,---,0.00,VWS V14.01,2013-09-07 05:57:00,
2013-09-07 01:58:00,48.4,37.9,29.09,NNE,22,0.0,0.0,67,0.00,,---,0.00,VWS V14.01,2013-09-07 05:58:00,
2013-09-07 01:59:00,48.4,37.9,29.09,NNE,22,0.0,0.0,67,0.00,,---,0.00,VWS V14.01,2013-09-07 05:59:00,
2013-09-07 02:00:00,48.4,37.9,29.09,NNE,22,0.0,0.0,67,0.00,,---,0.00,VWS V14.01,2013-09-07 06:00:00,
2013-09-07 02:01:00,48.4,37.9,29.09,NNE,22,0.0,0.0,67,0.00,,---,0.00,VWS V14.01,2013-09-07 06:01:00,
2013-09-07 02:02:00,48.4,37.9,29.09,NNE,22,0.0,0.0,67,0.00,,---,0.00,VWS V14.01,2013-09-07 06:02:00,
2013-09-07 02:03:00,48.4,37.9,29.09,NNE,22,0.0,0.0,67,0.00,,---,0.00,VWS V14.01,2013-09-07 06:03:00,
2013-09-07 02:04:00,48.4,37.9,29.09,NNE,22,0.0,0.0,67,0.00,,---,0.00,VWS V14.01,2013-09-07 06:04:00,
2013-09-07 02:05:00,48.4,37.9,29.09,NNE,22,0.0,0.0,67,0.00,,---,0.00,VWS V14.01,2013-09-07 06:05:00,
2013-09-07 02:06:00,48.4,37.9,29.09,NNE,22,0.0,0.0,67,0.00,,---,0.00,VWS V14.01,2013-09-07 06:06:00,
2013-09-07 02:07:00,48.4,37.9,29.09,NNE,22,0.0,0.0,67,0.00,,---,0.00,VWS V14.01,2013-09-07 06:07:00,
2013-09-07 02:08:00,48.4,37.9,29.09,NNE,22,0.0,0.0,67,0.00,,---,0.00,VWS V14.01,2013-09-07 06:08:00,
2013-09-07 02:09:00,48.4,37.9,29.09,NNE,22,0.0,0.0,67,0.00,,---,0.00,VWS V14.01,2013-09-07 06:09:00,
2013-09-07 02:10:00,48.4,37.9,29.09,NNE,22,0.0,0.0,67,0.00,,---,0.00,VWS V14.01,2013-09-07 06:10:00,
2013-09-07 02:11:00,48.4,37.9,29.09,NNE,22,0.0,0.0,67,0.00,,---,0.00,VWS V14.01,2013-09-07 06:11:00,
2013-09-07 02:12:00,48.4,37.9,29.09,NNE,22,0.0,0.0,67,0.00,,---,0.00,VWS V14.01,2013-09-07 06:12:00,
2013-09-07 02:13:00,48.4,37.9,29.09,NNE,22,0.0,0.0,67,0.00,,---,0.00,VWS V14.01,2013-09-07 06:13:00,
2013-09-07 02:14:00,48.4,37.9,29.09,NNE,22,0.0,0.0,67,0.00,,---,0.00,VWS V14.01,2013-09-07 06:14:00,
2013-09-07 02:15:00,48.4,37.9,29.09,NNE,22,0.0,0.0,67,0.00,,---,0.00,VWS V14.01,2013-09-07 06:15:00,
2013-09-07 02:16:00,48.4,37.9,29.09,NNE,22,0.0,0.0,67,0.00,,---,0.00,VWS V14.01,2013-09-07 06:16:00,
2013-09-07 02:17:00,48.4,37.9,29.09,NNE,22,0.0,0.0,67,0.00,,---,0.00,VWS V14.01,2013-09-07 06:17:00,
2013-09-07 02:18:00,48.4,37.9,29.09,NNE,22,0.0,0.0,67,0.00,,---,0.00,VWS V14.01,2013-09-07 06:18:00,
2013-09-07 02:19:00,48.4,37.9,29.09,NNE,22,0.0,0.0,67,0.00,,---,0.00,VWS V14.01,2013-09-07 06:19:00,
2013-09-07 02:20:00,48.4,37.9,29.09,NNE,22,0.0,0.0,67,0.00,,---,0.00,VWS V14.01,2013-09-07 06:20:00,
2013-09-07 02:21:00,48.4,37.9,29.09,NNE,22,0.0,0.0,67,0.00,,---,0.00,VWS V14.01,2013-09-07 06:21:00,
2013-09-07 02:22:00,48.4,37.9,29.09,NNE,22,0.0,0.0,67,0.00,,---,0.00,VWS V14.01,2013-09-07 06:22:00,
2013-09-07 02:23:00,48.4,37.9,29.09,NNE,22,0.0,0.0,67,0.00,,---,0.00,VWS V14.01,2013-09-07 06:23:00,
2013-09-07 02:24:00,48.4,37.9,29.09,NNE,22,0.0,0.0,67,0.00,,---,0.00,VWS V14.01,2013-09-07 06:24:00,
2013-09-07 02:25:00,48.4,37.9,29.09,NNE,22,0.0,0.0,67,0.00,,---,0.00,VWS V14.01,2013-09-07 06:25:00,
2013-09-07 02:26:00,48.4,37.9,29.09,NNE,22,0.0,0.0,67,0.00,,---,0.00,VWS V14.01,2013-09-07 06:26:00,
2013-09-07 02:27:00,48.4,37.9,29.09,NNE,22,0.0,0.0,67,0.00,,---,0.00,VWS V14.01,2013-09-07 06:27:00,
2013-09-07 02:28:00,48.4,38.3,29.09,NNE,22,0.0,0.0,68,0.00,,---,0.00,VWS V14.01,2013-09-07 06:28:00,
2013-09-07 02:29:00,48.4,38.3,29.09,NNE,22,0.0,0.0,68,0.00,,---,0.00,VWS V14.01,2013-09-07 06:29:00,
2013-09-07 02:30:00,48.4,38.3,29.09,NNE,22,0.0,0.0,68,0.00,,---,0.00,VWS V14.01,2013-09-07 06:30:00,
2013-09-07 02:31:00,48.4,37.9,29.09,NNE,22,0.0,0.0,67,0.00,,---,0.00,VWS V14.01,2013-09-07 06:31:00,
2013-09-07 02:32:00,48.4,37.9,29.09,NNE,22,0.0,0.0,67,0.00,,---,0.00,VWS V14.01,2013-09-07 06:32:00,
2013-09-07 02:33:00,48.4,37.9,29.09,NNE,22,0.0,0.0,67,0.00,,---,0.00,VWS V14.01,2013-09-07 06:33:00,
2013-09-07 02:34:00,48.4,37.9,29.09,NNE,22,0.0,0.0,67,0.00,,---,0.00,VWS V14.01,2013-09-07 06:34:00,
2013-09-07 02:35:00,48.4,37.9,29.09,NNE,22,0.0,0.0,67,0.00,,---,0.00,VWS V14.01,2013-09-07 06:35:00,
2013-09-07 02:36:00,48.4,37.9,29.09,NNE,22,0.0,0.0,67,0.00,,---,0.00,VWS V14.01,2013-09-07 06:36:00,
2013-09-07 02:37:00,48.4,37.9,29.09,NNE,22,0.0,0.0,67,0.00,,---,0.00,VWS V14.01,2013-09-07 06:37:00,
2013-09-07 02:38:00,48.4,37.9,29.09,NNE,22,0.0,0.0,67,0.00,,---,0.00,VWS V14.01,2013-09-07 06:38:00,
2013-09-07 02:39:00,48.4,37.9,29.09,NNE,22,0.0,0.0,67,0.00,,---,0.00,VWS V14.01,2013-09-07 06:39:00,
2013-09-07 02:40:00,48.4,37.9,29.09,NNE,22,0.0,0.0,67,0.00,,---,0.00,VWS V14.01,2013-09-07 06:40:00,
2013-09-07 02:41:00,48.4,37.9,29.09,NNE,22,0.0,0.0,67,0.00,,---,0.00,VWS V14.01,2013-09-07 06:41:00,
2013-09-07 02:42:00,48.4,37.9,29.09,NNE,22,0.0,0.0,67,0.00,,---,0.00,VWS V14.01,2013-09-07 06:42:00,
2013-09-07 02:43:00,48.4,37.9,29.09,NNE,22,0.0,0.0,67,0.00,,---,0.00,VWS V14.01,2013-09-07 06:43:00,
2013-09-07 02:44:00,48.4,37.9,29.09,NNE,22,0.0,0.0,67,0.00,,---,0.00,VWS V14.01,2013-09-07 06:44:00,
2013-09-07 02:45:00,48.4,37.9,29.09,NNE,22,0.0,0.0,67,0.00,,---,0.00,VWS V14.01,2013-09-07 06:45:00,
2013-09-07 02:46:00,48.4,37.9,29.09,NNE,22,0.0,0.0,67,0.00,,---,0.00,VWS V14.01,2013-09-07 06:46:00,
2013-09-07 02:47:00,48.4,37.9,29.09,NNE,22,0.0,0.0,67,0.00,,---,0.00,VWS V14.01,2013-09-07 06:47:00,
2013-09-07 02:48:00,48.4,37.9,29.09,NNE,22,0.0,0.0,67,0.00,,---,0.00,VWS V14.01,2013-09-07 06:48:00,
2013-09-07 02:49:00,48.4,37.9,29.09,NNE,22,0.0,0.0,67,0.00,,---,0.00,VWS V14.01,2013-09-07 06:49:00,
2013-09-07 02:50:00,48.4,37.9,29.09,NNE,22,0.0,0.0,67,0.00,,---,0.00,VWS V14.01,2013-09-07 06:50:00,
2013-09-07 02:51:00,48.4,37.9,29.09,NNE,22,0.0,0.0,67,0.00,,---,0.00,VWS V14.01,2013-09-07 06:51:00,
2013-09-07 02:52:00,48.4,37.9,29.09,NNE,22,0.0,0.0,67,0.00,,---,0.00,VWS V14.01,2013-09-07 06:52:00,
2013-09-07 02:53:00,48.4,37.9,29.09,NNE,22,0.0,0.0,67,0.00,,---,0.00,VWS V14.01,2013-09-07 06:53:00,
2013-09-07 02:54:00,48.4,38.3,29.09,NNE,22,0.0,0.0,68,0.00,,---,0.00,VWS V14.01,2013-09-07 06:54:00,
2013-09-07 02:55:00,48.4,38.3,29.09,NNE,22,0.0,0.0,68,0.00,,---,0.00,VWS V14.01,2013-09-07 06:55:00,
2013-09-07 02:56:00,48.4,38.3,29.09,NNE,22,0.0,0.0,68,0.00,,---,0.00,VWS V14.01,2013-09-07 06:56:00,
2013-09-07 02:57:00,48.4,38.3,29.09,NNE,22,0.0,0.0,68,0.00,,---,0.00,VWS V14.01,2013-09-07 06:57:00,
2013-09-07 02:58:00,48.4,38.3,29.09,NNE,22,0.0,0.0,68,0.00,,---,0.00,VWS V14.01,2013-09-07 06:58:00,
2013-09-07 02:59:00,48.4,38.3,29.09,NNE,22,0.0,0.0,68,0.00,,---,0.00,VWS V14.01,2013-09-07 06:59:00,
2013-09-07 03:00:00,48.4,38.3,29.09,NNE,22,0.0,0.0,68,0.00,,---,0.00,VWS V14.01,2013-09-07 07:00:00,
2013-09-07 03:01:00,48.4,37.9,29.09,NNE,22,0.0,0.0,67,0.00,,---,0.00,VWS V14.01,2013-09-07 07:01:00,
2013-09-07 03:02:00,48.4,37.9,29.09,NNE,22,0.0,0.0,67,0.00,,---,0.00,VWS V14.01,2013-09-07 07:02:00,
2013-09-07 03:03:00,48.4,37.9,29.09,NNE,22,0.0,0.0,67,0.00,,---,0.00,VWS V14.01,2013-09-07 07:03:00,
2013-09-07 03:04:00,48.4,37.9,29.09,NNE,22,0.0,0.0,67,0.00,,---,0.00,VWS V14.01,2013-09-07 07:04:00,
2013-09-07 03:05:00,48.4,37.9,29.09,NNE,22,0.0,0.0,67,0.00,,---,0.00,VWS V14.01,2013-09-07 07:05:00,
2013-09-07 03:06:00,48.4,37.9,29.09,NNE,22,0.0,0.0,67,0.00,,---,0.00,VWS V14.01,2013-09-07 07:06:00,
2013-09-07 03:07:00,48.4,38.3,29.09,NNE,22,0.0,0.0,68,0.00,,---,0.00,VWS V14.01,2013-09-07 07:07:00,
2013-09-07 03:08:00,48.4,38.3,29.09,NNE,22,0.0,0.0,68,0.00,,---,0.00,VWS V14.01,2013-09-07 07:08:00,
2013-09-07 03:09:00,48.4,38.3,29.09,NNE,22,0.0,0.0,68,0.00,,---,0.00,VWS V14.01,2013-09-07 07:09:00,
2013-09-07 03:10:00,48.4,38.3,29.09,NNE,22,0.0,0.0,68,0.00,,---,0.00,VWS V14.01,2013-09-07 07:10:00,
2013-09-07 03:11:00,48.4,38.3,29.09,NNE,22,0.0,0.0,68,0.00,,---,0.00,VWS V14.01,2013-09-07 07:11:00,
2013-09-07 03:12:00,48.4,38.3,29.09,NNE,22,0.0,0.0,68,0.00,,---,0.00,VWS V14.01,2013-09-07 07:12:00,
2013-09-07 03:13:00,48.4,38.3,29.09,NNE,22,0.0,0.0,68,0.00,,---,0.00,VWS V14.01,2013-09-07 07:13:00,
2013-09-07 03:14:00,48.4,38.3,29.09,NNE,22,0.0,0.0,68,0.00,,---,0.00,VWS V14.01,2013-09-07 07:14:00,
2013-09-07 03:15:00,48.4,38.3,29.09,NNE,22,0.0,0.0,68,0.00,,---,0.00,VWS V14.01,2013-09-07 07:15:00,
2013-09-07 03:16:00,48.4,38.3,29.09,NNE,22,0.0,0.0,68,0.00,,---,0.00,VWS V14.01,2013-09-07 07:16:00,
2013-09-07 03:17:00,48.4,38.3,29.09,NNE,22,0.0,0.0,68,0.00,,---,0.00,VWS V14.01,2013-09-07 07:17:00,
2013-09-07 03:18:00,48.4,38.3,29.09,NNE,22,0.0,0.0,68,0.00,,---,0.00,VWS V14.01,2013-09-07 07:18:00,
2013-09-07 03:19:00,48.4,38.3,29.09,NNE,22,0.0,0.0,68,0.00,,---,0.00,VWS V14.01,2013-09-07 07:19:00,
2013-09-07 03:20:00,48.4,38.3,29.09,NNE,22,0.0,0.0,68,0.00,,---,0.00,VWS V14.01,2013-09-07 07:20:00,
2013-09-07 03:21:00,48.4,38.3,29.09,NNE,22,0.0,0.0,68,0.00,,---,0.00,VWS V14.01,2013-09-07 07:21:00,
2013-09-07 03:22:00,48.4,38.3,29.09,NNE,22,0.0,0.0,68,0.00,,---,0.00,VWS V14.01,2013-09-07 07:22:00,
2013-09-07 03:23:00,48.4,38.3,29.09,NNE,22,0.0,0.0,68,0.00,,---,0.00,VWS V14.01,2013-09-07 07:23:00,
2013-09-07 03:24:00,48.4,38.3,29.09,NNE,22,0.0,0.0,68,0.00,,---,0.00,VWS V14.01,2013-09-07 07:24:00,
2013-09-07 03:25:00,48.4,38.3,29.09,NNE,22,0.0,0.0,68,0.00,,---,0.00,VWS V14.01,2013-09-07 07:25:00,
2013-09-07 03:26:00,48.4,38.3,29.09,NNE,22,0.0,0.0,68,0.00,,---,0.00,VWS V14.01,2013-09-07 07:26:00,
2013-09-07 03:27:00,48.4,38.3,29.09,NNE,22,0.0,0.0,68,0.00,,---,0.00,VWS V14.01,2013-09-07 07:27:00,
2013-09-07 03:28:00,48.4,38.3,29.09,NNE,22,0.0,0.0,68,0.00,,---,0.00,VWS V14.01,2013-09-07 07:28:00,
2013-09-07 03:29:00,48.4,38.3,29.09,NNE,22,0.0,0.0,68,0.00,,---,0.00,VWS V14.01,2013-09-07 07:29:00,
2013-09-07 03:30:00,48.4,38.3,29.09,NNE,22,0.0,0.0,68,0.00,,---,0.00,VWS V14.01,2013-09-07 07:30:00,
2013-09-07 03:31:00,48.4,38.3,29.09,NNE,22,0.0,0.0,68,0.00,,---,0.00,VWS V14.01,2013-09-07 07:31:00,
2013-09-07 03:32:00,48.2,38.2,29.09,NNE,22,0.0,0.0,68,0.00,,---,0.00,VWS V14.01,2013-09-07 07:32:00,
2013-09-07 03:33:00,48.2,38.2,29.09,NNE,22,0.0,0.0,68,0.00,,---,0.00,VWS V14.01,2013-09-07 07:33:00,
2013-09-07 03:34:00,48.2,38.2,29.09,NNE,22,0.0,0.0,68,0.00,,---,0.00,VWS V14.01,2013-09-07 07:34:00,
2013-09-07 03:35:00,48.2,38.2,29.09,NNE,22,0.0,0.0,68,0.00,,---,0.00,VWS V14.01,2013-09-07 07:35:00,
2013-09-07 03:36:00,48.2,38.2,29.09,NNE,22,0.0,0.0,68,0.00,,---,0.00,VWS V14.01,2013-09-07 07:36:00,
2013-09-07 03:37:00,48.2,38.2,29.09,NNE,22,0.0,0.0,68,0.00,,---,0.00,VWS V14.01,2013-09-07 07:37:00,
2013-09-07 03:38:00,48.2,38.2,29.09,NNE,22,0.0,0.0,68,0.00,,---,0.00,VWS V14.01,2013-09-07 07:38:00,
2013-09-07 03:39:00,48.2,38.2,29.09,NNE,22,0.0,0.0,68,0.00,,---,0.00,VWS V14.01,2013-09-07 07:39:00,
2013-09-07 03:40:00,48.2,38.2,29.09,NNE,22,0.0,0.0,68,0.00,,---,0.00,VWS V14.01,2013-09-07 07:40:00,
2013-09-07 03:41:00,48.2,38.2,29.09,NNE,22,0.0,0.0,68,0.00,,---,0.00,VWS V14.01,2013-09-07 07:41:00,
2013-09-07 03:42:00,48.2,38.2,29.09,NNE,22,0.0,0.0,68,0.00,,---,0.00,VWS V14.01,2013-09-07 07:42:00,
2013-09-07 03:43:00,48.2,38.2,29.09,NNE,22,0.0,0.0,68,0.00,,---,0.00,VWS V14.01,2013-09-07 07:43:00,
2013-09-07 03:44:00,48.2,38.2,29.09,NNE,22,0.0,0.0,68,0.00,,---,0.00,VWS V14.01,2013-09-07 07:44:00,
2013-09-07 03:45:00,48.2,38.2,29.09,NNE,22,0.0,0.0,68,0.00,,---,0.00,VWS V14.01,2013-09-07 07:45:00,
2013-09-07 03:46:00,48.2,38.2,29.09,NNE,22,0.0,0.0,68,0.00,,---,0.00,VWS V14.01,2013-09-07 07:46:00,
2013-09-07 03:47:00,48.2,38.5,29.09,NNE,22,0.0,0.0,69,0.00,,---,0.00,VWS V14.01,2013-09-07 07:47:00,
2013-09-07 03:48:00,48.2,38.9,29.09,NNE,22,0.0,0.0,70,0.00,,---,0.00,VWS V14.01,2013-09-07 07:48:00,
2013-09-07 03:49:00,48.2,38.9,29.09,NNE,22,0.0,0.0,70,0.00,,---,0.00,VWS V14.01,2013-09-07 07:49:00,
2013-09-07 03:50:00,48.2,38.5,29.09,NNE,22,0.0,0.0,69,0.00,,---,0.00,VWS V14.01,2013-09-07 07:50:00,
2013-09-07 03:51:00,48.2,38.5,29.09,NNE,22,0.0,0.0,69,0.00,,---,0.00,VWS V14.01,2013-09-07 07:51:00,
2013-09-07 03:52:00,48.2,38.5,29.09,NNE,22,0.0,0.0,69,0.00,,---,0.00,VWS V14.01,2013-09-07 07:52:00,
2013-09-07 03:53:00,48.2,38.5,29.09,NNE,22,0.0,0.0,69,0.00,,---,0.00,VWS V14.01,2013-09-07 07:53:00,
2013-09-07 03:54:00,48.2,38.5,29.09,NNE,22,0.0,0.0,69,0.00,,---,0.00,VWS V14.01,2013-09-07 07:54:00,
2013-09-07 03:55:00,48.2,38.5,29.09,NNE,22,0.0,0.0,69,0.00,,---,0.00,VWS V14.01,2013-09-07 07:55:00,
2013-09-07 03:56:00,48.2,38.5,29.09,NNE,22,0.0,0.0,69,0.00,,---,0.00,VWS V14.01,2013-09-07 07:56:00,
2013-09-07 03:57:00,48.0,38.3,29.09,NNE,22,0.0,0.0,69,0.00,,---,0.00,VWS V14.01,2013-09-07 07:57:00,
2013-09-07 03:58:00,48.0,38.3,29.09,NNE,22,0.0,0.0,69,0.00,,---,0.00,VWS V14.01,2013-09-07 07:58:00,
2013-09-07 03:59:00,48.0,38.3,29.09,NNE,22,0.0,0.0,69,0.00,,---,0.00,VWS V14.01,2013-09-07 07:59:00,
2013-09-07 04:00:00,48.0,38.3,29.09,NNE,22,0.0,0.0,69,0.00,,---,0.00,VWS V14.01,2013-09-07 08:00:00,
2013-09-07 04:01:00,48.0,38.3,29.09,NNE,22,0.0,0.0,69,0.00,,---,0.00,VWS V14.01,2013-09-07 08:01:00,
2013-09-07 04:02:00,48.0,38.3,29.09,NNE,22,0.0,0.0,69,0.00,,---,0.00,VWS V14.01,2013-09-07 08:02:00,
2013-09-07 04:03:00,48.0,38.3,29.09,NNE,22,0.0,0.0,69,0.00,,---,0.00,VWS V14.01,2013-09-07 08:03:00,
2013-09-07 04:04:00,47.8,38.2,29.09,NNE,22,0.0,0.0,69,0.00,,---,0.00,VWS V14.01,2013-09-07 08:04:00,
2013-09-07 04:05:00,47.8,38.2,29.09,NNE,22,0.0,0.0,69,0.00,,---,0.00,VWS V14.01,2013-09-07 08:05:00,
2013-09-07 04:06:00,47.8,38.2,29.09,NNE,22,0.0,0.0,69,0.00,,---,0.00,VWS V14.01,2013-09-07 08:06:00,
2013-09-07 04:07:00,47.8,38.2,29.09,NNE,22,0.0,0.0,69,0.00,,---,0.00,VWS V14.01,2013-09-07 08:07:00,
2013-09-07 04:08:00,47.8,38.2,29.09,NNE,22,0.0,0.0,69,0.00,,---,0.00,VWS V14.01,2013-09-07 08:08:00,
2013-09-07 04:09:00,47.8,38.2,29.09,NNE,22,0.0,0.0,69,0.00,,---,0.00,VWS V14.01,2013-09-07 08:09:00,
2013-09-07 04:10:00,47.7,38.0,29.09,NNE,22,0.0,0.0,69,0.00,,---,0.00,VWS V14.01,2013-09-07 08:10:00,
2013-09-07 04:11:00,47.7,38.0,29.09,NNE,22,0.0,0.0,69,0.00,,---,0.00,VWS V14.01,2013-09-07 08:11:00,
2013-09-07 04:12:00,47.7,38.0,29.09,NNE,22,0.0,0.0,69,0.00,,---,0.00,VWS V14.01,2013-09-07 08:12:00,
2013-09-07 04:13:00,47.7,38.0,29.09,NNE,22,0.0,0.0,69,0.00,,---,0.00,VWS V14.01,2013-09-07 08:13:00,
2013-09-07 04:14:00,47.7,38.0,29.09,NNE,22,0.0,0.0,69,0.00,,---,0.00,VWS V14.01,2013-09-07 08:14:00,
2013-09-07 04:15:00,47.7,38.0,29.09,NNE,22,0.0,0.0,69,0.00,,---,0.00,VWS V14.01,2013-09-07 08:15:00,
2013-09-07 04:16:00,47.7,38.0,29.09,NNE,22,0.0,0.0,69,0.00,,---,0.00,VWS V14.01,2013-09-07 08:16:00,
2013-09-07 04:17:00,47.7,38.0,29.09,NNE,22,0.0,0.0,69,0.00,,---,0.00,VWS V14.01,2013-09-07 08:17:00,
2013-09-07 04:18:00,47.7,38.0,29.09,NNE,22,0.0,0.0,69,0.00,,---,0.00,VWS V14.01,2013-09-07 08:18:00,
2013-09-07 04:19:00,47.7,38.0,29.09,NNE,22,0.0,0.0,69,0.00,,---,0.00,VWS V14.01,2013-09-07 08:19:00,
2013-09-07 04:20:00,47.7,38.0,29.09,NNE,22,0.0,0.0,69,0.00,,---,0.00,VWS V14.01,2013-09-07 08:20:00,
2013-09-07 04:21:00,47.7,38.0,29.09,NNE,22,0.0,0.0,69,0.00,,---,0.00,VWS V14.01,2013-09-07 08:21:00,
2013-09-07 04:22:00,47.7,38.0,29.09,NNE,22,0.0,0.0,69,0.00,,---,0.00,VWS V14.01,2013-09-07 08:22:00,
2013-09-07 04:23:00,47.7,38.0,29.09,NNE,22,0.0,0.0,69,0.00,,---,0.00,VWS V14.01,2013-09-07 08:23:00,
2013-09-07 04:24:00,47.7,38.0,29.09,NNE,22,0.0,0.0,69,0.00,,---,0.00,VWS V14.01,2013-09-07 08:24:00,
2013-09-07 04:25:00,47.7,38.0,29.09,NNE,22,0.0,0.0,69,0.00,,---,0.00,VWS V14.01,2013-09-07 08:25:00,
2013-09-07 04:26:00,47.7,38.0,29.09,NNE,22,0.0,0.0,69,0.00,,---,0.00,VWS V14.01,2013-09-07 08:26:00,
2013-09-07 04:27:00,47.7,38.0,29.09,NNE,22,0.0,0.0,69,0.00,,---,0.00,VWS V14.01,2013-09-07 08:27:00,
2013-09-07 04:28:00,47.7,38.0,29.09,NNE,22,0.0,0.0,69,0.00,,---,0.00,VWS V14.01,2013-09-07 08:28:00,
2013-09-07 04:29:00,47.7,38.4,29.09,NNE,22,0.0,0.0,70,0.00,,---,0.00,VWS V14.01,2013-09-07 08:29:00,
2013-09-07 04:30:00,47.7,38.4,29.09,NNE,22,0.0,0.0,70,0.00,,---,0.00,VWS V14.01,2013-09-07 08:30:00,
2013-09-07 04:31:00,47.7,38.4,29.09,NNE,22,0.0,0.0,70,0.00,,---,0.00,VWS V14.01,2013-09-07 08:31:00,
2013-09-07 04:32:00,47.7,38.4,29.09,NNE,22,0.0,0.0,70,0.00,,---,0.00,VWS V14.01,2013-09-07 08:32:00,
2013-09-07 04:33:00,47.7,38.4,29.09,NNE,22,0.0,0.0,70,0.00,,---,0.00,VWS V14.01,2013-09-07 08:33:00,
2013-09-07 04:34:00,47.7,38.0,29.09,NNE,22,0.0,0.0,69,0.00,,---,0.00,VWS V14.01,2013-09-07 08:34:00,
2013-09-07 04:35:00,47.8,38.2,29.09,NNE,22,0.0,0.0,69,0.00,,---,0.00,VWS V14.01,2013-09-07 08:35:00,
2013-09-07 04:36:00,47.8,38.2,29.09,NNE,22,0.0,0.0,69,0.00,,---,0.00,VWS V14.01,2013-09-07 08:36:00,
2013-09-07 04:37:00,47.8,38.2,29.09,NNE,22,0.0,0.0,69,0.00,,---,0.00,VWS V14.01,2013-09-07 08:37:00,
2013-09-07 04:38:00,47.8,38.5,29.09,NNE,22,0.0,0.0,70,0.00,,---,0.00,VWS V14.01,2013-09-07 08:38:00,
2013-09-07 04:39:00,47.8,38.5,29.09,NNE,22,0.0,0.0,70,0.00,,---,0.00,VWS V14.01,2013-09-07 08:39:00,
2013-09-07 04:40:00,47.8,38.5,29.09,NNE,22,0.0,0.0,70,0.00,,---,0.00,VWS V14.01,2013-09-07 08:40:00,
2013-09-07 04:41:00,47.8,38.5,29.09,NNE,22,0.0,0.0,70,0.00,,---,0.00,VWS V14.01,2013-09-07 08:41:00,
2013-09-07 04:42:00,47.8,38.5,29.09,NNE,22,0.0,0.0,70,0.00,,---,0.00,VWS V14.01,2013-09-07 08:42:00,
2013-09-07 04:43:00,47.8,38.5,29.09,NNE,22,0.0,0.0,70,0.00,,---,0.00,VWS V14.01,2013-09-07 08:43:00,
2013-09-07 04:44:00,47.8,38.5,29.09,NNE,22,0.0,0.0,70,0.00,,---,0.00,VWS V14.01,2013-09-07 08:44:00,
2013-09-07 04:45:00,47.8,38.5,29.09,NNE,22,0.0,0.0,70,0.00,,---,0.00,VWS V14.01,2013-09-07 08:45:00,
2013-09-07 04:46:00,47.8,38.5,29.09,NNE,22,0.0,0.0,70,0.00,,---,0.00,VWS V14.01,2013-09-07 08:46:00,
2013-09-07 04:47:00,47.8,38.5,29.09,NNE,22,0.0,0.0,70,0.00,,---,0.00,VWS V14.01,2013-09-07 08:47:00,
2013-09-07 04:48:00,47.8,38.5,29.09,NNE,22,0.0,0.0,70,0.00,,---,0.00,VWS V14.01,2013-09-07 08:48:00,
2013-09-07 04:49:00,47.8,38.5,29.09,NNE,22,0.0,0.0,70,0.00,,---,0.00,VWS V14.01,2013-09-07 08:49:00,
2013-09-07 04:50:00,48.0,38.7,29.09,NNE,22,0.0,0.0,70,0.00,,---,0.00,VWS V14.01,2013-09-07 08:50:00,
2013-09-07 04:51:00,48.0,38.7,29.09,NNE,22,0.0,0.0,70,0.00,,---,0.00,VWS V14.01,2013-09-07 08:51:00,
2013-09-07 04:52:00,48.0,38.7,29.09,NNE,22,0.0,0.0,70,0.00,,---,0.00,VWS V14.01,2013-09-07 08:52:00,
2013-09-07 04:53:00,48.0,38.7,29.09,NNE,22,0.0,0.0,70,0.00,,---,0.00,VWS V14.01,2013-09-07 08:53:00,
2013-09-07 04:54:00,48.0,39.1,29.09,NNE,22,0.0,0.0,71,0.00,,---,0.00,VWS V14.01,2013-09-07 08:54:00,
2013-09-07 04:55:00,48.0,39.1,29.09,NNE,22,0.0,0.0,71,0.00,,---,0.00,VWS V14.01,2013-09-07 08:55:00,
2013-09-07 04:56:00,48.0,39.1,29.09,NNE,22,0.0,0.0,71,0.00,,---,0.00,VWS V14.01,2013-09-07 08:56:00,
2013-09-07 04:57:00,48.0,39.1,29.09,NNE,22,0.0,0.0,71,0.00,,---,0.00,VWS V14.01,2013-09-07 08:57:00,
2013-09-07 04:58:00,48.0,39.1,29.09,NNE,22,0.0,0.0,71,0.00,,---,0.00,VWS V14.01,2013-09-07 08:58:00,
2013-09-07 04:59:00,48.2,38.9,29.09,NNE,22,0.0,0.0,70,0.00,,---,0.00,VWS V14.01,2013-09-07 08:59:00,
2013-09-07 05:00:00,48.2,39.2,29.09,NNE,22,0.0,0.0,71,0.00,,---,0.00,VWS V14.01,2013-09-07 09:00:00,
2013-09-07 05:01:00,48.2,39.2,29.09,NNE,22,0.0,0.0,71,0.00,,---,0.00,VWS V14.01,2013-09-07 09:01:00,
2013-09-07 05:02:00,48.2,39.2,29.09,NNE,22,0.0,0.0,71,0.00,,---,0.00,VWS V14.01,2013-09-07 09:02:00,
2013-09-07 05:03:00,48.2,39.2,29.09,NNE,22,0.0,0.0,71,0.00,,---,0.00,VWS V14.01,2013-09-07 09:03:00,
2013-09-07 05:04:00,48.2,39.2,29.09,NNE,22,0.0,0.0,71,0.00,,---,0.00,VWS V14.01,2013-09-07 09:04:00,
2013-09-07 05:05:00,48.2,39.2,29.09,NNE,22,0.0,0.0,71,0.00,,---,0.00,VWS V14.01,2013-09-07 09:05:00,
2013-09-07 05:06:00,48.2,39.2,29.09,NNE,22,0.0,0.0,71,0.00,,---,0.00,VWS V14.01,2013-09-07 09:06:00,
2013-09-07 05:07:00,48.2,39.2,29.09,NNE,22,0.0,0.0,71,0.00,,---,0.00,VWS V14.01,2013-09-07 09:07:00,
2013-09-07 05:08:00,48.0,39.1,29.09,NNE,22,0.0,0.0,71,0.00,,---,0.00,VWS V14.01,2013-09-07 09:08:00,
2013-09-07 05:09:00,48.0,39.1,29.09,NNE,22,0.0,0.0,71,0.00,,---,0.00,VWS V14.01,2013-09-07 09:09:00,
2013-09-07 05:10:00,48.0,39.1,29.09,NNE,22,0.0,0.0,71,0.00,,---,0.00,VWS V14.01,2013-09-07 09:10:00,
2013-09-07 05:11:00,48.2,38.9,29.09,NNE,22,0.0,0.0,70,0.00,,---,0.00,VWS V14.01,2013-09-07 09:11:00,
2013-09-07 05:12:00,48.2,38.9,29.09,NNE,22,0.0,0.0,70,0.00,,---,0.00,VWS V14.01,2013-09-07 09:12:00,
2013-09-07 05:13:00,48.2,38.9,29.09,NNE,22,0.0,0.0,70,0.00,,---,0.00,VWS V14.01,2013-09-07 09:13:00,
2013-09-07 05:14:00,48.2,38.9,29.09,NNE,22,0.0,0.0,70,0.00,,---,0.00,VWS V14.01,2013-09-07 09:14:00,
2013-09-07 05:15:00,48.2,38.9,29.09,NNE,22,0.0,0.0,70,0.00,,---,0.00,VWS V14.01,2013-09-07 09:15:00,
2013-09-07 05:16:00,48.2,38.9,29.09,NNE,22,0.0,0.0,70,0.00,,---,0.00,VWS V14.01,2013-09-07 09:16:00,
2013-09-07 05:17:00,48.2,38.9,29.09,NNE,22,0.0,0.0,70,0.00,,---,0.00,VWS V14.01,2013-09-07 09:17:00,
2013-09-07 05:18:00,48.2,38.9,29.09,NNE,22,0.0,0.0,70,0.00,,---,0.00,VWS V14.01,2013-09-07 09:18:00,
2013-09-07 05:19:00,48.2,38.9,29.09,NNE,22,0.0,0.0,70,0.00,,---,0.00,VWS V14.01,2013-09-07 09:19:00,
2013-09-07 05:20:00,48.2,38.9,29.09,NNE,22,0.0,0.0,70,0.00,,---,0.00,VWS V14.01,2013-09-07 09:20:00,
2013-09-07 05:21:00,48.2,38.9,29.09,NNE,22,0.0,0.0,70,0.00,,---,0.00,VWS V14.01,2013-09-07 09:21:00,
2013-09-07 05:22:00,48.2,38.9,29.09,NNE,22,0.0,0.0,70,0.00,,---,0.00,VWS V14.01,2013-09-07 09:22:00,
2013-09-07 05:23:00,48.2,38.9,29.09,NNE,22,0.0,0.0,70,0.00,,---,0.00,VWS V14.01,2013-09-07 09:23:00,
2013-09-07 05:24:00,48.2,38.9,29.09,NNE,22,0.0,0.0,70,0.00,,---,0.00,VWS V14.01,2013-09-07 09:24:00,
2013-09-07 05:25:00,48.2,38.9,29.09,NNE,22,0.0,0.0,70,0.00,,---,0.00,VWS V14.01,2013-09-07 09:25:00,
2013-09-07 05:26:00,48.2,38.9,29.09,NNE,22,0.0,0.0,70,0.00,,---,0.00,VWS V14.01,2013-09-07 09:26:00,
2013-09-07 05:27:00,48.2,38.9,29.09,NNE,22,0.0,0.0,70,0.00,,---,0.00,VWS V14.01,2013-09-07 09:27:00,
2013-09-07 05:28:00,48.2,38.9,29.09,NNE,22,0.0,0.0,70,0.00,,---,0.00,VWS V14.01,2013-09-07 09:28:00,
2013-09-07 05:29:00,48.2,38.9,29.09,NNE,22,0.0,0.0,70,0.00,,---,0.00,VWS V14.01,2013-09-07 09:29:00,
2013-09-07 05:30:00,48.0,39.1,29.09,NNE,22,0.0,0.0,71,0.00,,---,0.00,VWS V14.01,2013-09-07 09:30:00,
2013-09-07 05:31:00,48.0,39.1,29.09,NNE,22,0.0,0.0,71,0.00,,---,0.00,VWS V14.01,2013-09-07 09:31:00,
2013-09-07 05:32:00,48.2,38.9,29.09,NNE,22,0.0,0.0,70,0.00,,---,0.00,VWS V14.01,2013-09-07 09:32:00,
2013-09-07 05:33:00,48.2,38.9,29.09,NNE,22,0.0,0.0,70,0.00,,---,0.00,VWS V14.01,2013-09-07 09:33:00,
2013-09-07 05:34:00,48.2,38.9,29.09,NNE,22,0.0,0.0,70,0.00,,---,0.00,VWS V14.01,2013-09-07 09:34:00,
2013-09-07 05:35:00,48.2,38.9,29.09,NNE,22,0.0,0.0,70,0.00,,---,0.00,VWS V14.01,2013-09-07 09:35:00,
2013-09-07 05:36:00,48.2,38.9,29.09,NNE,22,0.0,0.0,70,0.00,,---,0.00,VWS V14.01,2013-09-07 09:36:00,
2013-09-07 05:37:00,48.2,38.9,29.09,NNE,22,0.0,0.0,70,0.00,,---,0.00,VWS V14.01,2013-09-07 09:37:00,
2013-09-07 05:38:00,48.2,38.9,29.09,NNE,22,0.0,0.0,70,0.00,,---,0.00,VWS V14.01,2013-09-07 09:38:00,
2013-09-07 05:39:00,48.2,38.9,29.09,NNE,22,0.0,0.0,70,0.00,,---,0.00,VWS V14.01,2013-09-07 09:39:00,
2013-09-07 05:40:00,48.2,39.2,29.09,NNE,22,0.0,0.0,71,0.00,,---,0.00,VWS V14.01,2013-09-07 09:40:00,
2013-09-07 05:41:00,48.2,39.2,29.09,NNE,22,0.0,0.0,71,0.00,,---,0.00,VWS V14.01,2013-09-07 09:41:00,
2013-09-07 05:42:00,48.2,39.2,29.09,NNE,22,0.0,0.0,71,0.00,,---,0.00,VWS V14.01,2013-09-07 09:42:00,
2013-09-07 05:43:00,48.2,39.2,29.09,NNE,22,0.0,0.0,71,0.00,,---,0.00,VWS V14.01,2013-09-07 09:43:00,
2013-09-07 05:44:00,48.2,39.2,29.09,NNE,22,0.0,0.0,71,0.00,,---,0.00,VWS V14.01,2013-09-07 09:44:00,
2013-09-07 05:45:00,48.2,39.2,29.09,NNE,22,0.0,0.0,71,0.00,,---,0.00,VWS V14.01,2013-09-07 09:45:00,
2013-09-07 05:46:00,48.2,39.2,29.09,NNE,22,0.0,0.0,71,0.00,,---,0.00,VWS V14.01,2013-09-07 09:46:00,
2013-09-07 05:47:00,48.2,39.2,29.09,NNE,22,0.0,0.0,71,0.00,,---,0.00,VWS V14.01,2013-09-07 09:47:00,
2013-09-07 05:48:00,48.2,39.2,29.09,NNE,22,0.0,0.0,71,0.00,,---,0.00,VWS V14.01,2013-09-07 09:48:00,
2013-09-07 05:49:00,48.2,39.2,29.09,NNE,22,0.0,0.0,71,0.00,,---,0.00,VWS V14.01,2013-09-07 09:49:00,
2013-09-07 05:50:00,48.2,39.2,29.09,NNE,22,0.0,0.0,71,0.00,,---,0.00,VWS V14.01,2013-09-07 09:50:00,
2013-09-07 05:51:00,48.2,39.2,29.09,NNE,22,0.0,0.0,71,0.00,,---,0.00,VWS V14.01,2013-09-07 09:51:00,
2013-09-07 05:52:00,48.2,39.2,29.09,NNE,22,0.0,0.0,71,0.00,,---,0.00,VWS V14.01,2013-09-07 09:52:00,
2013-09-07 05:53:00,48.2,39.2,29.09,NNE,22,0.0,0.0,71,0.00,,---,0.00,VWS V14.01,2013-09-07 09:53:00,
2013-09-07 05:54:00,48.2,39.2,29.09,NNE,22,0.0,0.0,71,0.00,,---,0.00,VWS V14.01,2013-09-07 09:54:00,
2013-09-07 05:55:00,48.2,39.2,29.09,NNE,22,0.0,0.0,71,0.00,,---,0.00,VWS V14.01,2013-09-07 09:55:00,
2013-09-07 05:56:00,48.2,39.2,29.09,NNE,22,0.0,0.0,71,0.00,,---,0.00,VWS V14.01,2013-09-07 09:56:00,
2013-09-07 05:57:00,48.2,39.2,29.09,NNE,22,0.0,0.0,71,0.00,,---,0.00,VWS V14.01,2013-09-07 09:57:00,
2013-09-07 05:58:00,48.2,39.2,29.09,NNE,22,0.0,0.0,71,0.00,,---,0.00,VWS V14.01,2013-09-07 09:58:00,
2013-09-07 05:59:00,48.2,39.2,29.09,NNE,22,0.0,0.0,71,0.00,,---,0.00,VWS V14.01,2013-09-07 09:59:00,
2013-09-07 06:00:00,48.2,39.2,29.09,NNE,22,0.0,0.0,71,0.00,,---,0.00,VWS V14.01,2013-09-07 10:00:00,
2013-09-07 06:01:00,48.2,39.2,29.09,NNE,22,0.0,0.0,71,0.00,,---,0.00,VWS V14.01,2013-09-07 10:01:00,
2013-09-07 06:02:00,48.2,39.2,29.09,NNE,22,0.0,0.0,71,0.00,,---,0.00,VWS V14.01,2013-09-07 10:02:00,
2013-09-07 06:03:00,48.2,39.2,29.09,NNE,22,0.0,0.0,71,0.00,,---,0.00,VWS V14.01,2013-09-07 10:03:00,
2013-09-07 06:04:00,48.2,39.2,29.09,NNE,22,0.0,0.0,71,0.00,,---,0.00,VWS V14.01,2013-09-07 10:04:00,
2013-09-07 06:05:00,48.2,39.2,29.09,NNE,22,0.0,0.0,71,0.00,,---,0.00,VWS V14.01,2013-09-07 10:05:00,
2013-09-07 06:06:00,48.4,39.4,29.09,NNE,22,0.0,0.0,71,0.00,,---,0.00,VWS V14.01,2013-09-07 10:06:00,
2013-09-07 06:07:00,48.4,39.4,29.09,NNE,22,0.0,0.0,71,0.00,,---,0.00,VWS V14.01,2013-09-07 10:07:00,
2013-09-07 06:08:00,48.4,39.4,29.09,NNE,22,0.0,0.0,71,0.00,,---,0.00,VWS V14.01,2013-09-07 10:08:00,
2013-09-07 06:09:00,48.4,39.4,29.09,NNE,22,0.0,0.0,71,0.00,,---,0.00,VWS V14.01,2013-09-07 10:09:00,
2013-09-07 06:10:00,48.4,39.4,29.09,NNE,22,0.0,0.0,71,0.00,,---,0.00,VWS V14.01,2013-09-07 10:10:00,
2013-09-07 06:11:00,48.4,39.4,29.09,NNE,22,0.0,0.0,71,0.00,,---,0.00,VWS V14.01,2013-09-07 10:11:00,
2013-09-07 06:12:00,48.4,39.4,29.09,NNE,22,0.0,0.0,71,0.00,,---,0.00,VWS V14.01,2013-09-07 10:12:00,
2013-09-07 06:13:00,48.4,39.4,29.09,NNE,22,0.0,0.0,71,0.00,,---,0.00,VWS V14.01,2013-09-07 10:13:00,
2013-09-07 06:14:00,48.4,39.4,29.09,NNE,22,0.0,0.0,71,0.00,,---,0.00,VWS V14.01,2013-09-07 10:14:00,
2013-09-07 06:15:00,48.4,39.4,29.09,NNE,22,0.0,0.0,71,0.00,,---,0.00,VWS V14.01,2013-09-07 10:15:00,
2013-09-07 06:16:00,48.4,39.4,29.09,NNE,22,0.0,0.0,71,0.00,,---,0.00,VWS V14.01,2013-09-07 10:16:00,
2013-09-07 06:17:00,48.4,39.4,29.09,NNE,22,0.0,0.0,71,0.00,,---,0.00,VWS V14.01,2013-09-07 10:17:00,
2013-09-07 06:18:00,48.4,39.4,29.09,NNE,22,0.0,0.0,71,0.00,,---,0.00,VWS V14.01,2013-09-07 10:18:00,
2013-09-07 06:19:00,48.4,39.4,29.09,NNE,22,0.0,0.0,71,0.00,,---,0.00,VWS V14.01,2013-09-07 10:19:00,
2013-09-07 06:20:00,48.4,39.4,29.09,NNE,22,0.0,0.0,71,0.00,,---,0.00,VWS V14.01,2013-09-07 10:20:00,
2013-09-07 06:21:00,48.4,39.4,29.09,NNE,22,0.0,0.0,71,0.00,,---,0.00,VWS V14.01,2013-09-07 10:21:00,
2013-09-07 06:22:00,48.4,39.4,29.09,NNE,22,0.0,0.0,71,0.00,,---,0.00,VWS V14.01,2013-09-07 10:22:00,
2013-09-07 06:23:00,48.4,39.4,29.09,NNE,22,0.0,0.0,71,0.00,,---,0.00,VWS V14.01,2013-09-07 10:23:00,
2013-09-07 06:24:00,48.4,39.4,29.09,NNE,22,0.0,0.0,71,0.00,,---,0.00,VWS V14.01,2013-09-07 10:24:00,
2013-09-07 06:25:00,48.4,39.4,29.09,NNE,22,0.0,0.0,71,0.00,,---,0.00,VWS V14.01,2013-09-07 10:25:00,
2013-09-07 06:26:00,48.4,39.4,29.09,NNE,22,0.0,0.0,71,0.00,,---,0.00,VWS V14.01,2013-09-07 10:26:00,
2013-09-07 06:27:00,48.4,39.4,29.09,NNE,22,0.0,0.0,71,0.00,,---,0.00,VWS V14.01,2013-09-07 10:27:00,
2013-09-07 06:28:00,48.4,39.4,29.09,NNE,22,0.0,0.0,71,0.00,,---,0.00,VWS V14.01,2013-09-07 10:28:00,
2013-09-07 06:29:00,48.4,39.4,29.09,NNE,22,0.0,0.0,71,0.00,,---,0.00,VWS V14.01,2013-09-07 10:29:00,
2013-09-07 06:30:00,48.4,39.4,29.09,NNE,22,0.0,0.0,71,0.00,,---,0.00,VWS V14.01,2013-09-07 10:30:00,
2013-09-07 06:31:00,48.6,39.6,29.09,NNE,22,0.0,0.0,71,0.00,,---,0.00,VWS V14.01,2013-09-07 10:31:00,
2013-09-07 06:32:00,48.6,39.6,29.09,NNE,22,0.0,0.0,71,0.00,,---,0.00,VWS V14.01,2013-09-07 10:32:00,
2013-09-07 06:33:00,48.6,39.6,29.09,NNE,22,0.0,0.0,71,0.00,,---,0.00,VWS V14.01,2013-09-07 10:33:00,
2013-09-07 06:34:00,48.6,39.6,29.09,NNE,22,0.0,0.0,71,0.00,,---,0.00,VWS V14.01,2013-09-07 10:34:00,
2013-09-07 06:35:00,48.6,39.6,29.09,NNE,22,0.0,0.0,71,0.00,,---,0.00,VWS V14.01,2013-09-07 10:35:00,
2013-09-07 06:36:00,48.6,39.6,29.09,NNE,22,0.0,0.0,71,0.00,,---,0.00,VWS V14.01,2013-09-07 10:36:00,
2013-09-07 06:37:00,48.6,39.6,29.09,NNE,22,0.0,0.0,71,0.00,,---,0.00,VWS V14.01,2013-09-07 10:37:00,
2013-09-07 06:38:00,48.6,39.6,29.09,NNE,22,0.0,0.0,71,0.00,,---,0.00,VWS V14.01,2013-09-07 10:38:00,
2013-09-07 06:39:00,48.6,39.6,29.09,NNE,22,0.0,0.0,71,0.00,,---,0.00,VWS V14.01,2013-09-07 10:39:00,
2013-09-07 06:40:00,48.6,39.6,29.09,NNE,22,0.0,0.0,71,0.00,,---,0.00,VWS V14.01,2013-09-07 10:40:00,
2013-09-07 06:41:00,48.6,39.6,29.09,NNE,22,0.0,0.0,71,0.00,,---,0.00,VWS V14.01,2013-09-07 10:41:00,
2013-09-07 06:42:00,48.6,39.6,29.09,NNE,22,0.0,0.0,71,0.00,,---,0.00,VWS V14.01,2013-09-07 10:42:00,
2013-09-07 06:43:00,48.7,39.8,29.09,NNE,22,0.0,0.0,71,0.00,,---,0.00,VWS V14.01,2013-09-07 10:43:00,
2013-09-07 06:44:00,48.7,39.8,29.09,NNE,22,0.0,0.0,71,0.00,,---,0.00,VWS V14.01,2013-09-07 10:44:00,
2013-09-07 06:45:00,48.7,39.8,29.09,NNE,22,0.0,0.0,71,0.00,,---,0.00,VWS V14.01,2013-09-07 10:45:00,
2013-09-07 06:46:00,48.7,39.8,29.09,NNE,22,0.0,0.0,71,0.00,,---,0.00,VWS V14.01,2013-09-07 10:46:00,
2013-09-07 06:47:00,48.7,40.1,29.09,NNE,22,0.0,0.0,72,0.00,,---,0.00,VWS V14.01,2013-09-07 10:47:00,
2013-09-07 06:48:00,48.7,40.1,29.09,NNE,22,0.0,0.0,72,0.00,,---,0.00,VWS V14.01,2013-09-07 10:48:00,
2013-09-07 06:49:00,48.7,40.1,29.09,NNE,22,0.0,0.0,72,0.00,,---,0.00,VWS V14.01,2013-09-07 10:49:00,
2013-09-07 06:50:00,48.7,39.8,29.09,NNE,22,0.0,0.0,71,0.00,,---,0.00,VWS V14.01,2013-09-07 10:50:00,
2013-09-07 06:51:00,48.7,39.8,29.09,NNE,22,0.0,0.0,71,0.00,,---,0.00,VWS V14.01,2013-09-07 10:51:00,
2013-09-07 06:52:00,48.7,39.8,29.09,NNE,22,0.0,0.0,71,0.00,,---,0.00,VWS V14.01,2013-09-07 10:52:00,
2013-09-07 06:53:00,48.7,39.8,29.09,NNE,22,0.0,0.0,71,0.00,,---,0.00,VWS V14.01,2013-09-07 10:53:00,
2013-09-07 06:54:00,48.7,39.8,29.09,NNE,22,0.0,0.0,71,0.00,,---,0.00,VWS V14.01,2013-09-07 10:54:00,
2013-09-07 06:55:00,48.7,39.8,29.09,NNE,22,0.0,0.0,71,0.00,,---,0.00,VWS V14.01,2013-09-07 10:55:00,
2013-09-07 06:56:00,48.7,39.8,29.09,NNE,22,0.0,0.0,71,0.00,,---,0.00,VWS V14.01,2013-09-07 10:56:00,
2013-09-07 06:57:00,48.7,39.8,29.09,NNE,22,0.0,0.0,71,0.00,,---,0.00,VWS V14.01,2013-09-07 10:57:00,
2013-09-07 06:58:00,48.7,39.8,29.09,NNE,22,0.0,0.0,71,0.00,,---,0.00,VWS V14.01,2013-09-07 10:58:00,
2013-09-07 06:59:00,48.7,39.8,29.09,NNE,22,0.0,0.0,71,0.00,,---,0.00,VWS V14.01,2013-09-07 10:59:00,
2013-09-07 07:00:00,48.7,39.8,29.09,NNE,22,0.0,0.0,71,0.00,,---,0.00,VWS V14.01,2013-09-07 11:00:00,
2013-09-07 07:01:00,48.9,39.9,29.09,NNE,22,0.0,0.0,71,0.00,,---,0.00,VWS V14.01,2013-09-07 11:01:00,
2013-09-07 07:02:00,48.9,39.9,29.09,NNE,22,0.0,0.0,71,0.00,,---,0.00,VWS V14.01,2013-09-07 11:02:00,
2013-09-07 07:03:00,48.9,39.9,29.09,NNE,22,0.0,0.0,71,0.00,,---,0.00,VWS V14.01,2013-09-07 11:03:00,
2013-09-07 07:04:00,48.9,40.3,29.09,NNE,22,0.0,0.0,72,0.00,,---,0.00,VWS V14.01,2013-09-07 11:04:00,
2013-09-07 07:05:00,48.9,40.3,29.09,NNE,22,0.0,0.0,72,0.00,,---,0.00,VWS V14.01,2013-09-07 11:05:00,
2013-09-07 07:06:00,48.9,40.3,29.09,NNE,22,0.0,0.0,72,0.00,,---,0.00,VWS V14.01,2013-09-07 11:06:00,
2013-09-07 07:07:00,48.9,40.3,29.09,NNE,22,0.0,0.0,72,0.00,,---,0.00,VWS V14.01,2013-09-07 11:07:00,
2013-09-07 07:08:00,49.1,40.5,29.09,NNE,22,0.0,0.0,72,0.00,,---,0.00,VWS V14.01,2013-09-07 11:08:00,
2013-09-07 07:09:00,49.1,40.5,29.09,NNE,22,0.0,0.0,72,0.00,,---,0.00,VWS V14.01,2013-09-07 11:09:00,
2013-09-07 07:10:00,49.1,40.5,29.09,NNE,22,0.0,0.0,72,0.00,,---,0.00,VWS V14.01,2013-09-07 11:10:00,
2013-09-07 07:11:00,49.3,40.7,29.09,NNE,22,0.0,0.0,72,0.00,,---,0.00,VWS V14.01,2013-09-07 11:11:00,
2013-09-07 07:12:00,49.3,40.7,29.09,NNE,22,0.0,0.0,72,0.00,,---,0.00,VWS V14.01,2013-09-07 11:12:00,
2013-09-07 07:13:00,49.3,40.7,29.09,NNE,22,0.0,0.0,72,0.00,,---,0.00,VWS V14.01,2013-09-07 11:13:00,
2013-09-07 07:14:00,49.3,40.7,29.09,NNE,22,0.0,0.0,72,0.00,,---,0.00,VWS V14.01,2013-09-07 11:14:00,
2013-09-07 07:15:00,49.5,40.8,29.09,NNE,22,0.0,0.0,72,0.00,,---,0.00,VWS V14.01,2013-09-07 11:15:00,
2013-09-07 07:16:00,49.5,40.8,29.09,NNE,22,0.0,0.0,72,0.00,,---,0.00,VWS V14.01,2013-09-07 11:16:00,
2013-09-07 07:17:00,49.5,40.8,29.09,NNE,22,0.0,0.0,72,0.00,,---,0.00,VWS V14.01,2013-09-07 11:17:00,
2013-09-07 07:18:00,49.5,40.8,29.09,NNE,22,0.0,0.0,72,0.00,,---,0.00,VWS V14.01,2013-09-07 11:18:00,
2013-09-07 07:19:00,49.5,40.8,29.09,NNE,22,0.0,0.0,72,0.00,,---,0.00,VWS V14.01,2013-09-07 11:19:00,
2013-09-07 07:20:00,49.6,41.0,29.09,NNE,22,0.0,0.0,72,0.00,,---,0.00,VWS V14.01,2013-09-07 11:20:00,
2013-09-07 07:21:00,49.6,41.0,29.09,NNE,22,0.0,0.0,72,0.00,,---,0.00,VWS V14.01,2013-09-07 11:21:00,
2013-09-07 07:22:00,49.6,41.0,29.09,NNE,22,0.0,0.0,72,0.00,,---,0.00,VWS V14.01,2013-09-07 11:22:00,
2013-09-07 07:23:00,49.6,41.0,29.09,NNE,22,0.0,0.0,72,0.00,,---,0.00,VWS V14.01,2013-09-07 11:23:00,
2013-09-07 07:24:00,49.6,41.0,29.09,NNE,22,0.0,0.0,72,0.00,,---,0.00,VWS V14.01,2013-09-07 11:24:00,
2013-09-07 07:25:00,49.6,41.0,29.09,NNE,22,0.0,0.0,72,0.00,,---,0.00,VWS V14.01,2013-09-07 11:25:00,
2013-09-07 07:26:00,49.6,41.0,29.09,NNE,22,0.0,0.0,72,0.00,,---,0.00,VWS V14.01,2013-09-07 11:26:00,
2013-09-07 07:27:00,49.8,41.2,29.09,NNE,22,0.0,0.0,72,0.00,,---,0.00,VWS V14.01,2013-09-07 11:27:00,
2013-09-07 07:28:00,49.8,41.2,29.09,NNE,22,0.0,0.0,72,0.00,,---,0.00,VWS V14.01,2013-09-07 11:28:00,
2013-09-07 07:29:00,50.0,41.3,29.09,NNE,22,0.0,0.0,72,0.00,,---,0.00,VWS V14.01,2013-09-07 11:29:00,
2013-09-07 07:30:00,50.0,41.3,29.09,NNE,22,0.0,0.0,72,0.00,,---,0.00,VWS V14.01,2013-09-07 11:30:00,
2013-09-07 07:31:00,50.0,41.3,29.09,NNE,22,0.0,0.0,72,0.00,,---,0.00,VWS V14.01,2013-09-07 11:31:00,
2013-09-07 07:32:00,50.0,41.3,29.09,NNE,22,0.0,0.0,72,0.00,,---,0.00,VWS V14.01,2013-09-07 11:32:00,
2013-09-07 07:33:00,50.0,41.3,29.09,NNE,22,0.0,0.0,72,0.00,,---,0.00,VWS V14.01,2013-09-07 11:33:00,
2013-09-07 07:34:00,50.2,41.5,29.09,NNE,22,0.0,0.0,72,0.00,,---,0.00,VWS V14.01,2013-09-07 11:34:00,
2013-09-07 07:35:00,50.2,41.5,29.09,NNE,22,0.0,0.0,72,0.00,,---,0.00,VWS V14.01,2013-09-07 11:35:00,
2013-09-07 07:36:00,50.2,41.2,29.09,NNE,22,0.0,0.0,71,0.00,,---,0.00,VWS V14.01,2013-09-07 11:36:00,
2013-09-07 07:37:00,50.2,41.2,29.09,NNE,22,0.0,0.0,71,0.00,,---,0.00,VWS V14.01,2013-09-07 11:37:00,
2013-09-07 07:38:00,50.2,41.5,29.09,NNE,22,0.0,0.0,72,0.00,,---,0.00,VWS V14.01,2013-09-07 11:38:00,
2013-09-07 07:39:00,50.2,41.5,29.09,NNE,22,0.0,0.0,72,0.00,,---,0.00,VWS V14.01,2013-09-07 11:39:00,
2013-09-07 07:40:00,50.4,41.7,29.09,NNE,22,0.0,0.0,72,0.00,,---,0.00,VWS V14.01,2013-09-07 11:40:00,
2013-09-07 07:41:00,50.4,41.7,29.09,NNE,22,0.0,0.0,72,0.00,,---,0.00,VWS V14.01,2013-09-07 11:41:00,
2013-09-07 07:42:00,50.4,41.3,29.09,NNE,22,0.0,0.0,71,0.00,,---,0.00,VWS V14.01,2013-09-07 11:42:00,
2013-09-07 07:43:00,50.5,41.9,29.09,NNE,22,0.0,0.0,72,0.00,,---,0.00,VWS V14.01,2013-09-07 11:43:00,
2013-09-07 07:44:00,50.5,41.9,29.09,NNE,22,0.0,0.0,72,0.00,,---,0.00,VWS V14.01,2013-09-07 11:44:00,
2013-09-07 07:45:00,50.5,41.9,29.09,NNE,22,0.0,0.0,72,0.00,,---,0.00,VWS V14.01,2013-09-07 11:45:00,
2013-09-07 07:46:00,50.5,41.9,29.09,NNE,22,0.0,0.0,72,0.00,,---,0.00,VWS V14.01,2013-09-07 11:46:00,
2013-09-07 07:47:00,50.5,41.5,29.09,NNE,22,0.0,0.0,71,0.00,,---,0.00,VWS V14.01,2013-09-07 11:47:00,
2013-09-07 07:48:00,50.5,41.5,29.09,NNE,22,0.0,0.0,71,0.00,,---,0.00,VWS V14.01,2013-09-07 11:48:00,
2013-09-07 07:49:00,50.5,41.5,29.09,NNE,22,0.0,0.0,71,0.00,,---,0.00,VWS V14.01,2013-09-07 11:49:00,
2013-09-07 07:50:00,50.7,42.0,29.09,NNE,22,0.0,0.0,72,0.00,,---,0.00,VWS V14.01,2013-09-07 11:50:00,
2013-09-07 07:51:00,50.7,42.0,29.09,NNE,22,0.0,0.0,72,0.00,,---,0.00,VWS V14.01,2013-09-07 11:51:00,
2013-09-07 07:52:00,50.7,41.7,29.09,NNE,22,0.0,0.0,71,0.00,,---,0.00,VWS V14.01,2013-09-07 11:52:00,
2013-09-07 07:53:00,50.7,41.7,29.09,NNE,22,0.0,0.0,71,0.00,,---,0.00,VWS V14.01,2013-09-07 11:53:00,
2013-09-07 07:54:00,50.7,41.7,29.09,NNE,22,0.0,0.0,71,0.00,,---,0.00,VWS V14.01,2013-09-07 11:54:00,
2013-09-07 07:55:00,50.7,41.7,29.09,NNE,22,0.0,0.0,71,0.00,,---,0.00,VWS V14.01,2013-09-07 11:55:00,
2013-09-07 07:56:00,50.7,41.7,29.09,NNE,22,0.0,0.0,71,0.00,,---,0.00,VWS V14.01,2013-09-07 11:56:00,
2013-09-07 07:57:00,50.7,41.7,29.09,NNE,22,0.0,0.0,71,0.00,,---,0.00,VWS V14.01,2013-09-07 11:57:00,
2013-09-07 07:58:00,50.7,41.7,29.09,NNE,22,0.0,0.0,71,0.00,,---,0.00,VWS V14.01,2013-09-07 11:58:00,
2013-09-07 07:59:00,50.7,41.7,29.09,NNE,22,0.0,0.0,71,0.00,,---,0.00,VWS V14.01,2013-09-07 11:59:00,
2013-09-07 08:00:00,50.7,41.7,29.09,NNE,22,0.0,0.0,71,0.00,,---,0.00,VWS V14.01,2013-09-07 12:00:00,
2013-09-07 08:01:00,50.7,41.7,29.09,NNE,22,0.0,0.0,71,0.00,,---,0.00,VWS V14.01,2013-09-07 12:01:00,
2013-09-07 08:02:00,50.7,41.7,29.09,NNE,22,0.0,0.0,71,0.00,,---,0.00,VWS V14.01,2013-09-07 12:02:00,
2013-09-07 08:03:00,50.9,41.8,29.09,NNE,22,0.0,0.0,71,0.00,,---,0.00,VWS V14.01,2013-09-07 12:03:00,
2013-09-07 08:04:00,50.9,41.8,29.09,NNE,22,0.0,0.0,71,0.00,,---,0.00,VWS V14.01,2013-09-07 12:04:00,
2013-09-07 08:05:00,50.9,41.8,29.09,NNE,22,0.0,0.0,71,0.00,,---,0.00,VWS V14.01,2013-09-07 12:05:00,
2013-09-07 08:06:00,51.1,42.0,29.09,NNE,22,0.0,0.0,71,0.00,,---,0.00,VWS V14.01,2013-09-07 12:06:00,
2013-09-07 08:07:00,51.1,42.0,29.09,NNE,22,0.0,0.0,71,0.00,,---,0.00,VWS V14.01,2013-09-07 12:07:00,
2013-09-07 08:08:00,51.3,42.2,29.09,NNE,22,0.0,0.0,71,0.00,,---,0.00,VWS V14.01,2013-09-07 12:08:00,
2013-09-07 08:09:00,51.3,42.2,29.09,NNE,22,0.0,0.0,71,0.00,,---,0.00,VWS V14.01,2013-09-07 12:09:00,
2013-09-07 08:10:00,51.3,42.2,29.09,NNE,22,0.0,0.0,71,0.00,,---,0.00,VWS V14.01,2013-09-07 12:10:00,
2013-09-07 08:11:00,51.4,42.4,29.09,NNE,22,0.0,0.0,71,0.00,,---,0.00,VWS V14.01,2013-09-07 12:11:00,
2013-09-07 08:12:00,51.4,42.4,29.09,NNE,22,0.0,0.0,71,0.00,,---,0.00,VWS V14.01,2013-09-07 12:12:00,
2013-09-07 08:13:00,51.4,42.4,29.09,NNE,22,0.0,0.0,71,0.00,,---,0.00,VWS V14.01,2013-09-07 12:13:00,
2013-09-07 08:14:00,51.6,42.5,29.09,NNE,22,0.0,0.0,71,0.00,,---,0.00,VWS V14.01,2013-09-07 12:14:00,
2013-09-07 08:15:00,51.6,42.5,29.09,NNE,22,0.0,0.0,71,0.00,,---,0.00,VWS V14.01,2013-09-07 12:15:00,
2013-09-07 08:16:00,51.6,42.5,29.09,NNE,22,0.0,0.0,71,0.00,,---,0.00,VWS V14.01,2013-09-07 12:16:00,
2013-09-07 08:17:00,51.6,42.5,29.09,NNE,22,0.0,0.0,71,0.00,,---,0.00,VWS V14.01,2013-09-07 12:17:00,
2013-09-07 08:18:00,51.6,42.5,29.09,NNE,22,0.0,0.0,71,0.00,,---,0.00,VWS V14.01,2013-09-07 12:18:00,
2013-09-07 08:19:00,51.6,42.5,29.09,NNE,22,0.0,0.0,71,0.00,,---,0.00,VWS V14.01,2013-09-07 12:19:00,
2013-09-07 08:20:00,51.6,42.5,29.09,NNE,22,0.0,0.0,71,0.00,,---,0.00,VWS V14.01,2013-09-07 12:20:00,
2013-09-07 08:21:00,51.6,42.5,29.09,NNE,22,0.0,0.0,71,0.00,,---,0.00,VWS V14.01,2013-09-07 12:21:00,
2013-09-07 08:22:00,51.6,42.5,29.09,NNE,22,0.0,0.0,71,0.00,,---,0.00,VWS V14.01,2013-09-07 12:22:00,
2013-09-07 08:23:00,51.6,42.5,29.09,NNE,22,0.0,0.0,71,0.00,,---,0.00,VWS V14.01,2013-09-07 12:23:00,
2013-09-07 08:24:00,51.6,42.5,29.09,NNE,22,0.0,0.0,71,0.00,,---,0.00,VWS V14.01,2013-09-07 12:24:00,
2013-09-07 08:25:00,51.6,42.5,29.09,NNE,22,0.0,0.0,71,0.00,,---,0.00,VWS V14.01,2013-09-07 12:25:00,
2013-09-07 08:26:00,51.6,42.5,29.09,NNE,22,0.0,0.0,71,0.00,,---,0.00,VWS V14.01,2013-09-07 12:26:00,
2013-09-07 08:27:00,51.8,42.3,29.09,NNE,22,0.0,0.0,70,0.00,,---,0.00,VWS V14.01,2013-09-07 12:27:00,
2013-09-07 08:28:00,51.8,42.3,29.06,NNE,22,0.0,0.0,70,0.00,,---,0.00,VWS V14.01,2013-09-07 12:28:00,
2013-09-07 08:29:00,52.0,42.5,29.06,NNE,22,0.0,0.0,70,0.00,,---,0.00,VWS V14.01,2013-09-07 12:29:00,
2013-09-07 08:30:00,52.0,42.5,29.06,NNE,22,0.0,0.0,70,0.00,,---,0.00,VWS V14.01,2013-09-07 12:30:00,
2013-09-07 08:31:00,52.0,42.5,29.06,NNE,22,0.0,0.0,70,0.00,,---,0.00,VWS V14.01,2013-09-07 12:31:00,
2013-09-07 08:32:00,52.0,42.5,29.06,NNE,22,0.0,0.0,70,0.00,,---,0.00,VWS V14.01,2013-09-07 12:32:00,
2013-09-07 08:33:00,52.2,42.7,29.06,NNE,22,0.0,0.0,70,0.00,,---,0.00,VWS V14.01,2013-09-07 12:33:00,
2013-09-07 08:34:00,52.3,43.2,29.06,NNE,22,0.0,0.0,71,0.00,,---,0.00,VWS V14.01,2013-09-07 12:34:00,
2013-09-07 08:35:00,52.3,43.2,29.06,NNE,22,0.0,0.0,71,0.00,,---,0.00,VWS V14.01,2013-09-07 12:35:00,
2013-09-07 08:36:00,52.3,43.2,29.06,NNE,22,0.0,0.0,71,0.00,,---,0.00,VWS V14.01,2013-09-07 12:36:00,
2013-09-07 08:37:00,53.1,43.9,29.06,NNE,22,0.0,0.0,71,0.00,,---,0.00,VWS V14.01,2013-09-07 12:37:00,
2013-09-07 08:38:00,53.1,43.9,29.06,NNE,22,0.0,0.0,71,0.00,,---,0.00,VWS V14.01,2013-09-07 12:38:00,
2013-09-07 08:39:00,53.4,44.3,29.06,NNE,22,0.0,0.0,71,0.00,,---,0.00,VWS V14.01,2013-09-07 12:39:00,
2013-09-07 08:40:00,53.4,44.3,29.06,NNE,22,0.0,0.0,71,0.00,,---,0.00,VWS V14.01,2013-09-07 12:40:00,
2013-09-07 08:41:00,55.0,45.8,29.06,NNE,22,0.0,0.0,71,0.00,,---,0.00,VWS V14.01,2013-09-07 12:41:00,
2013-09-07 08:42:00,55.9,46.7,29.06,NNE,22,0.0,0.0,71,0.00,,---,0.00,VWS V14.01,2013-09-07 12:42:00,
2013-09-07 08:43:00,55.9,46.7,29.09,NNE,22,0.0,0.0,71,0.00,,---,0.00,VWS V14.01,2013-09-07 12:43:00,
2013-09-07 08:44:00,55.9,46.3,29.09,NNE,22,0.0,0.0,70,0.00,,---,0.00,VWS V14.01,2013-09-07 12:44:00,
2013-09-07 08:45:00,55.9,46.3,29.09,NNE,22,0.0,0.0,70,0.00,,---,0.00,VWS V14.01,2013-09-07 12:45:00,
2013-09-07 08:46:00,55.9,46.3,29.09,NNE,22,0.0,0.0,70,0.00,,---,0.00,VWS V14.01,2013-09-07 12:46:00,
2013-09-07 08:47:00,55.9,46.3,29.09,NNE,22,0.0,0.0,70,0.00,,---,0.00,VWS V14.01,2013-09-07 12:47:00,
2013-09-07 08:48:00,56.8,47.2,29.09,NNE,22,0.0,0.0,70,0.00,,---,0.00,VWS V14.01,2013-09-07 12:48:00,
2013-09-07 08:49:00,56.8,47.2,29.09,NNE,22,0.0,0.0,70,0.00,,---,0.00,VWS V14.01,2013-09-07 12:49:00,
2013-09-07 08:50:00,56.8,47.2,29.09,NNE,22,0.0,0.0,70,0.00,,---,0.00,VWS V14.01,2013-09-07 12:50:00,
2013-09-07 08:51:00,58.3,48.2,29.09,NNE,22,0.0,0.0,69,0.00,,---,0.00,VWS V14.01,2013-09-07 12:51:00,
2013-09-07 08:52:00,58.3,48.2,29.09,NNE,22,0.0,0.0,69,0.00,,---,0.00,VWS V14.01,2013-09-07 12:52:00,
2013-09-07 08:53:00,57.6,47.1,29.09,NNE,22,0.0,0.0,68,0.00,,---,0.00,VWS V14.01,2013-09-07 12:53:00,
2013-09-07 08:54:00,57.4,46.9,29.09,NNE,22,0.0,0.0,68,0.00,,---,0.00,VWS V14.01,2013-09-07 12:54:00,
2013-09-07 08:55:00,57.4,46.9,29.09,NNE,22,0.0,0.0,68,0.00,,---,0.00,VWS V14.01,2013-09-07 12:55:00,
2013-09-07 08:56:00,57.4,46.9,29.09,NNE,22,0.0,0.0,68,0.00,,---,0.00,VWS V14.01,2013-09-07 12:56:00,
2013-09-07 08:57:00,57.0,46.2,29.09,NNE,22,0.0,0.0,67,0.00,,---,0.00,VWS V14.01,2013-09-07 12:57:00,
2013-09-07 08:58:00,56.7,45.4,29.06,NNE,22,0.0,0.0,66,0.00,,---,0.00,VWS V14.01,2013-09-07 12:58:00,
2013-09-07 08:59:00,56.8,45.6,29.06,NNE,22,0.0,0.0,66,0.00,,---,0.00,VWS V14.01,2013-09-07 12:59:00,
2013-09-07 09:00:00,56.8,45.6,29.06,NNE,22,0.0,0.0,66,0.00,,---,0.00,VWS V14.01,2013-09-07 13:00:00,
2013-09-07 09:01:00,56.8,45.6,29.06,NNE,22,0.0,0.0,66,0.00,,---,0.00,VWS V14.01,2013-09-07 13:01:00,
2013-09-07 09:02:00,57.6,46.3,29.06,NNE,22,0.0,0.0,66,0.00,,---,0.00,VWS V14.01,2013-09-07 13:02:00,
2013-09-07 09:03:00,57.6,46.3,29.06,NNE,22,0.0,0.0,66,0.00,,---,0.00,VWS V14.01,2013-09-07 13:03:00,
2013-09-07 09:04:00,58.6,47.3,29.06,NNE,22,0.0,0.0,66,0.00,,---,0.00,VWS V14.01,2013-09-07 13:04:00,
2013-09-07 09:05:00,59.5,47.8,29.06,NNE,22,0.0,0.0,65,0.00,,---,0.00,VWS V14.01,2013-09-07 13:05:00,
2013-09-07 09:06:00,59.5,47.8,29.06,NNE,22,0.0,0.0,65,0.00,,---,0.00,VWS V14.01,2013-09-07 13:06:00,
2013-09-07 09:07:00,60.6,48.8,29.06,North,0,0.0,0.0,65,0.00,,---,0.00,VWS V14.01,2013-09-07 13:07:00,
2013-09-07 09:08:00,60.6,48.8,29.06,North,0,0.0,0.0,65,0.00,,---,0.00,VWS V14.01,2013-09-07 13:08:00,
2013-09-07 09:09:00,60.6,48.8,29.06,North,0,0.0,0.0,65,0.00,,---,0.00,VWS V14.01,2013-09-07 13:09:00,
2013-09-07 09:10:00,60.6,48.8,29.06,North,0,0.0,0.0,65,0.00,,---,0.00,VWS V14.01,2013-09-07 13:10:00,
2013-09-07 09:11:00,62.2,49.5,29.06,North,0,0.0,0.0,63,0.00,,---,0.00,VWS V14.01,2013-09-07 13:11:00,
2013-09-07 09:12:00,62.8,49.2,29.06,NNW,338,0.0,0.0,61,0.00,,---,0.00,VWS V14.01,2013-09-07 13:12:00,
2013-09-07 09:13:00,62.8,49.2,29.06,NNW,338,0.0,0.0,61,0.00,,---,0.00,VWS V14.01,2013-09-07 13:13:00,
2013-09-07 09:14:00,63.5,49.4,29.06,NNW,338,0.0,0.0,60,0.00,,---,0.00,VWS V14.01,2013-09-07 13:14:00,
2013-09-07 09:15:00,63.5,49.4,29.06,North,0,0.0,0.0,60,0.00,,---,0.00,VWS V14.01,2013-09-07 13:15:00,
2013-09-07 09:16:00,63.7,48.6,29.06,NNE,22,0.0,0.0,58,0.00,,---,0.00,VWS V14.01,2013-09-07 13:16:00,
2013-09-07 09:17:00,63.7,48.6,29.06,NNE,22,0.0,0.0,58,0.00,,---,0.00,VWS V14.01,2013-09-07 13:17:00,
2013-09-07 09:18:00,64.6,49.5,29.06,ESE,112,0.0,0.0,58,0.00,,---,0.00,VWS V14.01,2013-09-07 13:18:00,
2013-09-07 09:19:00,64.8,48.7,29.06,ESE,112,0.0,0.0,56,0.00,,---,0.00,VWS V14.01,2013-09-07 13:19:00,
2013-09-07 09:20:00,64.8,48.7,29.06,ESE,112,0.0,0.0,56,0.00,,---,0.00,VWS V14.01,2013-09-07 13:20:00,
2013-09-07 09:21:00,65.7,49.6,29.06,ENE,68,0.0,0.0,56,0.00,,---,0.00,VWS V14.01,2013-09-07 13:21:00,
2013-09-07 09:22:00,65.7,49.6,29.06,ENE,68,0.0,0.0,56,0.00,,---,0.00,VWS V14.01,2013-09-07 13:22:00,
2013-09-07 09:23:00,65.7,49.6,29.06,ENE,68,0.0,0.0,56,0.00,,---,0.00,VWS V14.01,2013-09-07 13:23:00,
2013-09-07 09:24:00,66.6,49.4,29.06,ENE,68,0.0,0.0,54,0.00,,---,0.00,VWS V14.01,2013-09-07 13:24:00,
2013-09-07 09:25:00,66.6,49.4,29.06,ENE,68,0.0,0.0,54,0.00,,---,0.00,VWS V14.01,2013-09-07 13:25:00,
2013-09-07 09:26:00,66.6,49.4,29.06,ENE,68,0.0,0.0,54,0.00,,---,0.00,VWS V14.01,2013-09-07 13:26:00,
2013-09-07 09:27:00,66.9,48.7,29.06,ENE,68,0.0,0.0,52,0.00,,---,0.00,VWS V14.01,2013-09-07 13:27:00,
2013-09-07 09:28:00,66.9,48.7,29.06,East,90,0.0,0.0,52,0.00,,---,0.00,VWS V14.01,2013-09-07 13:28:00,
2013-09-07 09:29:00,68.0,49.2,29.06,East,90,0.0,0.0,51,0.00,,---,0.00,VWS V14.01,2013-09-07 13:29:00,
2013-09-07 09:30:00,68.0,49.2,29.06,East,90,0.0,0.0,51,0.00,,---,0.00,VWS V14.01,2013-09-07 13:30:00,
2013-09-07 09:31:00,68.0,49.2,29.06,East,90,0.0,0.0,51,0.00,,---,0.00,VWS V14.01,2013-09-07 13:31:00,
2013-09-07 09:32:00,68.7,49.9,29.06,East,90,0.0,0.0,51,0.00,,---,0.00,VWS V14.01,2013-09-07 13:32:00,
2013-09-07 09:33:00,68.7,49.9,29.06,East,90,0.0,0.0,51,0.00,,---,0.00,VWS V14.01,2013-09-07 13:33:00,
2013-09-07 09:34:00,68.7,49.9,29.06,East,90,0.0,0.0,51,0.00,,---,0.00,VWS V14.01,2013-09-07 13:34:00,
2013-09-07 09:35:00,68.7,49.9,29.06,East,90,0.0,0.0,51,0.00,,---,0.00,VWS V14.01,2013-09-07 13:35:00,
2013-09-07 09:36:00,68.7,49.9,29.06,East,90,0.0,0.0,51,0.00,,---,0.00,VWS V14.01,2013-09-07 13:36:00,
2013-09-07 09:37:00,66.9,46.0,29.06,East,90,0.0,0.0,47,0.00,,---,0.00,VWS V14.01,2013-09-07 13:37:00,
2013-09-07 09:38:00,66.9,46.0,29.06,East,90,0.0,0.0,47,0.00,,---,0.00,VWS V14.01,2013-09-07 13:38:00,
2013-09-07 09:39:00,67.3,46.9,29.06,WNW,292,0.0,0.0,48,0.00,,---,0.00,VWS V14.01,2013-09-07 13:39:00,
2013-09-07 09:40:00,67.3,46.9,29.06,WNW,292,0.0,0.0,48,0.00,,---,0.00,VWS V14.01,2013-09-07 13:40:00,
2013-09-07 09:41:00,68.4,47.9,29.06,WNW,292,0.0,0.0,48,0.00,,---,0.00,VWS V14.01,2013-09-07 13:41:00,
2013-09-07 09:42:00,68.9,48.4,29.06,WNW,292,0.0,0.0,48,0.00,,---,0.00,VWS V14.01,2013-09-07 13:42:00,
2013-09-07 09:43:00,68.9,48.4,29.03,WNW,292,0.0,0.0,48,0.00,,---,0.00,VWS V14.01,2013-09-07 13:43:00,
2013-09-07 09:44:00,68.7,47.7,29.03,WNW,292,0.0,0.0,47,0.00,,---,0.00,VWS V14.01,2013-09-07 13:44:00,
2013-09-07 09:45:00,68.7,47.7,29.03,WNW,292,0.0,0.0,47,0.00,,---,0.00,VWS V14.01,2013-09-07 13:45:00,
2013-09-07 09:46:00,69.1,48.0,29.03,WNW,292,0.0,0.0,47,0.00,,---,0.00,VWS V14.01,2013-09-07 13:46:00,
2013-09-07 09:47:00,69.1,48.0,29.03,WNW,292,0.0,0.0,47,0.00,,---,0.00,VWS V14.01,2013-09-07 13:47:00,
2013-09-07 09:48:00,70.0,49.4,29.03,WNW,292,0.0,0.0,48,0.00,,---,0.00,VWS V14.01,2013-09-07 13:48:00,
2013-09-07 09:49:00,70.2,47.8,29.03,WNW,292,0.0,0.0,45,0.00,,---,0.00,VWS V14.01,2013-09-07 13:49:00,
2013-09-07 09:50:00,70.2,47.8,29.03,WNW,292,0.0,0.0,45,0.00,,---,0.00,VWS V14.01,2013-09-07 13:50:00,
2013-09-07 09:51:00,70.9,48.5,29.03,NNW,338,0.0,0.0,45,0.00,,---,0.00,VWS V14.01,2013-09-07 13:51:00,
2013-09-07 09:52:00,70.9,48.5,29.03,NNW,338,0.0,0.0,45,0.00,,---,0.00,VWS V14.01,2013-09-07 13:52:00,
2013-09-07 09:53:00,70.9,48.5,29.03,NNW,338,0.0,0.0,45,0.00,,---,0.00,VWS V14.01,2013-09-07 13:53:00,
2013-09-07 09:54:00,70.9,48.5,29.03,ENE,68,1.1,1.1,45,0.00,,---,0.00,VWS V14.01,2013-09-07 13:54:00,
2013-09-07 09:55:00,70.9,48.5,29.03,ENE,68,1.1,1.1,45,0.00,,---,0.00,VWS V14.01,2013-09-07 13:55:00,
2013-09-07 09:56:00,70.9,48.5,29.03,NNW,338,1.6,1.6,45,0.00,,---,0.00,VWS V14.01,2013-09-07 13:56:00,
2013-09-07 09:57:00,71.6,48.6,29.03,NNW,338,1.6,1.6,44,0.00,,---,0.00,VWS V14.01,2013-09-07 13:57:00,
2013-09-07 09:58:00,71.2,47.0,29.03,NNW,338,1.1,1.6,42,0.00,,---,0.00,VWS V14.01,2013-09-07 13:58:00,
2013-09-07 09:59:00,71.2,47.0,29.03,NNW,338,1.1,1.1,42,0.00,,---,0.00,VWS V14.01,2013-09-07 13:59:00,
2013-09-07 10:00:00,71.6,46.7,29.03,NNW,338,0.0,1.1,41,0.00,,---,0.00,VWS V14.01,2013-09-07 14:00:00,
2013-09-07 10:01:00,71.6,46.7,29.03,NNW,338,0.0,0.0,41,0.00,,---,0.00,VWS V14.01,2013-09-07 14:01:00,
2013-09-07 10:02:00,72.1,45.8,29.03,NNW,338,0.0,0.0,39,0.00,,---,0.00,VWS V14.01,2013-09-07 14:02:00,
2013-09-07 10:03:00,72.1,45.8,29.03,NNW,338,0.0,0.0,39,0.00,,---,0.00,VWS V14.01,2013-09-07 14:03:00,
2013-09-07 10:04:00,71.8,46.2,29.03,NNW,338,0.9,0.9,40,0.00,,---,0.00,VWS V14.01,2013-09-07 14:04:00,
2013-09-07 10:05:00,72.0,47.0,29.03,NNW,338,0.9,0.9,41,0.00,,---,0.00,VWS V14.01,2013-09-07 14:05:00,
2013-09-07 10:06:00,72.0,47.0,29.03,NNW,338,0.9,0.9,41,0.00,,---,0.00,VWS V14.01,2013-09-07 14:06:00,
2013-09-07 10:07:00,73.0,48.6,29.03,NNW,338,0.0,0.9,42,0.00,,---,0.00,VWS V14.01,2013-09-07 14:07:00,
2013-09-07 10:08:00,73.0,48.6,29.03,NNW,338,0.0,0.0,42,0.00,,---,0.00,VWS V14.01,2013-09-07 14:08:00,
2013-09-07 10:09:00,73.4,48.3,29.03,NNW,338,1.6,1.6,41,0.00,,---,0.00,VWS V14.01,2013-09-07 14:09:00,
2013-09-07 10:10:00,73.4,48.3,29.03,NNW,338,1.6,1.6,41,0.00,,---,0.00,VWS V14.01,2013-09-07 14:10:00,
2013-09-07 10:11:00,73.0,44.5,29.03,NNW,338,1.1,1.6,36,0.00,,---,0.00,VWS V14.01,2013-09-07 14:11:00,
2013-09-07 10:12:00,73.0,44.5,29.03,NNW,338,1.1,1.1,36,0.00,,---,0.00,VWS V14.01,2013-09-07 14:12:00,
2013-09-07 10:13:00,73.8,46.6,29.03,NNW,338,1.1,1.1,38,0.00,,---,0.00,VWS V14.01,2013-09-07 14:13:00,
2013-09-07 10:14:00,74.5,47.9,29.03,NNW,338,1.1,1.1,39,0.00,,---,0.00,VWS V14.01,2013-09-07 14:14:00,
2013-09-07 10:15:00,74.5,47.9,29.03,NNW,338,1.1,1.1,39,0.00,,---,0.00,VWS V14.01,2013-09-07 14:15:00,
2013-09-07 10:16:00,74.8,46.8,29.03,NNW,338,1.1,1.1,37,0.00,,---,0.00,VWS V14.01,2013-09-07 14:16:00,
2013-09-07 10:17:00,74.8,46.8,29.03,NE,45,0.0,1.1,37,0.00,,---,0.00,VWS V14.01,2013-09-07 14:17:00,
2013-09-07 10:18:00,75.0,47.7,29.03,NE,45,0.0,0.0,38,0.00,,---,0.00,VWS V14.01,2013-09-07 14:18:00,
2013-09-07 10:19:00,75.0,47.7,29.03,East,90,0.9,0.9,38,0.00,,---,0.00,VWS V14.01,2013-09-07 14:19:00,
2013-09-07 10:20:00,75.0,47.7,29.03,East,90,0.9,0.9,38,0.00,,---,0.00,VWS V14.01,2013-09-07 14:20:00,
2013-09-07 10:21:00,75.0,47.7,29.03,West,270,0.0,0.9,38,0.00,,---,0.00,VWS V14.01,2013-09-07 14:21:00,
2013-09-07 10:22:00,75.0,47.7,29.03,East,90,0.0,0.0,38,0.00,,---,0.00,VWS V14.01,2013-09-07 14:22:00,
2013-09-07 10:23:00,75.0,47.7,29.03,East,90,0.0,0.0,38,0.00,,---,0.00,VWS V14.01,2013-09-07 14:23:00,
2013-09-07 10:24:00,75.0,47.7,29.03,WSW,248,1.1,1.1,38,0.00,,---,0.00,VWS V14.01,2013-09-07 14:24:00,
2013-09-07 10:25:00,75.0,47.7,29.03,WSW,248,0.0,1.1,38,0.00,,---,0.00,VWS V14.01,2013-09-07 14:25:00,
2013-09-07 10:26:00,75.0,47.7,29.03,NW,315,0.0,0.0,38,0.00,,---,0.00,VWS V14.01,2013-09-07 14:26:00,
2013-09-07 10:27:00,75.0,47.7,29.03,NNW,338,2.5,2.5,38,0.00,,---,0.00,VWS V14.01,2013-09-07 14:27:00,
2013-09-07 10:28:00,76.1,47.2,29.03,WNW,292,1.1,2.5,36,0.00,,---,0.00,VWS V14.01,2013-09-07 14:28:00,
2013-09-07 10:29:00,76.1,47.2,29.03,NW,315,2.0,2.0,36,0.00,,---,0.00,VWS V14.01,2013-09-07 14:29:00,
2013-09-07 10:30:00,76.1,45.7,29.03,SSW,202,0.0,2.0,34,0.00,,---,0.00,VWS V14.01,2013-09-07 14:30:00,
2013-09-07 10:31:00,76.1,45.7,29.03,WNW,292,0.0,0.0,34,0.00,,---,0.00,VWS V14.01,2013-09-07 14:31:00,
2013-09-07 10:32:00,75.7,46.9,29.03,WSW,248,1.6,1.6,36,0.00,,---,0.00,VWS V14.01,2013-09-07 14:32:00,
2013-09-07 10:33:00,75.7,46.9,29.03,WSW,248,1.6,1.6,36,0.00,,---,0.00,VWS V14.01,2013-09-07 14:33:00,
2013-09-07 10:34:00,76.3,47.4,29.03,WSW,248,1.3,1.6,36,0.00,,---,0.00,VWS V14.01,2013-09-07 14:34:00,
2013-09-07 10:35:00,77.2,47.4,29.03,WSW,248,0.0,1.3,35,0.00,,---,0.00,VWS V14.01,2013-09-07 14:35:00,
2013-09-07 10:36:00,77.2,47.4,29.03,SW,225,0.0,0.0,35,0.00,,---,0.00,VWS V14.01,2013-09-07 14:36:00,
2013-09-07 10:37:00,77.2,45.1,29.03,ESE,112,1.3,1.3,32,0.00,,---,0.00,VWS V14.01,2013-09-07 14:37:00,
2013-09-07 10:38:00,77.2,45.1,29.03,ESE,112,1.1,1.3,32,0.00,,---,0.00,VWS V14.01,2013-09-07 14:38:00,
2013-09-07 10:39:00,77.2,44.2,29.03,ESE,112,2.9,2.9,31,0.00,,---,0.00,VWS V14.01,2013-09-07 14:39:00,
2013-09-07 10:40:00,77.2,44.2,29.03,ESE,112,2.9,2.9,31,0.00,,---,0.00,VWS V14.01,2013-09-07 14:40:00,
2013-09-07 10:41:00,77.7,45.5,29.03,ESE,112,1.1,2.9,32,0.00,,---,0.00,VWS V14.01,2013-09-07 14:41:00,
2013-09-07 10:42:00,77.7,45.5,29.03,West,270,2.7,2.7,32,0.00,,---,0.00,VWS V14.01,2013-09-07 14:42:00,
2013-09-07 10:43:00,77.7,44.7,29.03,West,270,2.5,2.7,31,0.00,,---,0.00,VWS V14.01,2013-09-07 14:43:00,
2013-09-07 10:44:00,77.7,44.7,29.03,West,270,2.0,2.5,31,0.00,,---,0.00,VWS V14.01,2013-09-07 14:44:00,
2013-09-07 10:45:00,77.7,44.7,29.03,West,270,2.7,2.7,31,0.00,,---,0.00,VWS V14.01,2013-09-07 14:45:00,
2013-09-07 10:46:00,77.7,44.7,29.03,WNW,292,3.4,3.4,31,0.00,,---,0.00,VWS V14.01,2013-09-07 14:46:00,
2013-09-07 10:47:00,77.7,44.7,29.03,WNW,292,1.6,3.4,31,0.00,,---,0.00,VWS V14.01,2013-09-07 14:47:00,
2013-09-07 10:48:00,77.7,43.0,29.03,NNW,338,1.1,1.6,29,0.00,,---,0.00,VWS V14.01,2013-09-07 14:48:00,
2013-09-07 10:49:00,77.9,44.0,29.03,NNW,338,1.3,1.3,30,0.00,,---,0.00,VWS V14.01,2013-09-07 14:49:00,
2013-09-07 10:50:00,77.9,44.0,29.03,NNW,338,0.0,1.3,30,0.00,,---,0.00,VWS V14.01,2013-09-07 14:50:00,
2013-09-07 10:51:00,78.6,45.5,29.03,West,270,0.9,0.9,31,0.00,,---,0.00,VWS V14.01,2013-09-07 14:51:00,
2013-09-07 10:52:00,78.6,45.5,29.03,WSW,248,1.6,1.6,31,0.00,,---,0.00,VWS V14.01,2013-09-07 14:52:00,
2013-09-07 10:53:00,77.9,41.3,29.03,NNW,338,2.2,2.2,27,0.00,,---,0.00,VWS V14.01,2013-09-07 14:53:00,
2013-09-07 10:54:00,77.9,41.3,29.03,WNW,292,1.3,1.3,27,0.00,,---,0.00,VWS V14.01,2013-09-07 14:54:00,
2013-09-07 10:55:00,78.1,44.2,29.03,WNW,292,1.3,1.3,30,0.00,,---,0.00,VWS V14.01,2013-09-07 14:55:00,
2013-09-07 10:56:00,78.1,44.2,29.03,West,270,0.9,1.6,30,0.00,,---,0.00,VWS V14.01,2013-09-07 14:56:00,
2013-09-07 10:57:00,79.0,44.9,29.03,West,270,0.0,0.9,30,0.00,,---,0.00,VWS V14.01,2013-09-07 14:57:00,
2013-09-07 10:58:00,78.8,44.8,29.03,West,270,0.0,0.0,30,0.00,,---,0.00,VWS V14.01,2013-09-07 14:58:00,
2013-09-07 10:59:00,78.8,44.8,29.00,West,270,0.0,0.0,30,0.00,,---,0.00,VWS V14.01,2013-09-07 14:59:00,
2013-09-07 11:00:00,79.0,44.9,29.00,West,270,2.5,2.5,30,0.00,,---,0.00,VWS V14.01,2013-09-07 15:00:00,
2013-09-07 11:01:00,79.0,44.9,29.00,West,270,1.6,2.5,30,0.00,,---,0.00,VWS V14.01,2013-09-07 15:01:00,
2013-09-07 11:02:00,79.2,45.1,29.00,West,270,0.9,1.6,30,0.00,,---,0.00,VWS V14.01,2013-09-07 15:02:00,
2013-09-07 11:03:00,79.2,45.1,29.00,West,270,0.0,0.9,30,0.00,,---,0.00,VWS V14.01,2013-09-07 15:03:00,
2013-09-07 11:04:00,79.7,45.6,29.00,West,270,0.0,0.0,30,0.00,,---,0.00,VWS V14.01,2013-09-07 15:04:00,
2013-09-07 11:05:00,79.7,45.6,29.00,West,270,0.0,0.0,30,0.00,,---,0.00,VWS V14.01,2013-09-07 15:05:00,
2013-09-07 11:06:00,79.9,45.7,29.00,West,270,1.1,1.1,30,0.00,,---,0.00,VWS V14.01,2013-09-07 15:06:00,
2013-09-07 11:07:00,79.9,45.7,29.00,West,270,0.0,1.1,30,0.00,,---,0.00,VWS V14.01,2013-09-07 15:07:00,
2013-09-07 11:08:00,79.9,45.7,29.00,NNW,338,1.6,1.6,30,0.00,,---,0.00,VWS V14.01,2013-09-07 15:08:00,
2013-09-07 11:09:00,79.5,41.7,29.00,NNW,338,0.0,1.3,26,0.00,,---,0.00,VWS V14.01,2013-09-07 15:09:00,
2013-09-07 11:10:00,79.5,41.7,29.00,NNW,338,1.1,1.3,26,0.00,,---,0.00,VWS V14.01,2013-09-07 15:10:00,
2013-09-07 11:11:00,79.9,45.7,29.00,NNW,338,0.0,1.1,30,0.00,,---,0.00,VWS V14.01,2013-09-07 15:11:00,
2013-09-07 11:12:00,79.9,45.7,29.00,NNW,338,0.0,0.0,30,0.00,,---,0.00,VWS V14.01,2013-09-07 15:12:00,
2013-09-07 11:13:00,79.5,40.7,29.00,NNW,338,0.0,0.0,25,0.00,,---,0.00,VWS V14.01,2013-09-07 15:13:00,
2013-09-07 11:14:00,80.1,43.1,29.00,NNW,338,0.0,0.0,27,0.00,,---,0.00,VWS V14.01,2013-09-07 15:14:00,
2013-09-07 11:15:00,80.1,43.1,29.00,NNW,338,0.0,0.0,27,0.00,,---,0.00,VWS V14.01,2013-09-07 15:15:00,
2013-09-07 11:16:00,80.6,43.6,29.00,NNW,338,0.0,0.0,27,0.00,,---,0.00,VWS V14.01,2013-09-07 15:16:00,
2013-09-07 11:17:00,80.6,43.6,29.00,NNW,338,0.0,0.0,27,0.00,,---,0.00,VWS V14.01,2013-09-07 15:17:00,
2013-09-07 11:18:00,81.0,43.9,29.00,NNW,338,0.0,0.0,27,0.00,,---,0.00,VWS V14.01,2013-09-07 15:18:00,
2013-09-07 11:19:00,80.8,44.7,29.00,NNW,338,0.0,0.0,28,0.00,,---,0.00,VWS V14.01,2013-09-07 15:19:00,
2013-09-07 11:20:00,80.8,44.7,29.00,NNW,338,0.0,0.0,28,0.00,,---,0.00,VWS V14.01,2013-09-07 15:20:00,
2013-09-07 11:21:00,81.0,44.8,29.00,NNW,338,0.0,0.0,28,0.00,,---,0.00,VWS V14.01,2013-09-07 15:21:00,
2013-09-07 11:22:00,81.0,44.8,29.00,NNW,338,0.0,0.0,28,0.00,,---,0.00,VWS V14.01,2013-09-07 15:22:00,
2013-09-07 11:23:00,80.6,41.6,29.00,WNW,292,0.0,0.0,25,0.00,,---,0.00,VWS V14.01,2013-09-07 15:23:00,
2013-09-07 11:24:00,80.6,41.6,29.00,WNW,292,2.2,2.2,25,0.00,,---,0.00,VWS V14.01,2013-09-07 15:24:00,
2013-09-07 11:25:00,81.1,44.0,29.00,WNW,292,0.0,2.2,27,0.00,,---,0.00,VWS V14.01,2013-09-07 15:25:00,
2013-09-07 11:26:00,81.1,44.0,29.00,WNW,292,2.0,2.0,27,0.00,,---,0.00,VWS V14.01,2013-09-07 15:26:00,
2013-09-07 11:27:00,81.3,44.2,29.00,WNW,292,0.9,2.0,27,0.00,,---,0.00,VWS V14.01,2013-09-07 15:27:00,
2013-09-07 11:28:00,81.3,44.2,29.00,WNW,292,0.0,0.9,27,0.00,,---,0.00,VWS V14.01,2013-09-07 15:28:00,
2013-09-07 11:29:00,81.5,43.3,29.00,WNW,292,0.0,0.0,26,0.00,,---,0.00,VWS V14.01,2013-09-07 15:29:00,
2013-09-07 11:30:00,81.1,44.0,29.00,WNW,292,0.9,0.9,27,0.00,,---,0.00,VWS V14.01,2013-09-07 15:30:00,
2013-09-07 11:31:00,81.1,44.0,29.00,WNW,292,0.0,0.9,27,0.00,,---,0.00,VWS V14.01,2013-09-07 15:31:00,
2013-09-07 11:32:00,81.5,44.3,29.00,WNW,292,0.0,0.0,27,0.00,,---,0.00,VWS V14.01,2013-09-07 15:32:00,
2013-09-07 11:33:00,81.5,44.3,29.00,WNW,292,2.5,2.5,27,0.00,,---,0.00,VWS V14.01,2013-09-07 15:33:00,
2013-09-07 11:34:00,82.0,40.6,29.00,WNW,292,2.0,2.5,23,0.00,,---,0.00,VWS V14.01,2013-09-07 15:34:00,
2013-09-07 11:35:00,82.0,40.6,29.00,WNW,292,3.1,3.1,23,0.00,,---,0.00,VWS V14.01,2013-09-07 15:35:00,
2013-09-07 11:36:00,82.9,39.0,29.00,WNW,292,2.0,3.1,21,0.00,,---,0.00,VWS V14.01,2013-09-07 15:36:00,
2013-09-07 11:37:00,82.4,38.6,29.00,SSW,202,1.1,2.0,21,0.00,,---,0.00,VWS V14.01,2013-09-07 15:37:00,
2013-09-07 11:38:00,82.4,38.6,29.00,SW,225,1.1,1.1,21,0.00,,---,0.00,VWS V14.01,2013-09-07 15:38:00,
2013-09-07 11:39:00,82.4,38.6,29.00,West,270,2.5,2.5,21,0.00,,---,0.00,VWS V14.01,2013-09-07 15:39:00,
2013-09-07 11:40:00,82.4,38.6,29.00,WSW,248,2.2,2.5,21,0.00,,---,0.00,VWS V14.01,2013-09-07 15:40:00,
2013-09-07 11:41:00,81.5,40.2,29.00,West,270,1.3,2.2,23,0.00,,---,0.00,VWS V14.01,2013-09-07 15:41:00,
2013-09-07 11:42:00,81.5,40.2,29.00,WNW,292,1.6,1.6,23,0.00,,---,0.00,VWS V14.01,2013-09-07 15:42:00,
2013-09-07 11:43:00,82.2,39.6,29.00,WNW,292,1.3,1.6,22,0.00,,---,0.00,VWS V14.01,2013-09-07 15:43:00,
2013-09-07 11:44:00,82.2,38.4,29.00,WNW,292,1.3,1.3,21,0.00,,---,0.00,VWS V14.01,2013-09-07 15:44:00,
2013-09-07 11:45:00,82.2,38.4,29.00,ESE,112,2.7,2.7,21,0.00,,---,0.00,VWS V14.01,2013-09-07 15:45:00,
2013-09-07 11:46:00,81.0,38.6,29.00,WSW,248,4.3,4.3,22,0.00,,---,0.00,VWS V14.01,2013-09-07 15:46:00,
2013-09-07 11:47:00,81.0,38.6,29.00,WNW,292,2.7,4.3,22,0.00,,---,0.00,VWS V14.01,2013-09-07 15:47:00,
2013-09-07 11:48:00,81.1,38.7,29.00,NNW,338,2.9,2.9,22,0.00,,---,0.00,VWS V14.01,2013-09-07 15:48:00,
2013-09-07 11:49:00,81.0,37.4,29.00,WNW,292,3.1,3.1,21,0.00,,---,0.00,VWS V14.01,2013-09-07 15:49:00,
2013-09-07 11:50:00,81.0,37.4,29.00,WNW,292,3.1,3.1,21,0.00,,---,0.00,VWS V14.01,2013-09-07 15:50:00,
2013-09-07 11:51:00,81.7,38.0,29.00,NW,315,2.5,3.1,21,0.00,,---,0.00,VWS V14.01,2013-09-07 15:51:00,
2013-09-07 11:52:00,81.7,38.0,29.00,NW,315,5.4,5.4,21,0.00,,---,0.00,VWS V14.01,2013-09-07 15:52:00,
2013-09-07 11:53:00,81.5,36.6,29.00,WSW,248,2.9,5.4,20,0.00,,---,0.00,VWS V14.01,2013-09-07 15:53:00,
2013-09-07 11:54:00,81.5,36.6,29.00,WNW,292,3.4,3.4,20,0.00,,---,0.00,VWS V14.01,2013-09-07 15:54:00,
2013-09-07 11:55:00,81.5,36.6,29.00,West,270,3.4,3.4,20,0.00,,---,0.00,VWS V14.01,2013-09-07 15:55:00,
2013-09-07 11:56:00,81.5,36.6,29.00,SE,135,3.8,3.8,20,0.00,,---,0.00,VWS V14.01,2013-09-07 15:56:00,
2013-09-07 11:57:00,82.6,37.5,29.00,West,270,3.4,3.8,20,0.00,,---,0.00,VWS V14.01,2013-09-07 15:57:00,
2013-09-07 11:58:00,82.6,37.5,29.00,WNW,292,2.5,3.4,20,0.00,,---,0.00,VWS V14.01,2013-09-07 15:58:00,
2013-09-07 11:59:00,81.5,39.0,29.00,WNW,292,4.3,4.3,22,0.00,,---,0.00,VWS V14.01,2013-09-07 15:59:00,
2013-09-07 12:00:00,80.1,36.7,29.00,WSW,248,1.3,4.3,21,0.00,,---,0.00,VWS V14.01,2013-09-07 16:00:00,
2013-09-07 12:01:00,80.1,36.7,29.00,WNW,292,2.9,2.9,21,0.00,,---,0.00,VWS V14.01,2013-09-07 16:01:00,
2013-09-07 12:02:00,80.1,36.7,29.00,NNW,338,1.1,2.9,21,0.00,,---,0.00,VWS V14.01,2013-09-07 16:02:00,
2013-09-07 12:03:00,80.1,36.7,29.00,WNW,292,3.8,3.8,21,0.00,,---,0.00,VWS V14.01,2013-09-07 16:03:00,
2013-09-07 12:04:00,80.1,36.7,29.00,West,270,2.5,3.8,21,0.00,,---,0.00,VWS V14.01,2013-09-07 16:04:00,
2013-09-07 12:05:00,80.1,36.7,29.00,WNW,292,2.5,2.5,21,0.00,,---,0.00,VWS V14.01,2013-09-07 16:05:00,
2013-09-07 12:06:00,80.1,36.7,29.00,SW,225,1.1,2.5,21,0.00,,---,0.00,VWS V14.01,2013-09-07 16:06:00,
2013-09-07 12:07:00,80.1,36.7,29.00,WSW,248,3.1,3.1,21,0.00,,---,0.00,VWS V14.01,2013-09-07 16:07:00,
2013-09-07 12:08:00,80.1,36.7,29.00,West,270,2.2,3.1,21,0.00,,---,0.00,VWS V14.01,2013-09-07 16:08:00,
2013-09-07 12:09:00,80.1,36.7,29.00,NW,315,3.8,3.8,21,0.00,,---,0.00,VWS V14.01,2013-09-07 16:09:00,
2013-09-07 12:10:00,80.1,36.7,29.00,NW,315,3.8,3.8,21,0.00,,---,0.00,VWS V14.01,2013-09-07 16:10:00,
2013-09-07 12:11:00,80.1,36.7,29.00,West,270,3.8,3.8,21,0.00,,---,0.00,VWS V14.01,2013-09-07 16:11:00,
2013-09-07 12:12:00,80.1,36.7,29.00,WNW,292,4.0,4.0,21,0.00,,---,0.00,VWS V14.01,2013-09-07 16:12:00,
2013-09-07 12:13:00,80.1,36.7,28.97,WNW,292,2.5,4.0,21,0.00,,---,0.00,VWS V14.01,2013-09-07 16:13:00,
2013-09-07 12:14:00,80.1,36.7,28.97,West,270,2.5,2.5,21,0.00,,---,0.00,VWS V14.01,2013-09-07 16:14:00,
2013-09-07 12:15:00,80.1,36.7,28.97,NW,315,2.9,3.1,21,0.00,,---,0.00,VWS V14.01,2013-09-07 16:15:00,
2013-09-07 12:16:00,80.1,36.7,28.97,WSW,248,4.9,4.9,21,0.00,,---,0.00,VWS V14.01,2013-09-07 16:16:00,
2013-09-07 12:17:00,80.1,36.7,28.97,West,270,4.0,4.9,21,0.00,,---,0.00,VWS V14.01,2013-09-07 16:17:00,
2013-09-07 12:18:00,80.1,36.7,28.97,West,270,4.0,4.0,21,0.00,,---,0.00,VWS V14.01,2013-09-07 16:18:00,
2013-09-07 12:19:00,80.1,36.7,28.97,WNW,292,4.3,4.3,21,0.00,,---,0.00,VWS V14.01,2013-09-07 16:19:00,
2013-09-07 12:20:00,80.1,36.7,28.97,WSW,248,2.0,4.3,21,0.00,,---,0.00,VWS V14.01,2013-09-07 16:20:00,
2013-09-07 12:21:00,80.1,36.7,28.97,SW,225,3.4,3.4,21,0.00,,---,0.00,VWS V14.01,2013-09-07 16:21:00,
2013-09-07 12:22:00,80.1,36.7,28.97,WNW,292,2.9,3.4,21,0.00,,---,0.00,VWS V14.01,2013-09-07 16:22:00,
2013-09-07 12:23:00,80.1,36.7,28.97,WNW,292,2.7,2.9,21,0.00,,---,0.00,VWS V14.01,2013-09-07 16:23:00,
2013-09-07 12:24:00,80.1,36.7,28.97,WNW,292,2.7,2.7,21,0.00,,---,0.00,VWS V14.01,2013-09-07 16:24:00,
2013-09-07 12:25:00,80.1,36.7,28.97,WNW,292,2.7,2.7,21,0.00,,---,0.00,VWS V14.01,2013-09-07 16:25:00,
2013-09-07 12:26:00,80.1,36.7,28.97,West,270,3.1,3.1,21,0.00,,---,0.00,VWS V14.01,2013-09-07 16:26:00,
2013-09-07 12:27:00,80.1,36.7,28.97,West,270,3.1,3.1,21,0.00,,---,0.00,VWS V14.01,2013-09-07 16:27:00,
2013-09-07 12:28:00,80.1,36.7,28.97,WSW,248,4.3,4.3,21,0.00,,---,0.00,VWS V14.01,2013-09-07 16:28:00,
2013-09-07 12:29:00,80.1,36.7,28.97,WNW,292,3.6,4.3,21,0.00,,---,0.00,VWS V14.01,2013-09-07 16:29:00,
2013-09-07 12:30:00,80.1,36.7,28.97,NNW,338,2.5,3.6,21,0.00,,---,0.00,VWS V14.01,2013-09-07 16:30:00,
2013-09-07 12:31:00,80.1,36.7,28.97,WNW,292,3.1,3.1,21,0.00,,---,0.00,VWS V14.01,2013-09-07 16:31:00,
2013-09-07 12:32:00,80.1,36.7,28.97,West,270,2.5,3.1,21,0.00,,---,0.00,VWS V14.01,2013-09-07 16:32:00,
2013-09-07 12:33:00,80.1,36.7,28.97,SW,225,3.1,3.1,21,0.00,,---,0.00,VWS V14.01,2013-09-07 16:33:00,
2013-09-07 12:34:00,78.4,37.6,28.97,SW,225,3.1,3.1,23,0.00,,---,0.00,VWS V14.01,2013-09-07 16:34:00,
2013-09-07 12:35:00,78.4,37.6,28.97,SW,225,3.1,3.1,23,0.00,,---,0.00,VWS V14.01,2013-09-07 16:35:00,
2013-09-07 12:36:00,79.0,36.9,28.97,SW,225,3.1,3.1,22,0.00,,---,0.00,VWS V14.01,2013-09-07 16:36:00,
2013-09-07 12:37:00,80.2,38.0,28.97,SW,225,3.1,3.1,22,0.00,,---,0.00,VWS V14.01,2013-09-07 16:37:00,
2013-09-07 12:38:00,80.2,38.0,28.97,WSW,248,2.5,3.1,22,0.00,,---,0.00,VWS V14.01,2013-09-07 16:38:00,
2013-09-07 12:39:00,80.2,38.0,28.97,WSW,248,2.5,2.5,22,0.00,,---,0.00,VWS V14.01,2013-09-07 16:39:00,
2013-09-07 12:40:00,80.2,38.0,28.97,WSW,248,2.5,2.5,22,0.00,,---,0.00,VWS V14.01,2013-09-07 16:40:00,
2013-09-07 12:41:00,80.2,38.0,28.97,WSW,248,3.4,3.6,22,0.00,,---,0.00,VWS V14.01,2013-09-07 16:41:00,
2013-09-07 12:42:00,80.2,38.0,28.97,WSW,248,3.4,3.4,22,0.00,,---,0.00,VWS V14.01,2013-09-07 16:42:00,
2013-09-07 12:43:00,80.2,38.0,28.97,West,270,3.6,3.6,22,0.00,,---,0.00,VWS V14.01,2013-09-07 16:43:00,
2013-09-07 12:44:00,80.2,38.0,28.97,West,270,3.6,3.6,22,0.00,,---,0.00,VWS V14.01,2013-09-07 16:44:00,
2013-09-07 12:45:00,80.2,38.0,28.97,WSW,248,3.6,3.6,22,0.00,,---,0.00,VWS V14.01,2013-09-07 16:45:00,
2013-09-07 12:46:00,80.2,38.0,28.97,WSW,248,3.6,3.6,22,0.00,,---,0.00,VWS V14.01,2013-09-07 16:46:00,
2013-09-07 12:47:00,80.2,38.0,28.97,WNW,292,2.7,3.6,22,0.00,,---,0.00,VWS V14.01,2013-09-07 16:47:00,
2013-09-07 12:48:00,80.2,38.0,28.97,WNW,292,3.4,3.4,22,0.00,,---,0.00,VWS V14.01,2013-09-07 16:48:00,
2013-09-07 12:49:00,80.2,38.0,28.97,WSW,248,4.9,4.9,22,0.00,,---,0.00,VWS V14.01,2013-09-07 16:49:00,
2013-09-07 12:50:00,80.2,38.0,28.97,WSW,248,4.9,4.9,22,0.00,,---,0.00,VWS V14.01,2013-09-07 16:50:00,
2013-09-07 12:51:00,80.2,38.0,28.97,WSW,248,4.9,4.9,22,0.00,,---,0.00,VWS V14.01,2013-09-07 16:51:00,
2013-09-07 12:52:00,80.2,38.0,28.97,WSW,248,4.0,4.9,22,0.00,,---,0.00,VWS V14.01,2013-09-07 16:52:00,
2013-09-07 12:53:00,80.2,38.0,28.97,WSW,248,4.0,4.0,22,0.00,,---,0.00,VWS V14.01,2013-09-07 16:53:00,
2013-09-07 12:54:00,80.2,38.0,28.97,WSW,248,4.0,4.0,22,0.00,,---,0.00,VWS V14.01,2013-09-07 16:54:00,
2013-09-07 12:55:00,80.2,38.0,28.97,WSW,248,4.0,4.0,22,0.00,,---,0.00,VWS V14.01,2013-09-07 16:55:00,
2013-09-07 12:56:00,80.2,38.0,28.97,WSW,248,3.8,4.0,22,0.00,,---,0.00,VWS V14.01,2013-09-07 16:56:00,
2013-09-07 12:57:00,80.2,38.0,28.97,WSW,248,2.2,3.8,22,0.00,,---,0.00,VWS V14.01,2013-09-07 16:57:00,
2013-09-07 12:58:00,80.2,38.0,28.97,SW,225,3.4,3.4,22,0.00,,---,0.00,VWS V14.01,2013-09-07 16:58:00,
2013-09-07 12:59:00,80.2,38.0,28.97,SW,225,3.4,3.4,22,0.00,,---,0.00,VWS V14.01,2013-09-07 16:59:00,
2013-09-07 13:00:00,80.2,38.0,28.97,SW,225,3.4,3.4,22,0.00,,---,0.00,VWS V14.01,2013-09-07 17:00:00,
2013-09-07 13:01:00,80.2,38.0,28.97,WSW,248,3.6,3.6,22,0.00,,---,0.00,VWS V14.01,2013-09-07 17:01:00,
2013-09-07 13:02:00,80.2,38.0,28.97,WSW,248,3.4,3.6,22,0.00,,---,0.00,VWS V14.01,2013-09-07 17:02:00,
2013-09-07 13:03:00,80.2,38.0,28.97,SW,225,5.4,5.4,22,0.00,,---,0.00,VWS V14.01,2013-09-07 17:03:00,
2013-09-07 13:04:00,80.2,38.0,28.97,WSW,248,3.1,5.4,22,0.00,,---,0.00,VWS V14.01,2013-09-07 17:04:00,
2013-09-07 13:05:00,80.2,38.0,28.97,WNW,292,3.6,3.6,22,0.00,,---,0.00,VWS V14.01,2013-09-07 17:05:00,
2013-09-07 13:06:00,80.2,38.0,28.97,West,270,5.8,5.8,22,0.00,,---,0.00,VWS V14.01,2013-09-07 17:06:00,
2013-09-07 13:07:00,80.2,38.0,28.97,West,270,5.8,5.8,22,0.00,,---,0.00,VWS V14.01,2013-09-07 17:07:00,
2013-09-07 13:08:00,80.2,38.0,28.97,West,270,5.8,5.8,22,0.00,,---,0.00,VWS V14.01,2013-09-07 17:08:00,
2013-09-07 13:09:00,80.2,38.0,28.97,West,270,2.9,5.8,22,0.00,,---,0.00,VWS V14.01,2013-09-07 17:09:00,
2013-09-07 13:10:00,80.2,38.0,28.97,WSW,248,5.4,5.4,22,0.00,,---,0.00,VWS V14.01,2013-09-07 17:10:00,
2013-09-07 13:11:00,80.2,38.0,28.97,West,270,3.6,5.4,22,0.00,,---,0.00,VWS V14.01,2013-09-07 17:11:00,
2013-09-07 13:12:00,80.2,38.0,28.97,WSW,248,5.8,5.8,22,0.00,,---,0.00,VWS V14.01,2013-09-07 17:12:00,
2013-09-07 13:13:00,80.4,37.0,28.94,West,270,3.6,5.8,21,0.00,,---,0.00,VWS V14.01,2013-09-07 17:13:00,
2013-09-07 13:14:00,80.4,37.0,28.94,West,270,3.6,3.6,21,0.00,,---,0.00,VWS V14.01,2013-09-07 17:14:00,
2013-09-07 13:15:00,80.4,37.0,28.94,WNW,292,4.9,4.9,21,0.00,,---,0.00,VWS V14.01,2013-09-07 17:15:00,
2013-09-07 13:16:00,80.4,37.0,28.94,West,270,3.4,4.9,21,0.00,,---,0.00,VWS V14.01,2013-09-07 17:16:00,
2013-09-07 13:17:00,80.4,37.0,28.94,WSW,248,2.9,3.4,21,0.00,,---,0.00,VWS V14.01,2013-09-07 17:17:00,
2013-09-07 13:18:00,80.4,37.0,28.94,West,270,2.9,2.9,21,0.00,,---,0.00,VWS V14.01,2013-09-07 17:18:00,
2013-09-07 13:19:00,80.4,37.0,28.94,WSW,248,4.0,4.0,21,0.00,,---,0.00,VWS V14.01,2013-09-07 17:19:00,
2013-09-07 13:20:00,77.9,34.9,28.94,West,270,2.9,4.0,21,0.00,,---,0.00,VWS V14.01,2013-09-07 17:20:00,
2013-09-07 13:21:00,77.9,34.9,28.94,West,270,2.9,2.9,21,0.00,,---,0.00,VWS V14.01,2013-09-07 17:21:00,
2013-09-07 13:22:00,77.7,35.9,28.94,West,270,1.6,2.9,22,0.00,,---,0.00,VWS V14.01,2013-09-07 17:22:00,
2013-09-07 13:23:00,77.7,35.9,28.94,WSW,248,3.1,3.1,22,0.00,,---,0.00,VWS V14.01,2013-09-07 17:23:00,
2013-09-07 13:24:00,77.7,35.9,28.94,WSW,248,3.1,3.1,22,0.00,,---,0.00,VWS V14.01,2013-09-07 17:24:00,
2013-09-07 13:25:00,77.7,35.9,28.94,WSW,248,2.0,3.1,22,0.00,,---,0.00,VWS V14.01,2013-09-07 17:25:00,
2013-09-07 15:07:00,72.9,42.1,28.91,WNW,292,3.1,3.1,33,0.00,,---,0.00,VWS V14.01,2013-09-07 19:07:00,
2013-09-07 15:08:00,72.9,42.1,28.91,WNW,292,3.1,3.1,33,0.00,,---,0.00,VWS V14.01,2013-09-07 19:08:00,
2013-09-07 15:09:00,72.5,41.8,28.91,WNW,292,3.1,3.1,33,0.00,,---,0.00,VWS V14.01,2013-09-07 19:09:00,
2013-09-07 15:10:00,72.5,41.8,28.91,WNW,292,1.6,3.1,33,0.00,,---,0.00,VWS V14.01,2013-09-07 19:10:00,
2013-09-07 15:11:00,72.5,41.0,28.91,West,270,2.0,2.0,32,0.00,,---,0.00,VWS V14.01,2013-09-07 19:11:00,
2013-09-07 15:12:00,72.5,41.0,28.91,West,270,1.3,1.3,32,0.00,,---,0.00,VWS V14.01,2013-09-07 19:12:00,
2013-09-07 15:13:00,72.3,40.8,28.94,NNW,338,0.0,1.3,32,0.00,,---,0.00,VWS V14.01,2013-09-07 19:13:00,
2013-09-07 15:14:00,72.3,40.8,28.94,NNE,22,1.6,1.6,32,0.00,,---,0.00,VWS V14.01,2013-09-07 19:14:00,
2013-09-07 15:15:00,72.1,39.9,28.94,NNE,22,1.3,1.6,31,0.00,,---,0.00,VWS V14.01,2013-09-07 19:15:00,
2013-09-07 15:16:00,72.3,40.8,28.94,NNE,22,1.3,1.3,32,0.00,,---,0.00,VWS V14.01,2013-09-07 19:16:00,
2013-09-07 15:17:00,72.3,40.8,28.94,SW,225,3.1,3.1,32,0.00,,---,0.00,VWS V14.01,2013-09-07 19:17:00,
2013-09-07 15:18:00,72.3,41.6,28.94,WSW,248,2.0,3.1,33,0.00,,---,0.00,VWS V14.01,2013-09-07 19:18:00,
2013-09-07 15:19:00,72.3,41.6,28.94,WNW,292,0.0,2.0,33,0.00,,---,0.00,VWS V14.01,2013-09-07 19:19:00,
2013-09-07 15:20:00,72.3,40.8,28.94,West,270,1.3,1.3,32,0.00,,---,0.00,VWS V14.01,2013-09-07 19:20:00,
2013-09-07 15:21:00,72.3,40.8,28.94,WNW,292,1.6,1.6,32,0.00,,---,0.00,VWS V14.01,2013-09-07 19:21:00,
2013-09-07 15:22:00,72.5,41.0,28.94,WNW,292,1.6,1.6,32,0.00,,---,0.00,VWS V14.01,2013-09-07 19:22:00,
2013-09-07 15:23:00,72.5,41.0,28.94,NNE,22,2.0,2.0,32,0.00,,---,0.00,VWS V14.01,2013-09-07 19:23:00,
2013-09-07 15:24:00,72.5,41.0,28.94,NNE,22,2.0,2.0,32,0.00,,---,0.00,VWS V14.01,2013-09-07 19:24:00,
2013-09-07 15:25:00,72.5,41.0,28.94,NNE,22,2.0,2.0,32,0.00,,---,0.00,VWS V14.01,2013-09-07 19:25:00,
2013-09-07 15:26:00,72.5,41.0,28.94,NNE,22,2.0,2.0,32,0.00,,---,0.00,VWS V14.01,2013-09-07 19:26:00,
2013-09-07 15:27:00,72.1,41.5,28.94,WNW,292,0.0,2.0,33,0.00,,---,0.00,VWS V14.01,2013-09-07 19:27:00,
2013-09-07 15:28:00,72.1,41.5,28.94,WNW,292,0.0,0.0,33,0.00,,---,0.00,VWS V14.01,2013-09-07 19:28:00,
2013-09-07 15:29:00,72.1,41.5,28.94,WNW,292,0.0,0.0,33,0.00,,---,0.00,VWS V14.01,2013-09-07 19:29:00,
2013-09-07 15:30:00,72.1,41.5,28.94,WNW,292,0.0,0.0,33,0.00,,---,0.00,VWS V14.01,2013-09-07 19:30:00,
2013-09-07 15:31:00,72.1,41.5,28.94,WNW,292,0.0,0.0,33,0.00,,---,0.00,VWS V14.01,2013-09-07 19:31:00,
2013-09-07 15:32:00,72.1,41.5,28.94,WNW,292,0.0,0.0,33,0.00,,---,0.00,VWS V14.01,2013-09-07 19:32:00,
2013-09-07 15:33:00,72.1,41.5,28.94,WNW,292,0.0,0.0,33,0.00,,---,0.00,VWS V14.01,2013-09-07 19:33:00,
2013-09-07 15:34:00,72.1,41.5,28.94,WNW,292,0.0,0.0,33,0.00,,---,0.00,VWS V14.01,2013-09-07 19:34:00,
2013-09-07 15:35:00,72.1,41.5,28.94,WNW,292,0.0,0.0,33,0.00,,---,0.00,VWS V14.01,2013-09-07 19:35:00,
2013-09-07 15:36:00,72.1,41.5,28.94,WNW,292,0.0,0.0,33,0.00,,---,0.00,VWS V14.01,2013-09-07 19:36:00,
2013-09-07 15:37:00,72.1,41.5,28.94,WNW,292,0.0,0.0,33,0.00,,---,0.00,VWS V14.01,2013-09-07 19:37:00,
2013-09-07 15:38:00,72.1,41.5,28.94,WNW,292,0.0,0.0,33,0.00,,---,0.00,VWS V14.01,2013-09-07 19:38:00,
2013-09-07 15:39:00,72.1,41.5,28.94,WNW,292,0.0,0.0,33,0.00,,---,0.00,VWS V14.01,2013-09-07 19:39:00,
2013-09-07 15:40:00,72.1,41.5,28.94,WNW,292,0.0,0.0,33,0.00,,---,0.00,VWS V14.01,2013-09-07 19:40:00,
2013-09-07 15:41:00,72.1,41.5,28.94,WNW,292,0.0,0.0,33,0.00,,---,0.00,VWS V14.01,2013-09-07 19:41:00,
2013-09-07 15:42:00,72.1,41.5,28.94,WNW,292,0.0,0.0,33,0.00,,---,0.00,VWS V14.01,2013-09-07 19:42:00,
2013-09-07 15:43:00,70.2,44.1,28.94,WNW,292,0.0,0.0,39,0.00,,---,0.00,VWS V14.01,2013-09-07 19:43:00,
2013-09-07 15:44:00,70.2,44.1,28.94,WNW,292,0.0,0.0,39,0.00,,---,0.00,VWS V14.01,2013-09-07 19:44:00,
2013-09-07 15:45:00,70.2,44.1,28.94,WNW,292,0.0,0.0,39,0.00,,---,0.00,VWS V14.01,2013-09-07 19:45:00,
2013-09-07 15:46:00,70.2,44.1,28.94,WNW,292,0.0,0.0,39,0.00,,---,0.00,VWS V14.01,2013-09-07 19:46:00,
2013-09-07 15:47:00,70.2,44.1,28.94,WNW,292,0.0,0.0,39,0.00,,---,0.00,VWS V14.01,2013-09-07 19:47:00,
2013-09-07 15:48:00,70.2,44.1,28.94,WNW,292,0.0,0.0,39,0.00,,---,0.00,VWS V14.01,2013-09-07 19:48:00,
2013-09-07 15:49:00,70.2,44.1,28.94,WNW,292,0.0,0.0,39,0.00,,---,0.00,VWS V14.01,2013-09-07 19:49:00,
2013-09-07 15:50:00,70.2,44.1,28.94,WNW,292,0.0,0.0,39,0.00,,---,0.00,VWS V14.01,2013-09-07 19:50:00,
2013-09-07 15:51:00,70.2,44.1,28.94,WNW,292,0.0,0.0,39,0.00,,---,0.00,VWS V14.01,2013-09-07 19:51:00,
2013-09-07 15:52:00,70.3,43.5,28.94,WNW,292,0.0,0.0,38,0.00,,---,0.00,VWS V14.01,2013-09-07 19:52:00,
2013-09-07 15:53:00,70.3,43.5,28.94,WNW,292,0.0,0.0,38,0.00,,---,0.00,VWS V14.01,2013-09-07 19:53:00,
2013-09-07 15:54:00,70.3,43.5,28.94,WNW,292,0.0,0.0,38,0.00,,---,0.00,VWS V14.01,2013-09-07 19:54:00,
2013-09-07 15:55:00,70.3,43.5,28.94,WNW,292,0.0,0.0,38,0.00,,---,0.00,VWS V14.01,2013-09-07 19:55:00,
2013-09-07 15:56:00,70.3,43.5,28.94,WNW,292,0.0,0.0,38,0.00,,---,0.00,VWS V14.01,2013-09-07 19:56:00,
2013-09-07 15:57:00,70.3,43.5,28.94,WNW,292,0.0,0.0,38,0.00,,---,0.00,VWS V14.01,2013-09-07 19:57:00,
2013-09-07 15:58:00,70.3,43.5,28.91,WNW,292,0.0,0.0,38,0.00,,---,0.00,VWS V14.01,2013-09-07 19:58:00,
2013-09-07 15:59:00,70.3,43.5,28.91,WNW,292,0.0,0.0,38,0.00,,---,0.00,VWS V14.01,2013-09-07 19:59:00,
2013-09-07 16:00:00,70.3,43.5,28.91,WNW,292,0.0,0.0,38,0.00,,---,0.00,VWS V14.01,2013-09-07 20:00:00,
2013-09-07 16:01:00,70.3,43.5,28.91,WNW,292,0.0,0.0,38,0.00,,---,0.00,VWS V14.01,2013-09-07 20:01:00,
2013-09-07 16:02:00,70.3,43.5,28.91,WNW,292,0.0,0.0,38,0.00,,---,0.00,VWS V14.01,2013-09-07 20:02:00,
2013-09-07 16:03:00,70.3,43.5,28.91,WNW,292,0.0,0.0,38,0.00,,---,0.00,VWS V14.01,2013-09-07 20:03:00,
2013-09-07 16:04:00,70.3,43.5,28.91,WNW,292,0.0,0.0,38,0.00,,---,0.00,VWS V14.01,2013-09-07 20:04:00,
2013-09-07 16:05:00,70.3,43.5,28.91,WNW,292,0.0,0.0,38,0.00,,---,0.00,VWS V14.01,2013-09-07 20:05:00,
2013-09-07 16:06:00,70.3,43.5,28.91,WNW,292,0.0,0.0,38,0.00,,---,0.00,VWS V14.01,2013-09-07 20:06:00,
2013-09-07 16:07:00,70.3,43.5,28.91,WNW,292,0.0,0.0,38,0.00,,---,0.00,VWS V14.01,2013-09-07 20:07:00,
2013-09-07 16:08:00,70.3,43.5,28.91,WNW,292,0.0,0.0,38,0.00,,---,0.00,VWS V14.01,2013-09-07 20:08:00,
2013-09-07 16:09:00,70.3,43.5,28.91,WNW,292,0.0,0.0,38,0.00,,---,0.00,VWS V14.01,2013-09-07 20:09:00,
2013-09-07 16:10:00,70.3,43.5,28.91,WNW,292,0.0,0.0,38,0.00,,---,0.00,VWS V14.01,2013-09-07 20:10:00,
2013-09-07 16:11:00,70.3,43.5,28.91,WNW,292,0.0,0.0,38,0.00,,---,0.00,VWS V14.01,2013-09-07 20:11:00,
2013-09-07 16:12:00,70.3,43.5,28.91,WNW,292,0.0,0.0,38,0.00,,---,0.00,VWS V14.01,2013-09-07 20:12:00,
2013-09-07 16:13:00,70.3,43.5,28.94,WNW,292,0.0,0.0,38,0.00,,---,0.00,VWS V14.01,2013-09-07 20:13:00,
2013-09-07 16:14:00,70.3,43.5,28.94,WNW,292,0.0,0.0,38,0.00,,---,0.00,VWS V14.01,2013-09-07 20:14:00,
2013-09-07 16:15:00,70.3,43.5,28.94,WNW,292,0.0,0.0,38,0.00,,---,0.00,VWS V14.01,2013-09-07 20:15:00,
2013-09-07 16:16:00,70.3,43.5,28.94,WNW,292,0.0,0.0,38,0.00,,---,0.00,VWS V14.01,2013-09-07 20:16:00,
2013-09-07 16:17:00,70.3,43.5,28.94,WNW,292,0.0,0.0,38,0.00,,---,0.00,VWS V14.01,2013-09-07 20:17:00,
2013-09-07 16:18:00,70.3,43.5,28.94,WNW,292,0.0,0.0,38,0.00,,---,0.00,VWS V14.01,2013-09-07 20:18:00,
2013-09-07 16:19:00,70.3,43.5,28.94,WNW,292,0.0,0.0,38,0.00,,---,0.00,VWS V14.01,2013-09-07 20:19:00,
2013-09-07 16:20:00,70.3,43.5,28.94,WNW,292,0.0,0.0,38,0.00,,---,0.00,VWS V14.01,2013-09-07 20:20:00,
2013-09-07 16:21:00,70.3,43.5,28.94,WNW,292,0.0,0.0,38,0.00,,---,0.00,VWS V14.01,2013-09-07 20:21:00,
2013-09-07 16:22:00,70.3,43.5,28.94,WNW,292,0.0,0.0,38,0.00,,---,0.00,VWS V14.01,2013-09-07 20:22:00,
2013-09-07 16:23:00,70.3,43.5,28.94,WNW,292,0.0,0.0,38,0.00,,---,0.00,VWS V14.01,2013-09-07 20:23:00,
2013-09-07 16:24:00,70.3,43.5,28.94,WNW,292,0.0,0.0,38,0.00,,---,0.00,VWS V14.01,2013-09-07 20:24:00,
2013-09-07 16:25:00,68.0,43.5,28.94,WNW,292,0.0,0.0,41,0.00,,---,0.00,VWS V14.01,2013-09-07 20:25:00,
2013-09-07 16:26:00,68.0,43.5,28.94,WNW,292,0.0,0.0,41,0.00,,---,0.00,VWS V14.01,2013-09-07 20:26:00,
2013-09-07 16:27:00,68.0,43.5,28.94,WNW,292,0.0,0.0,41,0.00,,---,0.00,VWS V14.01,2013-09-07 20:27:00,
2013-09-07 16:28:00,68.0,43.5,28.91,WNW,292,0.0,0.0,41,0.00,,---,0.00,VWS V14.01,2013-09-07 20:28:00,
2013-09-07 16:29:00,68.0,43.5,28.91,WNW,292,0.0,0.0,41,0.00,,---,0.00,VWS V14.01,2013-09-07 20:29:00,
2013-09-07 16:30:00,68.0,43.5,28.91,WNW,292,0.0,0.0,41,0.00,,---,0.00,VWS V14.01,2013-09-07 20:30:00,
2013-09-07 16:31:00,68.0,43.5,28.91,WNW,292,0.0,0.0,41,0.00,,---,0.00,VWS V14.01,2013-09-07 20:31:00,
2013-09-07 16:32:00,68.0,43.5,28.91,WNW,292,0.0,0.0,41,0.00,,---,0.00,VWS V14.01,2013-09-07 20:32:00,
2013-09-07 16:33:00,68.0,43.5,28.91,WNW,292,0.0,0.0,41,0.00,,---,0.00,VWS V14.01,2013-09-07 20:33:00,
2013-09-07 16:34:00,68.0,43.5,28.91,WNW,292,0.0,0.0,41,0.00,,---,0.00,VWS V14.01,2013-09-07 20:34:00,
2013-09-07 16:35:00,68.0,43.5,28.91,WNW,292,0.0,0.0,41,0.00,,---,0.00,VWS V14.01,2013-09-07 20:35:00,
2013-09-07 16:36:00,68.0,43.5,28.91,WNW,292,0.0,0.0,41,0.00,,---,0.00,VWS V14.01,2013-09-07 20:36:00,
2013-09-07 16:37:00,68.0,43.5,28.91,WNW,292,0.0,0.0,41,0.00,,---,0.00,VWS V14.01,2013-09-07 20:37:00,
2013-09-07 16:38:00,68.0,43.5,28.91,WNW,292,0.0,0.0,41,0.00,,---,0.00,VWS V14.01,2013-09-07 20:38:00,
2013-09-07 16:39:00,68.0,43.5,28.91,WNW,292,0.0,0.0,41,0.00,,---,0.00,VWS V14.01,2013-09-07 20:39:00,
2013-09-07 16:40:00,68.0,43.5,28.91,WNW,292,0.0,0.0,41,0.00,,---,0.00,VWS V14.01,2013-09-07 20:40:00,
2013-09-07 16:41:00,68.0,43.5,28.91,WNW,292,0.0,0.0,41,0.00,,---,0.00,VWS V14.01,2013-09-07 20:41:00,
2013-09-07 16:42:00,68.0,43.5,28.91,WNW,292,0.0,0.0,41,0.00,,---,0.00,VWS V14.01,2013-09-07 20:42:00,
2013-09-07 16:43:00,68.0,43.5,28.91,WNW,292,0.0,0.0,41,0.00,,---,0.00,VWS V14.01,2013-09-07 20:43:00,
2013-09-07 16:44:00,68.0,43.5,28.91,WNW,292,0.0,0.0,41,0.00,,---,0.00,VWS V14.01,2013-09-07 20:44:00,
2013-09-07 16:45:00,68.0,43.5,28.91,WNW,292,0.0,0.0,41,0.00,,---,0.00,VWS V14.01,2013-09-07 20:45:00,
2013-09-07 16:46:00,68.0,43.5,28.91,WNW,292,0.0,0.0,41,0.00,,---,0.00,VWS V14.01,2013-09-07 20:46:00,
2013-09-07 16:47:00,68.0,43.5,28.91,WNW,292,0.0,0.0,41,0.00,,---,0.00,VWS V14.01,2013-09-07 20:47:00,
2013-09-07 16:48:00,67.6,39.0,28.91,WNW,292,0.0,0.0,35,0.00,,---,0.00,VWS V14.01,2013-09-07 20:48:00,
2013-09-07 16:49:00,67.6,39.0,28.91,WNW,292,0.0,0.0,35,0.00,,---,0.00,VWS V14.01,2013-09-07 20:49:00,
2013-09-07 16:50:00,67.6,38.3,28.91,WNW,292,3.1,3.1,34,0.00,,---,0.00,VWS V14.01,2013-09-07 20:50:00,
2013-09-07 16:51:00,67.5,38.1,28.91,NW,315,2.2,3.8,34,0.00,,---,0.00,VWS V14.01,2013-09-07 20:51:00,
2013-09-07 16:52:00,67.5,38.1,28.91,NW,315,2.2,3.8,34,0.00,,---,0.00,VWS V14.01,2013-09-07 20:52:00,
2013-09-07 16:53:00,67.5,38.1,28.91,WNW,292,2.9,2.9,34,0.00,,---,0.00,VWS V14.01,2013-09-07 20:53:00,
2013-09-07 16:54:00,67.5,38.1,28.91,WNW,292,2.9,2.9,34,0.00,,---,0.00,VWS V14.01,2013-09-07 20:54:00,
2013-09-07 16:55:00,67.1,37.1,28.91,WNW,292,2.9,2.9,33,0.00,,---,0.00,VWS V14.01,2013-09-07 20:55:00,
2013-09-07 16:56:00,67.1,37.1,28.91,West,270,2.7,2.9,33,0.00,,---,0.00,VWS V14.01,2013-09-07 20:56:00,
2013-09-07 16:57:00,67.1,37.1,28.91,WNW,292,2.9,2.9,33,0.00,,---,0.00,VWS V14.01,2013-09-07 20:57:00,
2013-09-07 16:58:00,67.1,37.1,28.91,WNW,292,2.9,2.9,33,0.00,,---,0.00,VWS V14.01,2013-09-07 20:58:00,
2013-09-07 16:59:00,67.1,37.8,28.91,West,270,3.8,3.8,34,0.00,,---,0.00,VWS V14.01,2013-09-07 20:59:00,
2013-09-07 17:00:00,67.1,37.8,28.91,West,270,2.0,3.8,34,0.00,,---,0.00,VWS V14.01,2013-09-07 21:00:00,
2013-09-07 17:01:00,67.1,37.8,28.91,West,270,4.9,4.9,34,0.00,,---,0.00,VWS V14.01,2013-09-07 21:01:00,
2013-09-07 17:02:00,66.9,36.9,28.91,West,270,4.9,4.9,33,0.00,,---,0.00,VWS V14.01,2013-09-07 21:02:00,
2013-09-07 17:03:00,66.9,36.9,28.91,WNW,292,3.6,4.9,33,0.00,,---,0.00,VWS V14.01,2013-09-07 21:03:00,
2013-09-07 17:04:00,66.9,36.9,28.91,WNW,292,3.6,3.6,33,0.00,,---,0.00,VWS V14.01,2013-09-07 21:04:00,
2013-09-07 17:05:00,66.9,36.9,28.91,WNW,292,2.9,3.6,33,0.00,,---,0.00,VWS V14.01,2013-09-07 21:05:00,
2013-09-07 17:06:00,66.7,36.8,28.91,WNW,292,2.5,2.5,33,0.00,,---,0.00,VWS V14.01,2013-09-07 21:06:00,
2013-09-07 17:07:00,66.7,36.8,28.91,WNW,292,2.5,2.5,33,0.00,,---,0.00,VWS V14.01,2013-09-07 21:07:00,
2013-09-07 17:08:00,66.7,36.8,28.91,WSW,248,4.3,4.3,33,0.00,,---,0.00,VWS V14.01,2013-09-07 21:08:00,
2013-09-07 17:09:00,66.7,36.8,28.91,SSW,202,3.1,4.3,33,0.00,,---,0.00,VWS V14.01,2013-09-07 21:09:00,
2013-09-07 17:10:00,66.7,36.8,28.91,WNW,292,4.0,4.0,33,0.00,,---,0.00,VWS V14.01,2013-09-07 21:10:00,
2013-09-07 17:11:00,66.7,36.8,28.91,WNW,292,4.9,4.9,33,0.00,,---,0.00,VWS V14.01,2013-09-07 21:11:00,
2013-09-07 17:12:00,66.7,36.8,28.91,West,270,3.1,4.9,33,0.00,,---,0.00,VWS V14.01,2013-09-07 21:12:00,
2013-09-07 17:13:00,66.6,36.6,28.91,WNW,292,4.3,4.3,33,0.00,,---,0.00,VWS V14.01,2013-09-07 21:13:00,
2013-09-07 17:14:00,66.6,36.6,28.91,WNW,292,4.3,4.3,33,0.00,,---,0.00,VWS V14.01,2013-09-07 21:14:00,
2013-09-07 17:15:00,66.6,36.6,28.91,West,270,3.1,4.3,33,0.00,,---,0.00,VWS V14.01,2013-09-07 21:15:00,
2013-09-07 17:16:00,66.6,36.6,28.91,WNW,292,3.8,3.8,33,0.00,,---,0.00,VWS V14.01,2013-09-07 21:16:00,
2013-09-07 17:17:00,66.6,36.6,28.91,WNW,292,3.8,3.8,33,0.00,,---,0.00,VWS V14.01,2013-09-07 21:17:00,
2013-09-07 17:18:00,66.6,36.6,28.91,WNW,292,5.6,5.6,33,0.00,,---,0.00,VWS V14.01,2013-09-07 21:18:00,
2013-09-07 17:19:00,66.6,36.6,28.91,WNW,292,2.9,5.6,33,0.00,,---,0.00,VWS V14.01,2013-09-07 21:19:00,
2013-09-07 17:20:00,66.7,36.0,28.91,NW,315,3.8,3.8,32,0.00,,---,0.00,VWS V14.01,2013-09-07 21:20:00,
2013-09-07 17:21:00,66.7,36.0,28.91,West,270,4.0,4.3,32,0.00,,---,0.00,VWS V14.01,2013-09-07 21:21:00,
2013-09-07 17:22:00,66.7,36.0,28.91,West,270,4.0,4.3,32,0.00,,---,0.00,VWS V14.01,2013-09-07 21:22:00,
2013-09-07 17:23:00,66.7,36.0,28.91,West,270,6.5,6.5,32,0.00,,---,0.00,VWS V14.01,2013-09-07 21:23:00,
2013-09-07 17:24:00,66.7,36.8,28.91,West,270,6.5,6.5,33,0.00,,---,0.00,VWS V14.01,2013-09-07 21:24:00,
2013-09-07 17:25:00,66.7,36.8,28.91,West,270,3.4,6.5,33,0.00,,---,0.00,VWS V14.01,2013-09-07 21:25:00,
2013-09-07 17:26:00,66.6,36.6,28.91,West,270,3.6,3.6,33,0.00,,---,0.00,VWS V14.01,2013-09-07 21:26:00,
2013-09-07 17:27:00,66.6,36.6,28.91,WNW,292,3.1,3.6,33,0.00,,---,0.00,VWS V14.01,2013-09-07 21:27:00,
2013-09-07 17:28:00,66.6,36.6,28.91,WSW,248,3.1,3.1,33,0.00,,---,0.00,VWS V14.01,2013-09-07 21:28:00,
2013-09-07 17:29:00,66.4,36.4,28.91,NE,45,2.7,3.1,33,0.00,,---,0.00,VWS V14.01,2013-09-07 21:29:00,
2013-09-07 17:30:00,66.4,36.4,28.91,WNW,292,4.7,4.7,33,0.00,,---,0.00,VWS V14.01,2013-09-07 21:30:00,
2013-09-07 17:31:00,66.6,35.8,28.91,WSW,248,3.4,4.7,32,0.00,,---,0.00,VWS V14.01,2013-09-07 21:31:00,
2013-09-07 17:32:00,66.7,36.0,28.91,WSW,248,3.4,4.7,32,0.00,,---,0.00,VWS V14.01,2013-09-07 21:32:00,
2013-09-07 17:33:00,66.7,36.0,28.91,West,270,4.7,4.7,32,0.00,,---,0.00,VWS V14.01,2013-09-07 21:33:00,
2013-09-07 17:34:00,66.7,36.8,28.91,West,270,4.0,4.7,33,0.00,,---,0.00,VWS V14.01,2013-09-07 21:34:00,
2013-09-07 17:35:00,66.7,36.8,28.91,WSW,248,4.0,4.0,33,0.00,,---,0.00,VWS V14.01,2013-09-07 21:35:00,
2013-09-07 17:36:00,66.7,36.8,28.91,WSW,248,4.0,4.0,33,0.00,,---,0.00,VWS V14.01,2013-09-07 21:36:00,
2013-09-07 17:37:00,66.7,36.8,28.91,WSW,248,4.0,4.0,33,0.00,,---,0.00,VWS V14.01,2013-09-07 21:37:00,
2013-09-07 17:38:00,66.6,36.6,28.91,WSW,248,3.6,4.0,33,0.00,,---,0.00,VWS V14.01,2013-09-07 21:38:00,
2013-09-07 17:39:00,66.6,36.6,28.91,West,270,2.5,3.6,33,0.00,,---,0.00,VWS V14.01,2013-09-07 21:39:00,
2013-09-07 17:40:00,66.6,36.6,28.91,West,270,4.0,4.0,33,0.00,,---,0.00,VWS V14.01,2013-09-07 21:40:00,
2013-09-07 17:41:00,66.4,36.4,28.91,West,270,4.0,4.0,33,0.00,,---,0.00,VWS V14.01,2013-09-07 21:41:00,
2013-09-07 17:42:00,66.4,36.4,28.91,West,270,4.0,4.0,33,0.00,,---,0.00,VWS V14.01,2013-09-07 21:42:00,
2013-09-07 17:43:00,66.6,36.6,28.91,West,270,4.0,4.0,33,0.00,,---,0.00,VWS V14.01,2013-09-07 21:43:00,
2013-09-07 17:44:00,66.6,36.6,28.91,West,270,4.0,4.0,33,0.00,,---,0.00,VWS V14.01,2013-09-07 21:44:00,
2013-09-07 17:45:00,66.6,36.6,28.91,WSW,248,3.6,4.0,33,0.00,,---,0.00,VWS V14.01,2013-09-07 21:45:00,
2013-09-07 17:46:00,66.6,36.6,28.91,West,270,4.3,4.3,33,0.00,,---,0.00,VWS V14.01,2013-09-07 21:46:00,
2013-09-07 17:47:00,66.6,36.6,28.91,West,270,4.3,4.3,33,0.00,,---,0.00,VWS V14.01,2013-09-07 21:47:00,
2013-09-07 17:48:00,66.6,36.6,28.91,WNW,292,4.3,4.3,33,0.00,,---,0.00,VWS V14.01,2013-09-07 21:48:00,
2013-09-07 17:49:00,66.6,36.6,28.91,WNW,292,2.7,4.3,33,0.00,,---,0.00,VWS V14.01,2013-09-07 21:49:00,
2013-09-07 17:50:00,66.6,36.6,28.91,WNW,292,3.1,3.1,33,0.00,,---,0.00,VWS V14.01,2013-09-07 21:50:00,
2013-09-07 17:51:00,65.8,36.7,28.91,West,270,2.0,3.1,34,0.00,,---,0.00,VWS V14.01,2013-09-07 21:51:00,
2013-09-07 17:52:00,65.8,36.7,28.91,West,270,2.0,3.1,34,0.00,,---,0.00,VWS V14.01,2013-09-07 21:52:00,
2013-09-07 17:53:00,65.8,36.7,28.91,West,270,2.7,2.7,34,0.00,,---,0.00,VWS V14.01,2013-09-07 21:53:00,
2013-09-07 17:54:00,65.8,36.7,28.91,WNW,292,4.3,4.3,34,0.00,,---,0.00,VWS V14.01,2013-09-07 21:54:00,
2013-09-07 17:55:00,65.3,36.2,28.91,WNW,292,2.0,4.3,34,0.00,,---,0.00,VWS V14.01,2013-09-07 21:55:00,
2013-09-07 17:56:00,65.3,36.2,28.91,WNW,292,3.8,3.8,34,0.00,,---,0.00,VWS V14.01,2013-09-07 21:56:00,
2013-09-07 17:57:00,64.6,36.3,28.91,WNW,292,4.3,4.3,35,0.00,,---,0.00,VWS V14.01,2013-09-07 21:57:00,
2013-09-07 17:58:00,64.6,36.3,28.91,WNW,292,2.9,4.3,35,0.00,,---,0.00,VWS V14.01,2013-09-07 21:58:00,
2013-09-07 17:59:00,64.2,36.7,28.91,WNW,292,4.0,4.0,36,0.00,,---,0.00,VWS V14.01,2013-09-07 21:59:00,
2013-09-07 18:00:00,64.2,36.7,28.91,WNW,292,3.8,4.0,36,0.00,,---,0.00,VWS V14.01,2013-09-07 22:00:00,
2013-09-07 18:01:00,63.9,37.1,28.91,West,270,3.1,3.1,37,0.00,,---,0.00,VWS V14.01,2013-09-07 22:01:00,
2013-09-07 18:02:00,63.7,37.0,28.91,West,270,3.1,3.1,37,0.00,,---,0.00,VWS V14.01,2013-09-07 22:02:00,
2013-09-07 18:03:00,63.7,37.0,28.91,WNW,292,4.7,4.7,37,0.00,,---,0.00,VWS V14.01,2013-09-07 22:03:00,
2013-09-07 18:04:00,63.7,37.0,28.91,WNW,292,4.9,4.9,37,0.00,,---,0.00,VWS V14.01,2013-09-07 22:04:00,
2013-09-07 18:05:00,63.7,37.0,28.91,WNW,292,3.6,4.9,37,0.00,,---,0.00,VWS V14.01,2013-09-07 22:05:00,
2013-09-07 18:06:00,63.7,37.0,28.91,WNW,292,3.1,3.1,37,0.00,,---,0.00,VWS V14.01,2013-09-07 22:06:00,
2013-09-07 18:07:00,63.7,37.0,28.91,WNW,292,2.9,3.1,37,0.00,,---,0.00,VWS V14.01,2013-09-07 22:07:00,
2013-09-07 18:08:00,63.5,37.5,28.91,West,270,3.8,3.8,38,0.00,,---,0.00,VWS V14.01,2013-09-07 22:08:00,
2013-09-07 18:09:00,63.5,37.5,28.91,West,270,2.9,3.8,38,0.00,,---,0.00,VWS V14.01,2013-09-07 22:09:00,
2013-09-07 18:10:00,63.5,37.5,28.91,WSW,248,3.4,3.4,38,0.00,,---,0.00,VWS V14.01,2013-09-07 22:10:00,
2013-09-07 18:11:00,63.5,37.5,28.91,West,270,2.7,3.4,38,0.00,,---,0.00,VWS V14.01,2013-09-07 22:11:00,
2013-09-07 18:12:00,63.5,37.5,28.91,West,270,2.5,2.7,38,0.00,,---,0.00,VWS V14.01,2013-09-07 22:12:00,
2013-09-07 18:13:00,63.5,37.5,28.91,West,270,2.0,2.5,38,0.00,,---,0.00,VWS V14.01,2013-09-07 22:13:00,
2013-09-07 18:14:00,63.5,37.5,28.91,West,270,3.4,3.4,38,0.00,,---,0.00,VWS V14.01,2013-09-07 22:14:00,
2013-09-07 18:15:00,63.5,37.5,28.91,WNW,292,3.1,3.4,38,0.00,,---,0.00,VWS V14.01,2013-09-07 22:15:00,
2013-09-07 18:16:00,63.7,37.0,28.91,WSW,248,3.1,3.1,37,0.00,,---,0.00,VWS V14.01,2013-09-07 22:16:00,
2013-09-07 18:17:00,63.7,37.0,28.91,WSW,248,3.1,3.1,37,0.00,,---,0.00,VWS V14.01,2013-09-07 22:17:00,
2013-09-07 18:18:00,63.5,36.8,28.91,West,270,2.5,3.1,37,0.00,,---,0.00,VWS V14.01,2013-09-07 22:18:00,
2013-09-07 18:19:00,63.5,36.8,28.91,West,270,2.7,2.7,37,0.00,,---,0.00,VWS V14.01,2013-09-07 22:19:00,
2013-09-07 18:20:00,63.5,36.8,28.91,West,270,3.1,3.1,37,0.00,,---,0.00,VWS V14.01,2013-09-07 22:20:00,
2013-09-07 18:21:00,63.5,36.8,28.91,SSW,202,2.0,2.0,37,0.00,,---,0.00,VWS V14.01,2013-09-07 22:21:00,
2013-09-07 18:22:00,63.5,36.8,28.91,WSW,248,1.6,2.0,37,0.00,,---,0.00,VWS V14.01,2013-09-07 22:22:00,
2013-09-07 18:23:00,63.5,36.8,28.91,WSW,248,0.0,1.6,37,0.00,,---,0.00,VWS V14.01,2013-09-07 22:23:00,
2013-09-07 18:24:00,63.5,36.8,28.91,WSW,248,0.0,0.0,37,0.00,,---,0.00,VWS V14.01,2013-09-07 22:24:00,
2013-09-07 18:25:00,63.0,38.9,28.91,WSW,248,0.0,0.0,41,0.00,,---,0.00,VWS V14.01,2013-09-07 22:25:00,
2013-09-07 18:26:00,63.0,38.9,28.91,NW,315,0.0,0.0,41,0.00,,---,0.00,VWS V14.01,2013-09-07 22:26:00,
2013-09-07 18:27:00,63.0,38.9,28.91,NW,315,0.0,0.0,41,0.00,,---,0.00,VWS V14.01,2013-09-07 22:27:00,
2013-09-07 18:28:00,63.0,38.9,28.91,ENE,68,0.0,0.0,41,0.00,,---,0.00,VWS V14.01,2013-09-07 22:28:00,
2013-09-07 18:29:00,63.0,38.9,28.91,NE,45,2.0,2.0,41,0.00,,---,0.00,VWS V14.01,2013-09-07 22:29:00,
2013-09-07 18:30:00,63.0,38.9,28.91,NE,45,2.0,2.0,41,0.00,,---,0.00,VWS V14.01,2013-09-07 22:30:00,
2013-09-07 18:31:00,62.6,39.8,28.91,NNE,22,0.0,0.0,43,0.00,,---,0.00,VWS V14.01,2013-09-07 22:31:00,
2013-09-07 18:32:00,62.6,39.8,28.91,NNE,22,0.0,0.0,43,0.00,,---,0.00,VWS V14.01,2013-09-07 22:32:00,
2013-09-07 18:33:00,62.2,40.7,28.91,NNE,22,0.0,0.0,45,0.00,,---,0.00,VWS V14.01,2013-09-07 22:33:00,
2013-09-07 18:34:00,62.2,40.7,28.91,NNE,22,0.0,0.0,45,0.00,,---,0.00,VWS V14.01,2013-09-07 22:34:00,
2013-09-07 18:35:00,62.2,40.7,28.91,NNE,22,1.3,1.3,45,0.00,,---,0.00,VWS V14.01,2013-09-07 22:35:00,
2013-09-07 18:36:00,62.2,41.8,28.91,NNE,22,0.0,0.0,47,0.00,,---,0.00,VWS V14.01,2013-09-07 22:36:00,
2013-09-07 18:37:00,62.2,41.8,28.91,NNE,22,0.0,0.0,47,0.00,,---,0.00,VWS V14.01,2013-09-07 22:37:00,
2013-09-07 18:38:00,62.1,40.5,28.91,NNE,22,0.0,0.0,45,0.00,,---,0.00,VWS V14.01,2013-09-07 22:38:00,
2013-09-07 18:39:00,62.1,40.5,28.91,NNE,22,0.0,0.0,45,0.00,,---,0.00,VWS V14.01,2013-09-07 22:39:00,
2013-09-07 18:40:00,62.1,40.5,28.91,NNE,22,0.0,0.0,45,0.00,,---,0.00,VWS V14.01,2013-09-07 22:40:00,
2013-09-07 18:41:00,62.1,40.5,28.91,NW,315,2.0,2.0,45,0.00,,---,0.00,VWS V14.01,2013-09-07 22:41:00,
2013-09-07 18:42:00,62.1,40.5,28.91,NW,315,2.0,2.0,45,0.00,,---,0.00,VWS V14.01,2013-09-07 22:42:00,
2013-09-07 18:43:00,62.1,40.5,28.91,NW,315,2.0,2.0,45,0.00,,---,0.00,VWS V14.01,2013-09-07 22:43:00,
2013-09-07 18:44:00,62.1,40.5,28.91,NW,315,2.0,2.0,45,0.00,,---,0.00,VWS V14.01,2013-09-07 22:44:00,
2013-09-07 18:45:00,61.9,40.9,28.91,NW,315,1.6,2.0,46,0.00,,---,0.00,VWS V14.01,2013-09-07 22:45:00,
2013-09-07 18:46:00,61.9,40.9,28.91,WNW,292,2.2,2.2,46,0.00,,---,0.00,VWS V14.01,2013-09-07 22:46:00,
2013-09-07 18:47:00,61.9,40.9,28.91,WNW,292,2.2,2.2,46,0.00,,---,0.00,VWS V14.01,2013-09-07 22:47:00,
2013-09-07 18:48:00,61.9,40.9,28.91,WNW,292,0.0,2.2,46,0.00,,---,0.00,VWS V14.01,2013-09-07 22:48:00,
2013-09-07 18:49:00,61.9,40.9,28.91,WNW,292,0.0,0.0,46,0.00,,---,0.00,VWS V14.01,2013-09-07 22:49:00,
2013-09-07 18:50:00,61.9,40.9,28.91,WNW,292,0.0,0.0,46,0.00,,---,0.00,VWS V14.01,2013-09-07 22:50:00,
2013-09-07 18:51:00,61.7,40.7,28.91,WNW,292,0.0,0.0,46,0.00,,---,0.00,VWS V14.01,2013-09-07 22:51:00,
2013-09-07 18:52:00,61.7,40.7,28.91,WNW,292,0.0,0.0,46,0.00,,---,0.00,VWS V14.01,2013-09-07 22:52:00,
2013-09-07 18:53:00,61.7,40.7,28.91,WNW,292,0.0,0.0,46,0.00,,---,0.00,VWS V14.01,2013-09-07 22:53:00,
2013-09-07 18:54:00,61.7,40.7,28.91,WNW,292,0.0,0.0,46,0.00,,---,0.00,VWS V14.01,2013-09-07 22:54:00,
2013-09-07 18:55:00,61.7,40.7,28.91,WNW,292,0.0,0.0,46,0.00,,---,0.00,VWS V14.01,2013-09-07 22:55:00,
2013-09-07 18:56:00,61.7,40.7,28.91,WNW,292,0.0,0.0,46,0.00,,---,0.00,VWS V14.01,2013-09-07 22:56:00,
2013-09-07 18:57:00,61.7,40.7,28.91,WNW,292,0.0,0.0,46,0.00,,---,0.00,VWS V14.01,2013-09-07 22:57:00,
2013-09-07 18:58:00,61.7,40.7,28.91,WNW,292,0.0,0.0,46,0.00,,---,0.00,VWS V14.01,2013-09-07 22:58:00,
2013-09-07 18:59:00,61.7,40.7,28.91,WNW,292,0.0,0.0,46,0.00,,---,0.00,VWS V14.01,2013-09-07 22:59:00,
2013-09-07 19:00:00,61.7,40.7,28.91,WNW,292,0.0,0.0,46,0.00,,---,0.00,VWS V14.01,2013-09-07 23:00:00,
2013-09-07 19:01:00,61.7,40.7,28.91,WNW,292,0.0,0.0,46,0.00,,---,0.00,VWS V14.01,2013-09-07 23:01:00,
2013-09-07 19:02:00,61.7,40.7,28.91,WNW,292,0.0,0.0,46,0.00,,---,0.00,VWS V14.01,2013-09-07 23:02:00,
2013-09-07 19:03:00,61.5,40.6,28.91,WNW,292,0.0,0.0,46,0.00,,---,0.00,VWS V14.01,2013-09-07 23:03:00,
2013-09-07 19:04:00,61.7,40.7,28.91,WNW,292,0.0,0.0,46,0.00,,---,0.00,VWS V14.01,2013-09-07 23:04:00,
2013-09-07 19:05:00,61.7,40.7,28.91,WNW,292,0.0,0.0,46,0.00,,---,0.00,VWS V14.01,2013-09-07 23:05:00,
2013-09-07 19:06:00,61.5,40.6,28.91,WNW,292,0.0,0.0,46,0.00,,---,0.00,VWS V14.01,2013-09-07 23:06:00,
2013-09-07 19:07:00,61.5,40.6,28.91,WNW,292,0.0,0.0,46,0.00,,---,0.00,VWS V14.01,2013-09-07 23:07:00,
2013-09-07 19:08:00,61.5,40.6,28.91,WNW,292,0.0,0.0,46,0.00,,---,0.00,VWS V14.01,2013-09-07 23:08:00,
2013-09-07 19:09:00,61.5,40.6,28.91,WNW,292,0.0,0.0,46,0.00,,---,0.00,VWS V14.01,2013-09-07 23:09:00,
2013-09-07 19:10:00,61.5,41.7,28.91,WNW,292,0.0,0.0,48,0.00,,---,0.00,VWS V14.01,2013-09-07 23:10:00,
2013-09-07 19:11:00,61.3,41.5,28.91,WNW,292,0.0,0.0,48,0.00,,---,0.00,VWS V14.01,2013-09-07 23:11:00,
2013-09-07 19:12:00,61.3,41.5,28.91,WNW,292,0.0,0.0,48,0.00,,---,0.00,VWS V14.01,2013-09-07 23:12:00,
2013-09-07 19:13:00,61.3,41.5,28.91,WNW,292,0.0,0.0,48,0.00,,---,0.00,VWS V14.01,2013-09-07 23:13:00,
2013-09-07 19:14:00,61.3,41.5,28.91,ESE,112,1.3,1.3,48,0.00,,---,0.00,VWS V14.01,2013-09-07 23:14:00,
2013-09-07 19:15:00,61.3,41.5,28.91,ESE,112,2.2,2.2,48,0.00,,---,0.00,VWS V14.01,2013-09-07 23:15:00,
2013-09-07 19:16:00,61.2,41.9,28.91,ENE,68,0.0,2.2,49,0.00,,---,0.00,VWS V14.01,2013-09-07 23:16:00,
2013-09-07 19:17:00,61.2,41.9,28.91,ENE,68,0.0,2.2,49,0.00,,---,0.00,VWS V14.01,2013-09-07 23:17:00,
2013-09-07 19:18:00,61.2,42.4,28.91,ENE,68,0.0,0.0,50,0.00,,---,0.00,VWS V14.01,2013-09-07 23:18:00,
2013-09-07 19:19:00,61.2,42.4,28.91,ENE,68,0.0,0.0,50,0.00,,---,0.00,VWS V14.01,2013-09-07 23:19:00,
2013-09-07 19:20:00,61.0,42.2,28.91,ENE,68,0.0,0.0,50,0.00,,---,0.00,VWS V14.01,2013-09-07 23:20:00,
2013-09-07 19:21:00,61.0,42.2,28.91,ENE,68,2.0,2.0,50,0.00,,---,0.00,VWS V14.01,2013-09-07 23:21:00,
2013-09-07 19:22:00,61.0,42.7,28.91,East,90,2.0,2.0,51,0.00,,---,0.00,VWS V14.01,2013-09-07 23:22:00,
2013-09-07 19:23:00,61.0,42.7,28.91,East,90,0.0,2.0,51,0.00,,---,0.00,VWS V14.01,2013-09-07 23:23:00,
2013-09-07 19:24:00,61.0,42.2,28.91,East,90,0.0,0.0,50,0.00,,---,0.00,VWS V14.01,2013-09-07 23:24:00,
2013-09-07 19:25:00,61.0,42.2,28.91,East,90,0.0,0.0,50,0.00,,---,0.00,VWS V14.01,2013-09-07 23:25:00,
2013-09-07 19:26:00,61.0,42.7,28.91,East,90,0.0,0.0,51,0.00,,---,0.00,VWS V14.01,2013-09-07 23:26:00,
2013-09-07 19:27:00,61.0,42.7,28.91,East,90,0.0,0.0,51,0.00,,---,0.00,VWS V14.01,2013-09-07 23:27:00,
2013-09-07 19:28:00,61.0,42.7,28.91,East,90,0.0,0.0,51,0.00,,---,0.00,VWS V14.01,2013-09-07 23:28:00,
2013-09-07 19:29:00,61.0,42.2,28.91,East,90,0.0,0.0,50,0.00,,---,0.00,VWS V14.01,2013-09-07 23:29:00,
2013-09-07 19:30:00,61.0,42.2,28.91,East,90,0.0,0.0,50,0.00,,---,0.00,VWS V14.01,2013-09-07 23:30:00,
2013-09-07 19:31:00,61.0,41.7,28.91,East,90,0.0,0.0,49,0.00,,---,0.00,VWS V14.01,2013-09-07 23:31:00,
2013-09-07 19:32:00,61.0,41.7,28.91,East,90,0.0,0.0,49,0.00,,---,0.00,VWS V14.01,2013-09-07 23:32:00,
2013-09-07 19:33:00,61.0,41.7,28.91,East,90,0.0,0.0,49,0.00,,---,0.00,VWS V14.01,2013-09-07 23:33:00,
2013-09-07 19:34:00,61.0,42.7,28.91,East,90,0.0,0.0,51,0.00,,---,0.00,VWS V14.01,2013-09-07 23:34:00,
2013-09-07 19:35:00,61.0,42.7,28.91,ENE,68,0.9,0.9,51,0.00,,---,0.00,VWS V14.01,2013-09-07 23:35:00,
2013-09-07 19:36:00,60.8,42.6,28.91,ENE,68,1.6,1.6,51,0.00,,---,0.00,VWS V14.01,2013-09-07 23:36:00,
2013-09-07 19:37:00,60.8,42.6,28.91,ENE,68,2.0,2.0,51,0.00,,---,0.00,VWS V14.01,2013-09-07 23:37:00,
2013-09-07 19:38:00,60.8,42.6,28.91,ENE,68,1.6,2.0,51,0.00,,---,0.00,VWS V14.01,2013-09-07 23:38:00,
2013-09-07 19:39:00,60.8,42.6,28.91,ENE,68,0.0,1.6,51,0.00,,---,0.00,VWS V14.01,2013-09-07 23:39:00,
2013-09-07 19:40:00,60.8,42.6,28.91,ENE,68,0.0,0.0,51,0.00,,---,0.00,VWS V14.01,2013-09-07 23:40:00,
2013-09-07 19:41:00,60.8,42.1,28.91,ENE,68,0.0,0.0,50,0.00,,---,0.00,VWS V14.01,2013-09-07 23:41:00,
2013-09-07 19:42:00,60.8,42.1,28.91,ENE,68,0.0,0.0,50,0.00,,---,0.00,VWS V14.01,2013-09-07 23:42:00,
2013-09-07 19:43:00,60.8,42.1,28.91,ENE,68,0.0,0.0,50,0.00,,---,0.00,VWS V14.01,2013-09-07 23:43:00,
2013-09-07 19:44:00,60.8,42.1,28.91,ENE,68,0.0,0.0,50,0.00,,---,0.00,VWS V14.01,2013-09-07 23:44:00,
2013-09-07 19:45:00,60.8,41.5,28.91,ENE,68,0.0,0.0,49,0.00,,---,0.00,VWS V14.01,2013-09-07 23:45:00,
2013-09-07 19:46:00,60.8,42.6,28.91,ENE,68,0.0,0.0,51,0.00,,---,0.00,VWS V14.01,2013-09-07 23:46:00,
2013-09-07 19:47:00,60.8,42.6,28.91,ENE,68,0.0,0.0,51,0.00,,---,0.00,VWS V14.01,2013-09-07 23:47:00,
2013-09-07 19:48:00,60.6,42.4,28.91,ENE,68,0.0,0.0,51,0.00,,---,0.00,VWS V14.01,2013-09-07 23:48:00,
2013-09-07 19:49:00,60.6,42.4,28.91,ENE,68,0.0,0.0,51,0.00,,---,0.00,VWS V14.01,2013-09-07 23:49:00,
2013-09-07 19:50:00,60.6,42.9,28.91,ENE,68,0.0,0.0,52,0.00,,---,0.00,VWS V14.01,2013-09-07 23:50:00,
2013-09-07 19:51:00,60.6,42.9,28.91,ENE,68,0.0,0.0,52,0.00,,---,0.00,VWS V14.01,2013-09-07 23:51:00,
2013-09-07 19:52:00,60.6,42.4,28.91,ENE,68,0.0,0.0,51,0.00,,---,0.00,VWS V14.01,2013-09-07 23:52:00,
2013-09-07 19:53:00,60.6,42.4,28.91,ENE,68,0.0,0.0,51,0.00,,---,0.00,VWS V14.01,2013-09-07 23:53:00,
2013-09-07 19:54:00,60.6,43.4,28.91,ENE,68,0.0,0.0,53,0.00,,---,0.00,VWS V14.01,2013-09-07 23:54:00,
2013-09-07 19:55:00,60.6,43.4,28.91,ENE,68,0.0,0.0,53,0.00,,---,0.00,VWS V14.01,2013-09-07 23:55:00,
2013-09-07 19:56:00,60.6,43.9,28.91,ENE,68,0.0,0.0,54,0.00,,---,0.00,VWS V14.01,2013-09-07 23:56:00,
2013-09-07 19:57:00,60.6,43.9,28.91,ENE,68,0.0,0.0,54,0.00,,---,0.00,VWS V14.01,2013-09-07 23:57:00,
2013-09-07 19:58:00,60.6,43.9,28.91,ENE,68,0.0,0.0,54,0.00,,---,0.00,VWS V14.01,2013-09-07 23:58:00,
2013-09-07 19:59:00,60.4,43.2,28.91,ENE,68,0.0,0.0,53,0.00,,---,0.00,VWS V14.01,2013-09-07 23:59:00,
2013-09-07 20:00:00,60.4,43.2,28.91,ENE,68,0.0,0.0,53,0.00,,---,0.00,VWS V14.01,2013-09-08 00:00:00,
2013-09-07 20:01:00,60.4,43.7,28.91,ENE,68,0.0,0.0,54,0.00,,---,0.00,VWS V14.01,2013-09-08 00:01:00,
2013-09-07 20:02:00,60.4,43.7,28.91,ENE,68,0.0,0.0,54,0.00,,---,0.00,VWS V14.01,2013-09-08 00:02:00,
2013-09-07 20:03:00,60.4,43.7,28.91,ENE,68,0.0,0.0,54,0.00,,---,0.00,VWS V14.01,2013-09-08 00:03:00,
2013-09-07 20:04:00,60.4,42.8,28.91,ENE,68,0.0,0.0,52,0.00,,---,0.00,VWS V14.01,2013-09-08 00:04:00,
2013-09-07 20:05:00,60.4,42.8,28.91,ENE,68,0.0,0.0,52,0.00,,---,0.00,VWS V14.01,2013-09-08 00:05:00,
2013-09-07 20:06:00,60.4,42.8,28.91,ENE,68,0.0,0.0,52,0.00,,---,0.00,VWS V14.01,2013-09-08 00:06:00,
2013-09-07 20:07:00,60.4,42.8,28.91,ENE,68,0.0,0.0,52,0.00,,---,0.00,VWS V14.01,2013-09-08 00:07:00,
2013-09-07 20:08:00,60.4,42.8,28.91,ENE,68,0.0,0.0,52,0.00,,---,0.00,VWS V14.01,2013-09-08 00:08:00,
2013-09-07 20:09:00,60.4,42.8,28.91,ENE,68,0.0,0.0,52,0.00,,---,0.00,VWS V14.01,2013-09-08 00:09:00,
2013-09-07 20:10:00,60.4,42.8,28.91,ENE,68,0.0,0.0,52,0.00,,---,0.00,VWS V14.01,2013-09-08 00:10:00,
2013-09-07 20:11:00,60.4,42.8,28.91,ENE,68,0.0,0.0,52,0.00,,---,0.00,VWS V14.01,2013-09-08 00:11:00,
2013-09-07 20:12:00,60.4,42.8,28.91,ENE,68,0.0,0.0,52,0.00,,---,0.00,VWS V14.01,2013-09-08 00:12:00,
2013-09-07 20:13:00,60.4,42.8,28.91,WNW,292,0.0,0.0,52,0.00,,---,0.00,VWS V14.01,2013-09-08 00:13:00,
2013-09-07 20:14:00,60.4,42.8,28.91,WNW,292,0.0,0.0,52,0.00,,---,0.00,VWS V14.01,2013-09-08 00:14:00,
2013-09-07 20:15:00,60.4,42.8,28.91,WNW,292,0.0,0.0,52,0.00,,---,0.00,VWS V14.01,2013-09-08 00:15:00,
2013-09-07 20:16:00,60.4,42.8,28.91,WNW,292,0.0,0.0,52,0.00,,---,0.00,VWS V14.01,2013-09-08 00:16:00,
2013-09-07 20:17:00,60.3,43.1,28.91,WNW,292,0.0,0.0,53,0.00,,---,0.00,VWS V14.01,2013-09-08 00:17:00,
2013-09-07 20:18:00,60.3,43.1,28.91,WNW,292,0.0,0.0,53,0.00,,---,0.00,VWS V14.01,2013-09-08 00:18:00,
2013-09-07 20:19:00,60.3,43.6,28.91,West,270,0.9,0.9,54,0.00,,---,0.00,VWS V14.01,2013-09-08 00:19:00,
2013-09-07 20:20:00,60.3,43.6,28.91,West,270,1.6,1.6,54,0.00,,---,0.00,VWS V14.01,2013-09-08 00:20:00,
2013-09-07 20:21:00,60.3,43.6,28.91,WNW,292,0.0,1.6,54,0.00,,---,0.00,VWS V14.01,2013-09-08 00:21:00,
2013-09-07 20:22:00,60.3,43.6,28.91,West,270,0.0,0.0,54,0.00,,---,0.00,VWS V14.01,2013-09-08 00:22:00,
2013-09-07 20:23:00,60.3,43.6,28.91,West,270,0.0,0.0,54,0.00,,---,0.00,VWS V14.01,2013-09-08 00:23:00,
2013-09-07 20:24:00,60.3,43.6,28.91,West,270,0.0,0.0,54,0.00,,---,0.00,VWS V14.01,2013-09-08 00:24:00,
2013-09-07 20:25:00,60.3,43.6,28.91,ESE,112,0.0,0.0,54,0.00,,---,0.00,VWS V14.01,2013-09-08 00:25:00,
2013-09-07 20:26:00,60.3,43.6,28.91,ESE,112,0.0,0.0,54,0.00,,---,0.00,VWS V14.01,2013-09-08 00:26:00,
2013-09-07 20:27:00,60.3,43.6,28.91,NW,315,0.0,0.0,54,0.00,,---,0.00,VWS V14.01,2013-09-08 00:27:00,
2013-09-07 20:28:00,60.3,43.6,28.91,NW,315,1.1,1.1,54,0.00,,---,0.00,VWS V14.01,2013-09-08 00:28:00,
2013-09-07 20:29:00,60.3,43.1,28.91,NW,315,0.0,1.1,53,0.00,,---,0.00,VWS V14.01,2013-09-08 00:29:00,
2013-09-07 20:30:00,60.3,43.1,28.91,ESE,112,2.2,2.2,53,0.00,,---,0.00,VWS V14.01,2013-09-08 00:30:00,
2013-09-07 20:31:00,60.3,43.1,28.91,ESE,112,0.0,2.2,53,0.00,,---,0.00,VWS V14.01,2013-09-08 00:31:00,
2013-09-07 20:32:00,60.3,43.1,28.91,ESE,112,0.0,0.0,53,0.00,,---,0.00,VWS V14.01,2013-09-08 00:32:00,
2013-09-07 20:33:00,60.3,43.1,28.91,ESE,112,0.0,0.0,53,0.00,,---,0.00,VWS V14.01,2013-09-08 00:33:00,
2013-09-07 20:34:00,60.3,43.1,28.91,ESE,112,0.0,0.0,53,0.00,,---,0.00,VWS V14.01,2013-09-08 00:34:00,
2013-09-07 20:35:00,60.3,43.1,28.91,NE,45,0.0,0.0,53,0.00,,---,0.00,VWS V14.01,2013-09-08 00:35:00,
2013-09-07 20:36:00,60.3,43.1,28.91,NNW,338,2.5,2.5,53,0.00,,---,0.00,VWS V14.01,2013-09-08 00:36:00,
2013-09-07 20:37:00,60.3,43.1,28.91,NW,315,1.6,2.5,53,0.00,,---,0.00,VWS V14.01,2013-09-08 00:37:00,
2013-09-07 20:38:00,60.3,43.6,28.91,NW,315,0.0,1.6,54,0.00,,---,0.00,VWS V14.01,2013-09-08 00:38:00,
2013-09-07 20:39:00,60.3,43.6,28.91,ENE,68,0.0,0.0,54,0.00,,---,0.00,VWS V14.01,2013-09-08 00:39:00,
2013-09-07 20:40:00,60.1,43.4,28.91,ENE,68,0.0,0.0,54,0.00,,---,0.00,VWS V14.01,2013-09-08 00:40:00,
2013-09-07 20:41:00,60.1,43.9,28.91,WNW,292,1.1,1.1,55,0.00,,---,0.00,VWS V14.01,2013-09-08 00:41:00,
2013-09-07 20:42:00,60.1,43.9,28.91,WNW,292,0.0,1.1,55,0.00,,---,0.00,VWS V14.01,2013-09-08 00:42:00,
2013-09-07 20:43:00,60.1,43.9,28.91,WNW,292,0.0,0.0,55,0.00,,---,0.00,VWS V14.01,2013-09-08 00:43:00,
2013-09-07 20:44:00,60.1,43.9,28.91,WNW,292,0.0,0.0,55,0.00,,---,0.00,VWS V14.01,2013-09-08 00:44:00,
2013-09-07 20:45:00,60.1,43.9,28.91,WNW,292,0.0,0.0,55,0.00,,---,0.00,VWS V14.01,2013-09-08 00:45:00,
2013-09-07 20:46:00,60.1,43.9,28.91,WNW,292,0.0,0.0,55,0.00,,---,0.00,VWS V14.01,2013-09-08 00:46:00,
2013-09-07 20:47:00,60.1,43.4,28.91,NE,45,1.6,1.6,54,0.00,,---,0.00,VWS V14.01,2013-09-08 00:47:00,
2013-09-07 20:48:00,60.1,43.4,28.91,North,0,1.6,1.6,54,0.00,,---,0.00,VWS V14.01,2013-09-08 00:48:00,
2013-09-07 20:49:00,60.1,43.9,28.91,North,0,1.6,1.6,55,0.00,,---,0.00,VWS V14.01,2013-09-08 00:49:00,
2013-09-07 20:50:00,60.1,43.9,28.91,SSW,202,1.1,1.6,55,0.00,,---,0.00,VWS V14.01,2013-09-08 00:50:00,
2013-09-07 20:51:00,60.1,43.9,28.91,SSW,202,1.1,1.1,55,0.00,,---,0.00,VWS V14.01,2013-09-08 00:51:00,
2013-09-07 20:52:00,60.1,44.3,28.91,ESE,112,1.6,1.6,56,0.00,,---,0.00,VWS V14.01,2013-09-08 00:52:00,
2013-09-07 20:53:00,60.1,44.3,28.91,East,90,2.0,2.0,56,0.00,,---,0.00,VWS V14.01,2013-09-08 00:53:00,
2013-09-07 20:54:00,60.1,44.8,28.91,East,90,1.6,2.0,57,0.00,,---,0.00,VWS V14.01,2013-09-08 00:54:00,
2013-09-07 20:55:00,60.1,44.8,28.91,NNW,338,1.6,1.6,57,0.00,,---,0.00,VWS V14.01,2013-09-08 00:55:00,
2013-09-07 20:56:00,60.1,43.9,28.91,NNW,338,1.6,1.6,55,0.00,,---,0.00,VWS V14.01,2013-09-08 00:56:00,
2013-09-07 20:57:00,60.1,44.3,28.91,ENE,68,0.9,1.6,56,0.00,,---,0.00,VWS V14.01,2013-09-08 00:57:00,
2013-09-07 20:58:00,60.1,44.3,28.91,ESE,112,2.5,2.5,56,0.00,,---,0.00,VWS V14.01,2013-09-08 00:58:00,
2013-09-07 20:59:00,60.1,44.3,28.91,ENE,68,0.0,2.5,56,0.00,,---,0.00,VWS V14.01,2013-09-08 00:59:00,
2013-09-07 21:00:00,60.1,44.3,28.91,East,90,2.0,2.0,56,0.00,,---,0.00,VWS V14.01,2013-09-08 01:00:00,
2013-09-07 21:01:00,60.1,44.8,28.91,NE,45,2.2,2.2,57,0.00,,---,0.00,VWS V14.01,2013-09-08 01:01:00,
2013-09-07 21:02:00,60.1,44.8,28.91,NNE,22,1.3,2.2,57,0.00,,---,0.00,VWS V14.01,2013-09-08 01:02:00,
2013-09-07 21:03:00,60.1,44.8,28.91,NNE,22,0.9,1.3,57,0.00,,---,0.00,VWS V14.01,2013-09-08 01:03:00,
2013-09-07 21:04:00,60.1,44.3,28.91,NNE,22,0.0,0.9,56,0.00,,---,0.00,VWS V14.01,2013-09-08 01:04:00,
2013-09-07 21:05:00,60.1,44.3,28.91,NNE,22,0.0,0.0,56,0.00,,---,0.00,VWS V14.01,2013-09-08 01:05:00,
2013-09-07 21:06:00,60.1,44.3,28.91,NNE,22,0.0,0.0,56,0.00,,---,0.00,VWS V14.01,2013-09-08 01:06:00,
2013-09-07 21:07:00,60.1,44.3,28.91,NNE,22,0.0,0.0,56,0.00,,---,0.00,VWS V14.01,2013-09-08 01:07:00,
2013-09-07 21:08:00,60.1,44.3,28.91,NNE,22,0.0,0.0,56,0.00,,---,0.00,VWS V14.01,2013-09-08 01:08:00,
2013-09-07 21:09:00,60.1,44.3,28.91,NNE,22,0.0,0.0,56,0.00,,---,0.00,VWS V14.01,2013-09-08 01:09:00,
2013-09-07 21:10:00,60.1,44.3,28.91,NNE,22,0.0,0.0,56,0.00,,---,0.00,VWS V14.01,2013-09-08 01:10:00,
2013-09-07 21:11:00,60.1,44.3,28.91,ENE,68,0.0,0.0,56,0.00,,---,0.00,VWS V14.01,2013-09-08 01:11:00,
2013-09-07 21:12:00,60.1,44.3,28.91,ESE,112,2.0,2.0,56,0.00,,---,0.00,VWS V14.01,2013-09-08 01:12:00,
2013-09-07 21:13:00,60.1,44.3,28.88,ESE,112,0.0,2.0,56,0.00,,---,0.00,VWS V14.01,2013-09-08 01:13:00,
2013-09-07 21:14:00,60.1,44.3,28.88,ESE,112,0.0,0.0,56,0.00,,---,0.00,VWS V14.01,2013-09-08 01:14:00,
2013-09-07 21:15:00,60.1,43.9,28.88,NE,45,0.0,0.0,55,0.00,,---,0.00,VWS V14.01,2013-09-08 01:15:00,
2013-09-07 21:16:00,60.1,43.9,28.88,NNE,22,0.0,0.0,55,0.00,,---,0.00,VWS V14.01,2013-09-08 01:16:00,
2013-09-07 21:17:00,60.1,44.3,28.88,NNE,22,0.0,0.0,56,0.00,,---,0.00,VWS V14.01,2013-09-08 01:17:00,
2013-09-07 21:18:00,60.1,44.3,28.88,NNE,22,0.0,0.0,56,0.00,,---,0.00,VWS V14.01,2013-09-08 01:18:00,
2013-09-07 21:19:00,59.9,44.2,28.88,NNE,22,0.0,0.0,56,0.00,,---,0.00,VWS V14.01,2013-09-08 01:19:00,
2013-09-07 21:20:00,60.1,44.3,28.88,NNE,22,0.0,0.0,56,0.00,,---,0.00,VWS V14.01,2013-09-08 01:20:00,
2013-09-07 21:21:00,60.1,44.3,28.88,NNE,22,0.0,0.0,56,0.00,,---,0.00,VWS V14.01,2013-09-08 01:21:00,
2013-09-07 21:22:00,59.9,44.2,28.88,NNE,22,0.0,0.0,56,0.00,,---,0.00,VWS V14.01,2013-09-08 01:22:00,
2013-09-07 21:23:00,59.9,44.2,28.88,NNE,22,0.0,0.0,56,0.00,,---,0.00,VWS V14.01,2013-09-08 01:23:00,
2013-09-07 21:24:00,59.9,44.2,28.88,NNE,22,0.0,0.0,56,0.00,,---,0.00,VWS V14.01,2013-09-08 01:24:00,
2013-09-07 21:25:00,59.9,44.2,28.88,NNE,22,0.0,0.0,56,0.00,,---,0.00,VWS V14.01,2013-09-08 01:25:00,
2013-09-07 21:26:00,59.9,44.2,28.88,NNE,22,0.0,0.0,56,0.00,,---,0.00,VWS V14.01,2013-09-08 01:26:00,
2013-09-07 21:27:00,59.9,44.2,28.88,NNE,22,0.0,0.0,56,0.00,,---,0.00,VWS V14.01,2013-09-08 01:27:00,
2013-09-07 21:28:00,59.9,44.2,28.88,NNE,22,0.0,0.0,56,0.00,,---,0.00,VWS V14.01,2013-09-08 01:28:00,
2013-09-07 21:29:00,59.9,44.2,28.88,NNE,22,0.0,0.0,56,0.00,,---,0.00,VWS V14.01,2013-09-08 01:29:00,
2013-09-07 21:30:00,59.9,44.2,28.88,NNE,22,0.0,0.0,56,0.00,,---,0.00,VWS V14.01,2013-09-08 01:30:00,
2013-09-07 21:31:00,59.7,44.5,28.88,NNE,22,0.0,0.0,57,0.00,,---,0.00,VWS V14.01,2013-09-08 01:31:00,
2013-09-07 21:32:00,59.7,44.5,28.88,ENE,68,0.0,0.0,57,0.00,,---,0.00,VWS V14.01,2013-09-08 01:32:00,
2013-09-07 21:33:00,59.7,44.0,28.88,ENE,68,0.0,0.0,56,0.00,,---,0.00,VWS V14.01,2013-09-08 01:33:00,
2013-09-07 21:34:00,59.7,44.0,28.88,ENE,68,0.0,0.0,56,0.00,,---,0.00,VWS V14.01,2013-09-08 01:34:00,
2013-09-07 21:35:00,59.7,44.0,28.88,ENE,68,0.0,0.0,56,0.00,,---,0.00,VWS V14.01,2013-09-08 01:35:00,
2013-09-07 21:36:00,59.7,44.0,28.88,ENE,68,0.0,0.0,56,0.00,,---,0.00,VWS V14.01,2013-09-08 01:36:00,
2013-09-07 21:37:00,59.7,44.0,28.88,ENE,68,0.0,0.0,56,0.00,,---,0.00,VWS V14.01,2013-09-08 01:37:00,
2013-09-07 21:38:00,59.5,44.3,28.88,ESE,112,2.0,2.0,57,0.00,,---,0.00,VWS V14.01,2013-09-08 01:38:00,
2013-09-07 21:39:00,59.5,44.3,28.88,ESE,112,1.1,2.0,57,0.00,,---,0.00,VWS V14.01,2013-09-08 01:39:00,
2013-09-07 21:40:00,59.5,44.3,28.88,ESE,112,0.0,1.1,57,0.00,,---,0.00,VWS V14.01,2013-09-08 01:40:00,
2013-09-07 21:41:00,59.5,44.3,28.88,East,90,0.0,0.0,57,0.00,,---,0.00,VWS V14.01,2013-09-08 01:41:00,
2013-09-07 21:42:00,59.4,44.6,28.88,East,90,2.0,2.0,58,0.00,,---,0.00,VWS V14.01,2013-09-08 01:42:00,
2013-09-07 21:43:00,59.4,44.6,28.88,East,90,2.0,2.0,58,0.00,,---,0.00,VWS V14.01,2013-09-08 01:43:00,
2013-09-07 21:44:00,59.4,44.6,28.88,East,90,2.0,2.0,58,0.00,,---,0.00,VWS V14.01,2013-09-08 01:44:00,
2013-09-07 21:45:00,59.4,44.6,28.88,ESE,112,2.0,2.0,58,0.00,,---,0.00,VWS V14.01,2013-09-08 01:45:00,
2013-09-07 21:46:00,59.4,44.6,28.88,ENE,68,0.9,2.0,58,0.00,,---,0.00,VWS V14.01,2013-09-08 01:46:00,
2013-09-07 21:47:00,59.4,45.0,28.88,ENE,68,0.0,0.9,59,0.00,,---,0.00,VWS V14.01,2013-09-08 01:47:00,
2013-09-07 21:48:00,59.4,45.0,28.88,ENE,68,2.0,2.0,59,0.00,,---,0.00,VWS V14.01,2013-09-08 01:48:00,
2013-09-07 21:49:00,59.5,45.2,28.88,ENE,68,2.0,2.0,59,0.00,,---,0.00,VWS V14.01,2013-09-08 01:49:00,
2013-09-07 21:50:00,59.5,45.7,28.88,ENE,68,0.9,2.0,60,0.00,,---,0.00,VWS V14.01,2013-09-08 01:50:00,
2013-09-07 21:51:00,59.5,45.7,28.88,ENE,68,0.0,0.9,60,0.00,,---,0.00,VWS V14.01,2013-09-08 01:51:00,
2013-09-07 21:52:00,59.5,44.8,28.88,NNE,22,1.3,1.3,58,0.00,,---,0.00,VWS V14.01,2013-09-08 01:52:00,
2013-09-07 21:53:00,59.5,44.8,28.88,NNE,22,0.9,1.3,58,0.00,,---,0.00,VWS V14.01,2013-09-08 01:53:00,
2013-09-07 21:54:00,59.5,44.8,28.88,NNE,22,0.0,0.9,58,0.00,,---,0.00,VWS V14.01,2013-09-08 01:54:00,
2013-09-07 21:55:00,59.5,44.8,28.88,NNE,22,1.1,1.1,58,0.00,,---,0.00,VWS V14.01,2013-09-08 01:55:00,
2013-09-07 21:56:00,59.5,44.8,28.88,NNE,22,0.0,1.1,58,0.00,,---,0.00,VWS V14.01,2013-09-08 01:56:00,
2013-09-07 21:57:00,59.5,44.8,28.88,NNE,22,0.0,0.0,58,0.00,,---,0.00,VWS V14.01,2013-09-08 01:57:00,
2013-09-07 21:58:00,59.5,44.8,28.88,NNE,22,0.0,0.0,58,0.00,,---,0.00,VWS V14.01,2013-09-08 01:58:00,
2013-09-07 21:59:00,59.5,44.8,28.88,NNE,22,0.0,0.0,58,0.00,,---,0.00,VWS V14.01,2013-09-08 01:59:00,
2013-09-07 22:00:00,59.5,45.2,28.88,NE,45,0.0,1.6,59,0.00,,---,0.00,VWS V14.01,2013-09-08 02:00:00,
2013-09-07 22:01:00,59.5,45.2,28.88,NE,45,0.0,1.6,59,0.00,,---,0.00,VWS V14.01,2013-09-08 02:01:00,
2013-09-07 22:02:00,59.5,45.2,28.88,NE,45,0.0,0.0,59,0.00,,---,0.00,VWS V14.01,2013-09-08 02:02:00,
2013-09-07 22:03:00,59.5,45.2,28.88,NE,45,0.0,0.0,59,0.00,,---,0.00,VWS V14.01,2013-09-08 02:03:00,
2013-09-07 22:04:00,59.5,45.2,28.88,NE,45,1.3,1.3,59,0.00,,---,0.00,VWS V14.01,2013-09-08 02:04:00,
2013-09-07 22:05:00,59.4,45.0,28.88,ESE,112,0.0,2.9,59,0.00,,---,0.00,VWS V14.01,2013-09-08 02:05:00,
2013-09-07 22:06:00,59.4,45.0,28.88,ESE,112,0.0,2.9,59,0.00,,---,0.00,VWS V14.01,2013-09-08 02:06:00,
2013-09-07 22:07:00,59.4,45.0,28.88,ESE,112,0.0,0.0,59,0.00,,---,0.00,VWS V14.01,2013-09-08 02:07:00,
2013-09-07 22:08:00,59.4,45.0,28.88,ESE,112,0.0,0.0,59,0.00,,---,0.00,VWS V14.01,2013-09-08 02:08:00,
2013-09-07 22:09:00,59.4,45.0,28.88,NE,45,1.3,1.6,59,0.00,,---,0.00,VWS V14.01,2013-09-08 02:09:00,
2013-09-07 22:10:00,59.4,45.5,28.88,NE,45,0.0,1.3,60,0.00,,---,0.00,VWS V14.01,2013-09-08 02:10:00,
2013-09-07 22:11:00,59.4,45.5,28.88,NE,45,0.0,1.3,60,0.00,,---,0.00,VWS V14.01,2013-09-08 02:11:00,
2013-09-07 22:12:00,59.4,45.9,28.88,NE,45,0.0,0.0,61,0.00,,---,0.00,VWS V14.01,2013-09-08 02:12:00,
2013-09-07 22:13:00,59.4,45.0,28.88,NE,45,0.0,0.0,59,0.00,,---,0.00,VWS V14.01,2013-09-08 02:13:00,
2013-09-07 22:14:00,59.4,45.0,28.88,NE,45,0.0,0.0,59,0.00,,---,0.00,VWS V14.01,2013-09-08 02:14:00,
2013-09-07 22:15:00,59.5,45.2,28.88,East,90,2.5,2.5,59,0.00,,---,0.00,VWS V14.01,2013-09-08 02:15:00,
2013-09-07 22:16:00,59.5,45.2,28.88,East,90,2.5,2.5,59,0.00,,---,0.00,VWS V14.01,2013-09-08 02:16:00,
2013-09-07 22:17:00,59.4,45.5,28.88,NNE,22,1.3,2.5,60,0.00,,---,0.00,VWS V14.01,2013-09-08 02:17:00,
2013-09-07 22:18:00,59.4,45.5,28.88,NNE,22,1.3,1.3,60,0.00,,---,0.00,VWS V14.01,2013-09-08 02:18:00,
2013-09-07 22:19:00,59.4,45.5,28.88,NNE,22,1.3,1.3,60,0.00,,---,0.00,VWS V14.01,2013-09-08 02:19:00,
2013-09-07 22:20:00,59.5,45.2,28.88,NNE,22,1.3,1.3,59,0.00,,---,0.00,VWS V14.01,2013-09-08 02:20:00,
2013-09-07 22:21:00,59.5,45.2,28.88,NNE,22,1.3,1.3,59,0.00,,---,0.00,VWS V14.01,2013-09-08 02:21:00,
2013-09-07 22:22:00,59.5,45.2,28.88,ENE,68,1.3,1.3,59,0.00,,---,0.00,VWS V14.01,2013-09-08 02:22:00,
2013-09-07 22:23:00,59.5,45.2,28.88,East,90,2.2,2.2,59,0.00,,---,0.00,VWS V14.01,2013-09-08 02:23:00,
2013-09-07 22:24:00,59.5,44.8,28.88,East,90,2.2,2.2,58,0.00,,---,0.00,VWS V14.01,2013-09-08 02:24:00,
2013-09-07 22:25:00,59.5,45.2,28.88,East,90,2.2,2.2,59,0.00,,---,0.00,VWS V14.01,2013-09-08 02:25:00,
2013-09-07 22:26:00,59.5,45.2,28.88,East,90,2.2,2.2,59,0.00,,---,0.00,VWS V14.01,2013-09-08 02:26:00,
2013-09-07 22:27:00,59.7,44.9,28.88,East,90,2.9,2.9,58,0.00,,---,0.00,VWS V14.01,2013-09-08 02:27:00,
2013-09-07 22:28:00,59.7,44.9,28.88,ENE,68,0.9,2.9,58,0.00,,---,0.00,VWS V14.01,2013-09-08 02:28:00,
2013-09-07 22:29:00,59.7,44.9,28.88,ENE,68,2.0,2.0,58,0.00,,---,0.00,VWS V14.01,2013-09-08 02:29:00,
2013-09-07 22:30:00,59.7,44.9,28.88,NE,45,1.3,2.0,58,0.00,,---,0.00,VWS V14.01,2013-09-08 02:30:00,
2013-09-07 22:31:00,59.7,44.9,28.88,NE,45,1.3,2.0,58,0.00,,---,0.00,VWS V14.01,2013-09-08 02:31:00,
2013-09-07 22:32:00,59.7,44.9,28.88,ENE,68,2.0,2.0,58,0.00,,---,0.00,VWS V14.01,2013-09-08 02:32:00,
2013-09-07 22:33:00,59.7,44.9,28.88,ENE,68,0.9,2.0,58,0.00,,---,0.00,VWS V14.01,2013-09-08 02:33:00,
2013-09-07 22:34:00,59.7,44.9,28.88,ENE,68,0.0,0.9,58,0.00,,---,0.00,VWS V14.01,2013-09-08 02:34:00,
2013-09-07 22:35:00,59.7,44.9,28.88,ENE,68,0.0,0.0,58,0.00,,---,0.00,VWS V14.01,2013-09-08 02:35:00,
2013-09-07 22:36:00,59.7,44.9,28.88,ENE,68,0.0,0.0,58,0.00,,---,0.00,VWS V14.01,2013-09-08 02:36:00,
2013-09-07 22:37:00,59.7,44.9,28.88,ENE,68,0.0,0.0,58,0.00,,---,0.00,VWS V14.01,2013-09-08 02:37:00,
2013-09-07 22:38:00,59.7,44.9,28.88,ENE,68,1.3,1.3,58,0.00,,---,0.00,VWS V14.01,2013-09-08 02:38:00,
2013-09-07 22:39:00,59.7,44.9,28.88,ENE,68,0.9,1.3,58,0.00,,---,0.00,VWS V14.01,2013-09-08 02:39:00,
2013-09-07 22:40:00,59.7,44.9,28.88,NE,45,0.0,0.0,58,0.00,,---,0.00,VWS V14.01,2013-09-08 02:40:00,
2013-09-07 22:41:00,59.7,44.9,28.88,NE,45,0.0,0.0,58,0.00,,---,0.00,VWS V14.01,2013-09-08 02:41:00,
2013-09-07 22:42:00,59.7,44.9,28.88,NE,45,0.0,0.0,58,0.00,,---,0.00,VWS V14.01,2013-09-08 02:42:00,
2013-09-07 22:43:00,59.7,45.4,28.88,NE,45,0.0,0.0,59,0.00,,---,0.00,VWS V14.01,2013-09-08 02:43:00,
2013-09-07 22:44:00,59.7,45.4,28.88,NE,45,0.0,0.0,59,0.00,,---,0.00,VWS V14.01,2013-09-08 02:44:00,
2013-09-07 22:45:00,59.7,44.9,28.88,NE,45,0.0,0.0,58,0.00,,---,0.00,VWS V14.01,2013-09-08 02:45:00,
2013-09-07 22:46:00,59.7,44.9,28.88,NE,45,0.0,0.0,58,0.00,,---,0.00,VWS V14.01,2013-09-08 02:46:00,
2013-09-07 22:47:00,59.5,44.8,28.88,ENE,68,0.0,0.0,58,0.00,,---,0.00,VWS V14.01,2013-09-08 02:47:00,
2013-09-07 22:48:00,59.5,44.8,28.88,NNE,22,0.0,0.0,58,0.00,,---,0.00,VWS V14.01,2013-09-08 02:48:00,
2013-09-07 22:49:00,59.7,44.9,28.88,NNE,22,0.0,0.0,58,0.00,,---,0.00,VWS V14.01,2013-09-08 02:49:00,
2013-09-07 22:50:00,59.7,44.9,28.88,NNW,338,2.5,2.5,58,0.00,,---,0.00,VWS V14.01,2013-09-08 02:50:00,
2013-09-07 22:51:00,59.7,44.9,28.88,NNW,338,2.5,2.5,58,0.00,,---,0.00,VWS V14.01,2013-09-08 02:51:00,
2013-09-07 22:52:00,59.7,45.4,28.88,NNW,338,0.0,2.5,59,0.00,,---,0.00,VWS V14.01,2013-09-08 02:52:00,
2013-09-07 22:53:00,59.7,45.4,28.88,NNW,338,0.0,0.0,59,0.00,,---,0.00,VWS V14.01,2013-09-08 02:53:00,
2013-09-07 22:54:00,59.5,45.2,28.88,NNW,338,0.0,0.0,59,0.00,,---,0.00,VWS V14.01,2013-09-08 02:54:00,
2013-09-07 22:55:00,59.5,45.2,28.88,NW,315,0.0,0.0,59,0.00,,---,0.00,VWS V14.01,2013-09-08 02:55:00,
2013-09-07 22:56:00,59.5,45.2,28.88,NW,315,0.0,0.0,59,0.00,,---,0.00,VWS V14.01,2013-09-08 02:56:00,
2013-09-07 22:57:00,59.5,45.2,28.88,NW,315,0.0,0.0,59,0.00,,---,0.00,VWS V14.01,2013-09-08 02:57:00,
2013-09-07 22:58:00,59.5,45.2,28.88,NW,315,0.0,0.0,59,0.00,,---,0.00,VWS V14.01,2013-09-08 02:58:00,
2013-09-07 22:59:00,59.5,45.2,28.88,NW,315,0.0,0.0,59,0.00,,---,0.00,VWS V14.01,2013-09-08 02:59:00,
2013-09-07 23:00:00,59.4,45.5,28.88,NW,315,0.0,0.0,60,0.00,,---,0.00,VWS V14.01,2013-09-08 03:00:00,
2013-09-07 23:01:00,59.4,45.5,28.88,NW,315,0.0,0.0,60,0.00,,---,0.00,VWS V14.01,2013-09-08 03:01:00,
2013-09-07 23:02:00,59.4,45.5,28.88,ENE,68,0.0,0.0,60,0.00,,---,0.00,VWS V14.01,2013-09-08 03:02:00,
2013-09-07 23:03:00,59.4,45.0,28.88,ENE,68,0.0,0.0,59,0.00,,---,0.00,VWS V14.01,2013-09-08 03:03:00,
2013-09-07 23:04:00,59.4,45.0,28.88,ENE,68,0.0,0.0,59,0.00,,---,0.00,VWS V14.01,2013-09-08 03:04:00,
2013-09-07 23:05:00,59.4,45.5,28.88,ESE,112,0.0,0.0,60,0.00,,---,0.00,VWS V14.01,2013-09-08 03:05:00,
2013-09-07 23:06:00,59.4,45.5,28.88,East,90,0.0,0.0,60,0.00,,---,0.00,VWS V14.01,2013-09-08 03:06:00,
2013-09-07 23:07:00,59.4,45.5,28.88,East,90,0.0,0.0,60,0.00,,---,0.00,VWS V14.01,2013-09-08 03:07:00,
2013-09-07 23:08:00,59.4,45.5,28.88,ENE,68,0.0,0.0,60,0.00,,---,0.00,VWS V14.01,2013-09-08 03:08:00,
2013-09-07 23:09:00,59.4,45.5,28.88,ENE,68,0.0,0.0,60,0.00,,---,0.00,VWS V14.01,2013-09-08 03:09:00,
2013-09-07 23:10:00,59.4,45.5,28.88,ENE,68,0.0,0.0,60,0.00,,---,0.00,VWS V14.01,2013-09-08 03:10:00,
2013-09-07 23:11:00,59.4,45.5,28.88,ENE,68,0.0,0.0,60,0.00,,---,0.00,VWS V14.01,2013-09-08 03:11:00,
2013-09-07 23:12:00,59.4,45.9,28.88,ENE,68,0.0,0.0,61,0.00,,---,0.00,VWS V14.01,2013-09-08 03:12:00,
2013-09-07 23:13:00,59.4,45.9,28.88,ENE,68,0.0,0.0,61,0.00,,---,0.00,VWS V14.01,2013-09-08 03:13:00,
2013-09-07 23:14:00,59.4,45.9,28.88,ENE,68,0.0,0.0,61,0.00,,---,0.00,VWS V14.01,2013-09-08 03:14:00,
2013-09-07 23:15:00,59.4,45.5,28.88,ENE,68,0.0,0.0,60,0.00,,---,0.00,VWS V14.01,2013-09-08 03:15:00,
2013-09-07 23:16:00,59.4,45.5,28.88,ENE,68,0.0,0.0,60,0.00,,---,0.00,VWS V14.01,2013-09-08 03:16:00,
2013-09-07 23:17:00,59.4,45.5,28.88,ENE,68,0.0,0.0,60,0.00,,---,0.00,VWS V14.01,2013-09-08 03:17:00,
2013-09-07 23:18:00,59.4,45.5,28.88,ENE,68,0.0,0.0,60,0.00,,---,0.00,VWS V14.01,2013-09-08 03:18:00,
2013-09-07 23:19:00,59.4,45.5,28.88,ENE,68,0.0,0.0,60,0.00,,---,0.00,VWS V14.01,2013-09-08 03:19:00,
2013-09-07 23:20:00,59.4,45.5,28.88,East,90,0.0,0.0,60,0.00,,---,0.00,VWS V14.01,2013-09-08 03:20:00,
2013-09-07 23:21:00,59.4,45.5,28.88,ENE,68,0.0,0.0,60,0.00,,---,0.00,VWS V14.01,2013-09-08 03:21:00,
2013-09-07 23:22:00,59.4,45.5,28.88,ENE,68,0.0,0.0,60,0.00,,---,0.00,VWS V14.01,2013-09-08 03:22:00,
2013-09-07 23:23:00,59.4,45.5,28.88,NE,45,0.0,0.0,60,0.00,,---,0.00,VWS V14.01,2013-09-08 03:23:00,
2013-09-07 23:24:00,59.4,45.5,28.88,NE,45,0.0,0.0,60,0.00,,---,0.00,VWS V14.01,2013-09-08 03:24:00,
2013-09-07 23:25:00,59.4,45.0,28.88,ENE,68,0.0,0.0,59,0.00,,---,0.00,VWS V14.01,2013-09-08 03:25:00,
2013-09-07 23:26:00,59.4,45.0,28.88,ENE,68,0.0,0.0,59,0.00,,---,0.00,VWS V14.01,2013-09-08 03:26:00,
2013-09-07 23:27:00,59.4,45.0,28.88,ENE,68,0.0,0.0,59,0.00,,---,0.00,VWS V14.01,2013-09-08 03:27:00,
2013-09-07 23:28:00,59.4,45.5,28.88,ENE,68,0.0,0.0,60,0.00,,---,0.00,VWS V14.01,2013-09-08 03:28:00,
2013-09-07 23:29:00,59.4,45.0,28.88,SSE,158,1.3,1.3,59,0.00,,---,0.00,VWS V14.01,2013-09-08 03:29:00,
2013-09-07 23:30:00,59.4,45.0,28.88,SW,225,0.0,0.0,59,0.00,,---,0.00,VWS V14.01,2013-09-08 03:30:00,
2013-09-07 23:31:00,59.4,45.0,28.88,SW,225,0.0,0.0,59,0.00,,---,0.00,VWS V14.01,2013-09-08 03:31:00,
2013-09-07 23:32:00,59.4,45.0,28.88,East,90,0.0,0.0,59,0.00,,---,0.00,VWS V14.01,2013-09-08 03:32:00,
2013-09-07 23:33:00,59.4,45.0,28.88,SSE,158,0.0,0.0,59,0.00,,---,0.00,VWS V14.01,2013-09-08 03:33:00,
2013-09-07 23:34:00,59.4,45.0,28.88,SE,135,2.5,2.5,59,0.00,,---,0.00,VWS V14.01,2013-09-08 03:34:00,
2013-09-07 23:35:00,59.4,45.0,28.88,SE,135,2.5,2.5,59,0.00,,---,0.00,VWS V14.01,2013-09-08 03:35:00,
2013-09-07 23:36:00,59.5,45.2,28.88,SSE,158,0.0,2.5,59,0.00,,---,0.00,VWS V14.01,2013-09-08 03:36:00,
2013-09-07 23:37:00,59.5,45.2,28.88,SSE,158,0.0,0.0,59,0.00,,---,0.00,VWS V14.01,2013-09-08 03:37:00,
2013-09-07 23:38:00,59.4,45.0,28.88,SE,135,0.9,0.9,59,0.00,,---,0.00,VWS V14.01,2013-09-08 03:38:00,
2013-09-07 23:39:00,59.4,45.0,28.88,SE,135,0.0,0.9,59,0.00,,---,0.00,VWS V14.01,2013-09-08 03:39:00,
2013-09-07 23:40:00,59.4,45.0,28.88,SE,135,0.0,0.0,59,0.00,,---,0.00,VWS V14.01,2013-09-08 03:40:00,
2013-09-07 23:41:00,59.4,45.0,28.88,SE,135,0.0,0.0,59,0.00,,---,0.00,VWS V14.01,2013-09-08 03:41:00,
2013-09-07 23:42:00,59.4,45.5,28.88,SE,135,0.0,0.0,60,0.00,,---,0.00,VWS V14.01,2013-09-08 03:42:00,
2013-09-07 23:43:00,59.4,45.5,28.88,SE,135,0.0,0.0,60,0.00,,---,0.00,VWS V14.01,2013-09-08 03:43:00,
2013-09-07 23:44:00,59.4,45.5,28.88,SE,135,0.0,0.0,60,0.00,,---,0.00,VWS V14.01,2013-09-08 03:44:00,
2013-09-07 23:45:00,59.4,45.5,28.88,SSE,158,0.0,0.0,60,0.00,,---,0.00,VWS V14.01,2013-09-08 03:45:00,
2013-09-07 23:46:00,59.4,45.5,28.88,SSE,158,0.0,0.0,60,0.00,,---,0.00,VWS V14.01,2013-09-08 03:46:00,
2013-09-07 23:47:00,59.4,45.5,28.88,SSE,158,0.0,0.0,60,0.00,,---,0.00,VWS V14.01,2013-09-08 03:47:00,
2013-09-07 23:48:00,59.4,45.5,28.88,SSE,158,0.0,0.0,60,0.00,,---,0.00,VWS V14.01,2013-09-08 03:48:00,
2013-09-07 23:49:00,59.4,45.5,28.88,SE,135,0.0,0.0,60,0.00,,---,0.00,VWS V14.01,2013-09-08 03:49:00,
2013-09-07 23:50:00,59.2,45.8,28.88,SE,135,0.0,0.0,61,0.00,,---,0.00,VWS V14.01,2013-09-08 03:50:00,
2013-09-07 23:51:00,59.2,45.8,28.88,WSW,248,0.0,0.0,61,0.00,,---,0.00,VWS V14.01,2013-09-08 03:51:00,
2013-09-07 23:52:00,59.4,45.9,28.88,WSW,248,0.0,0.0,61,0.00,,---,0.00,VWS V14.01,2013-09-08 03:52:00,
2013-09-07 23:53:00,59.4,45.9,28.88,WSW,248,0.0,0.0,61,0.00,,---,0.00,VWS V14.01,2013-09-08 03:53:00,
2013-09-07 23:54:00,59.2,45.8,28.88,WSW,248,0.0,0.0,61,0.00,,---,0.00,VWS V14.01,2013-09-08 03:54:00,
2013-09-07 23:55:00,59.2,45.8,28.88,ESE,112,2.0,2.0,61,0.00,,---,0.00,VWS V14.01,2013-09-08 03:55:00,
2013-09-07 23:56:00,59.2,45.8,28.88,ESE,112,2.0,2.0,61,0.00,,---,0.00,VWS V14.01,2013-09-08 03:56:00,
2013-09-07 23:57:00,59.2,45.8,28.88,ESE,112,0.0,2.0,61,0.00,,---,0.00,VWS V14.01,2013-09-08 03:57:00,
2013-09-07 23:58:00,59.2,45.8,28.88,ESE,112,0.0,0.0,61,0.00,,---,0.00,VWS V14.01,2013-09-08 03:58:00,
2013-09-07 23:59:00,59.4,46.3,28.88,ESE,112,0.0,0.0,62,0.00,,---,0.00,VWS V14.01,2013-09-08 03:59:00,